Wetterdaten: Freitag, 19.10.2018
Datum Zeit Temp. A. Pool Temp. Temp. 5cm Feuchte A. Luftdruck Regen Wind Richtung Richtung Sonnenschein ET UV Solar Taupunkt Windchill Windben Empfang
19.10.2018 00:00 9,7 C 12,2 C 5,6 C 92 % 1020,2 hPa 0,0 l/m 2,4 km/h (1 Bft) S-SW 210 0 min 0,000 mm 0,0 UV-I 0 W/m 8,5 C 9,7 C 3,2 km/h (1 Bft) 97,37 %
19.10.2018 00:02 9,7 C 12,2 C 5,6 C 92 % 1020,1 hPa 0,0 l/m 2,6 km/h (1 Bft) S-SW 210 0 min 0,000 mm 0,0 UV-I 0 W/m 8,5 C 9,7 C 3,2 km/h (1 Bft) 92,86 %
19.10.2018 00:04 9,6 C 12,2 C 5,0 C 92 % 1020,1 hPa 0,0 l/m 2,4 km/h (1 Bft) S-SW 210 0 min 0,000 mm 0,0 UV-I 0 W/m 8,4 C 9,6 C 3,2 km/h (1 Bft) 95,74 %
19.10.2018 00:06 9,6 C 12,2 C 5,0 C 92 % 1020,1 hPa 0,0 l/m 2,6 km/h (1 Bft) S-SW 210 0 min 0,000 mm 0,0 UV-I 0 W/m 8,4 C 9,6 C 3,2 km/h (1 Bft) 93,62 %
19.10.2018 00:08 9,6 C 12,2 C 5,6 C 92 % 1020,1 hPa 0,0 l/m 3,0 km/h (1 Bft) S-SW 210 0 min 0,000 mm 0,0 UV-I 0 W/m 8,4 C 9,6 C 3,2 km/h (1 Bft) 93,62 %
19.10.2018 00:10 9,4 C 12,2 C 6,1 C 92 % 1020,1 hPa 0,0 l/m 3,3 km/h (1 Bft) S-SW 210 0 min 0,000 mm 0,0 UV-I 0 W/m 8,2 C 9,4 C 4,8 km/h (1 Bft) 97,44 %
19.10.2018 00:12 9,3 C 12,2 C 6,1 C 92 % 1020,1 hPa 0,0 l/m 3,7 km/h (1 Bft) S-SW 210 0 min 0,000 mm 0,0 UV-I 0 W/m 8,1 C 9,3 C 4,8 km/h (1 Bft) 98,00 %
19.10.2018 00:14 9,2 C 12,2 C 5,6 C 92 % 1020,1 hPa 0,0 l/m 2,8 km/h (1 Bft) S-SW 210 0 min 0,000 mm 0,0 UV-I 0 W/m 8,0 C 9,2 C 3,2 km/h (1 Bft) 97,87 %
19.10.2018 00:16 9,3 C 12,2 C 5,6 C 93 % 1020,1 hPa 0,0 l/m 3,3 km/h (1 Bft) S-SW 210 0 min 0,000 mm 0,0 UV-I 0 W/m 8,2 C 9,3 C 4,8 km/h (1 Bft) 97,87 %
19.10.2018 00:18 9,4 C 12,2 C 5,6 C 93 % 1020,1 hPa 0,0 l/m 3,9 km/h (1 Bft) S-SW 210 0 min 0,000 mm 0,0 UV-I 0 W/m 8,3 C 9,4 C 4,8 km/h (1 Bft) 95,74 %
19.10.2018 00:20 9,2 C 12,2 C 5,6 C 92 % 1020,1 hPa 0,0 l/m 3,9 km/h (1 Bft) S-SW 210 0 min 0,000 mm 0,0 UV-I 0 W/m 8,0 C 9,2 C 4,8 km/h (1 Bft) 97,87 %
19.10.2018 00:22 9,2 C 12,2 C 5,0 C 93 % 1020,2 hPa 0,0 l/m 4,3 km/h (1 Bft) S-SW 210 0 min 0,000 mm 0,0 UV-I 0 W/m 8,1 C 9,2 C 4,8 km/h (1 Bft) 95,74 %
19.10.2018 00:24 9,2 C 12,2 C 5,0 C 93 % 1020,2 hPa 0,0 l/m 3,0 km/h (1 Bft) S-SW 210 0 min 0,000 mm 0,0 UV-I 0 W/m 8,1 C 9,2 C 4,8 km/h (1 Bft) 94,00 %
19.10.2018 00:26 9,2 C 12,2 C 5,0 C 93 % 1020,2 hPa 0,0 l/m 4,1 km/h (1 Bft) S-SW 210 0 min 0,000 mm 0,0 UV-I 0 W/m 8,1 C 9,2 C 4,8 km/h (1 Bft) 97,87 %
19.10.2018 00:28 9,1 C 12,2 C 5,0 C 93 % 1020,2 hPa 0,0 l/m 4,3 km/h (1 Bft) S-SW 210 0 min 0,000 mm 0,0 UV-I 0 W/m 8,0 C 9,1 C 6,4 km/h (2 Bft) 97,87 %
19.10.2018 00:30 9,1 C 12,2 C 5,6 C 92 % 1020,2 hPa 0,0 l/m 3,5 km/h (1 Bft) S-SW 210 0 min 0,000 mm 0,0 UV-I 0 W/m 7,9 C 9,1 C 4,8 km/h (1 Bft) 95,74 %
19.10.2018 00:32 9,1 C 12,2 C 5,0 C 93 % 1020,2 hPa 0,0 l/m 2,9 km/h (1 Bft) S-SW 210 0 min 0,000 mm 0,0 UV-I 0 W/m 8,0 C 9,1 C 3,2 km/h (1 Bft) 97,87 %
19.10.2018 00:34 9,1 C 12,2 C 5,0 C 93 % 1020,2 hPa 0,0 l/m 2,5 km/h (1 Bft) S-SW 210 0 min 0,000 mm 0,0 UV-I 0 W/m 8,0 C 9,1 C 3,2 km/h (1 Bft) 96,00 %
19.10.2018 00:36 9,2 C 12,2 C 5,0 C 94 % 1020,3 hPa 0,0 l/m 2,2 km/h (1 Bft) S-SW 210 0 min 0,000 mm 0,0 UV-I 0 W/m 8,3 C 9,2 C 3,2 km/h (1 Bft) 97,37 %
19.10.2018 00:38 9,2 C 12,2 C 5,6 C 94 % 1020,3 hPa 0,0 l/m 2,7 km/h (1 Bft) S-SW 210 0 min 0,000 mm 0,0 UV-I 0 W/m 8,3 C 9,2 C 3,2 km/h (1 Bft) 97,87 %
19.10.2018 00:40 9,3 C 12,2 C 5,6 C 94 % 1020,3 hPa 0,0 l/m 2,5 km/h (1 Bft) S-SW 210 0 min 0,000 mm 0,0 UV-I 0 W/m 8,4 C 9,3 C 3,2 km/h (1 Bft) 95,74 %
19.10.2018 00:42 9,2 C 12,2 C 5,6 C 93 % 1020,3 hPa 0,0 l/m 2,7 km/h (1 Bft) S-SW 210 0 min 0,000 mm 0,0 UV-I 0 W/m 8,1 C 9,2 C 4,8 km/h (1 Bft) 98,00 %
19.10.2018 00:44 9,2 C 12,2 C 6,1 C 93 % 1020,3 hPa 0,0 l/m 3,5 km/h (1 Bft) S-SW 210 0 min 0,000 mm 0,0 UV-I 0 W/m 8,1 C 9,2 C 4,8 km/h (1 Bft) 95,74 %
19.10.2018 00:46 9,0 C 12,2 C 6,1 C 92 % 1020,3 hPa 0,0 l/m 3,6 km/h (1 Bft) S-SW 210 0 min 0,000 mm 0,0 UV-I 0 W/m 7,8 C 9,0 C 4,8 km/h (1 Bft) 98,00 %
19.10.2018 00:48 8,9 C 12,2 C 5,6 C 93 % 1020,3 hPa 0,0 l/m 3,6 km/h (1 Bft) S-SW 210 0 min 0,000 mm 0,0 UV-I 0 W/m 7,8 C 8,9 C 4,8 km/h (1 Bft) 95,74 %
19.10.2018 00:50 8,9 C 12,2 C 5,6 C 93 % 1020,3 hPa 0,0 l/m 4,3 km/h (1 Bft) S-SW 205 0 min 0,000 mm 0,0 UV-I 0 W/m 7,8 C 8,9 C 4,8 km/h (1 Bft) 95,12 %
19.10.2018 00:52 8,8 C 12,2 C 5,0 C 93 % 1020,3 hPa 0,0 l/m 3,9 km/h (1 Bft) S-SW 205 0 min 0,000 mm 0,0 UV-I 0 W/m 7,7 C 8,8 C 4,8 km/h (1 Bft) 95,83 %
19.10.2018 00:54 8,9 C 12,2 C 5,0 C 93 % 1020,2 hPa 0,0 l/m 3,3 km/h (1 Bft) S-SW 205 0 min 0,000 mm 0,0 UV-I 0 W/m 7,8 C 8,9 C 4,8 km/h (1 Bft) 93,62 %
19.10.2018 00:56 8,9 C 12,2 C 5,0 C 94 % 1020,2 hPa 0,0 l/m 3,1 km/h (1 Bft) S-SW 205 0 min 0,000 mm 0,0 UV-I 0 W/m 8,0 C 8,9 C 4,8 km/h (1 Bft) 93,62 %
19.10.2018 00:58 9,0 C 12,2 C 5,0 C 94 % 1020,2 hPa 0,0 l/m 4,1 km/h (1 Bft) S-SW 205 0 min 0,000 mm 0,0 UV-I 0 W/m 8,1 C 9,0 C 4,8 km/h (1 Bft) 93,62 %
19.10.2018 01:00 9,1 C 12,2 C 5,6 C 94 % 1020,2 hPa 0,0 l/m 3,9 km/h (1 Bft) S-SW 205 0 min 0,000 mm 0,0 UV-I 0 W/m 8,2 C 9,1 C 4,8 km/h (1 Bft) 95,74 %
19.10.2018 01:02 8,9 C 12,2 C 6,1 C 93 % 1020,1 hPa 0,0 l/m 3,6 km/h (1 Bft) S-SW 205 0 min 0,000 mm 0,0 UV-I 0 W/m 7,8 C 8,9 C 4,8 km/h (1 Bft) 97,87 %
19.10.2018 01:04 8,8 C 12,2 C 6,1 C 93 % 1020,1 hPa 0,0 l/m 3,6 km/h (1 Bft) S-SW 205 0 min 0,000 mm 0,0 UV-I 0 W/m 7,7 C 8,8 C 4,8 km/h (1 Bft) 97,87 %
19.10.2018 01:06 8,7 C 12,2 C 5,6 C 93 % 1020,1 hPa 0,0 l/m 2,8 km/h (1 Bft) S-SW 205 0 min 0,000 mm 0,0 UV-I 0 W/m 7,6 C 8,7 C 3,2 km/h (1 Bft) 96,00 %
19.10.2018 01:08 8,7 C 12,2 C 5,6 C 94 % 1020,1 hPa 0,0 l/m 3,9 km/h (1 Bft) S-SW 205 0 min 0,000 mm 0,0 UV-I 0 W/m 7,8 C 8,7 C 4,8 km/h (1 Bft) 100,00 %
19.10.2018 01:10 8,8 C 12,2 C 6,1 C 94 % 1020,1 hPa 0,0 l/m 4,9 km/h (1 Bft) S-SW 205 0 min 0,000 mm 0,0 UV-I 0 W/m 7,9 C 8,8 C 6,4 km/h (2 Bft) 97,87 %
19.10.2018 01:12 8,8 C 12,2 C 6,1 C 94 % 1020,1 hPa 0,0 l/m 5,2 km/h (1 Bft) S-SW 204 0 min 0,000 mm 0,0 UV-I 0 W/m 7,9 C 8,8 C 6,4 km/h (2 Bft) 100,00 %
19.10.2018 01:14 8,8 C 12,2 C 5,6 C 94 % 1020,1 hPa 0,0 l/m 4,7 km/h (1 Bft) S-SW 204 0 min 0,000 mm 0,0 UV-I 0 W/m 7,9 C 8,8 C 6,4 km/h (2 Bft) 95,74 %
19.10.2018 01:16 8,9 C 12,2 C 5,6 C 94 % 1020,1 hPa 0,0 l/m 2,7 km/h (1 Bft) S-SW 204 0 min 0,000 mm 0,0 UV-I 0 W/m 8,0 C 8,9 C 4,8 km/h (1 Bft) 100,00 %
19.10.2018 01:18 8,8 C 12,2 C 5,6 C 94 % 1020,2 hPa 0,0 l/m 5,1 km/h (1 Bft) S-SW 198 0 min 0,000 mm 0,0 UV-I 0 W/m 7,9 C 8,8 C 8,0 km/h (2 Bft) 100,00 %
19.10.2018 01:20 8,9 C 12,2 C 6,1 C 94 % 1020,1 hPa 0,0 l/m 5,0 km/h (1 Bft) S-SW 202 0 min 0,000 mm 0,0 UV-I 0 W/m 8,0 C 8,9 C 8,0 km/h (2 Bft) 100,00 %
19.10.2018 01:22 9,0 C 12,2 C 6,7 C 94 % 1020,2 hPa 0,0 l/m 3,9 km/h (1 Bft) S-SW 208 0 min 0,000 mm 0,0 UV-I 0 W/m 8,1 C 9,0 C 4,8 km/h (1 Bft) 100,00 %
19.10.2018 01:24 8,9 C 12,2 C 6,1 C 94 % 1020,3 hPa 0,0 l/m 2,8 km/h (1 Bft) S-SW 208 0 min 0,000 mm 0,0 UV-I 0 W/m 8,0 C 8,9 C 3,2 km/h (1 Bft) 100,00 %
19.10.2018 01:26 8,8 C 12,2 C 5,6 C 93 % 1020,2 hPa 0,0 l/m 2,3 km/h (1 Bft) S-SW 208 0 min 0,000 mm 0,0 UV-I 0 W/m 7,7 C 8,8 C 3,2 km/h (1 Bft) 98,11 %
19.10.2018 01:28 8,8 C 12,2 C 6,1 C 94 % 1020,2 hPa 0,0 l/m 4,1 km/h (1 Bft) S-SW 208 0 min 0,000 mm 0,0 UV-I 0 W/m 7,9 C 8,8 C 6,4 km/h (2 Bft) 100,00 %
19.10.2018 01:30 8,7 C 12,2 C 6,7 C 94 % 1020,1 hPa 0,0 l/m 4,9 km/h (1 Bft) S-SW 207 0 min 0,000 mm 0,0 UV-I 0 W/m 7,8 C 8,7 C 6,4 km/h (2 Bft) 100,00 %
19.10.2018 01:32 8,8 C 12,2 C 6,7 C 94 % 1020,1 hPa 0,0 l/m 4,4 km/h (1 Bft) S-SW 207 0 min 0,000 mm 0,0 UV-I 0 W/m 7,9 C 8,8 C 6,4 km/h (2 Bft) 100,00 %
19.10.2018 01:34 8,9 C 12,2 C 6,1 C 94 % 1020,1 hPa 0,0 l/m 4,0 km/h (1 Bft) S-SW 207 0 min 0,000 mm 0,0 UV-I 0 W/m 8,0 C 8,9 C 6,4 km/h (2 Bft) 95,74 %
19.10.2018 01:36 8,8 C 12,2 C 6,1 C 94 % 1020,0 hPa 0,0 l/m 3,5 km/h (1 Bft) S-SW 207 0 min 0,000 mm 0,0 UV-I 0 W/m 7,9 C 8,8 C 4,8 km/h (1 Bft) 100,00 %
19.10.2018 01:38 8,7 C 12,2 C 6,1 C 93 % 1020,1 hPa 0,0 l/m 4,1 km/h (1 Bft) S-SW 207 0 min 0,000 mm 0,0 UV-I 0 W/m 7,6 C 8,7 C 6,4 km/h (2 Bft) 100,00 %
19.10.2018 01:40 8,8 C 12,2 C 6,1 C 94 % 1020,1 hPa 0,0 l/m 4,4 km/h (1 Bft) S-SW 207 0 min 0,000 mm 0,0 UV-I 0 W/m 7,9 C 8,8 C 6,4 km/h (2 Bft) 100,00 %
19.10.2018 01:42 8,9 C 12,2 C 6,1 C 94 % 1020,1 hPa 0,0 l/m 4,0 km/h (1 Bft) S-SW 207 0 min 0,000 mm 0,0 UV-I 0 W/m 8,0 C 8,9 C 4,8 km/h (1 Bft) 100,00 %
19.10.2018 01:44 8,9 C 12,2 C 6,7 C 94 % 1020,0 hPa 0,0 l/m 4,0 km/h (1 Bft) S-SW 207 0 min 0,000 mm 0,0 UV-I 0 W/m 8,0 C 8,9 C 6,4 km/h (2 Bft) 97,87 %
19.10.2018 01:46 8,9 C 12,2 C 6,7 C 94 % 1020,0 hPa 0,0 l/m 4,0 km/h (1 Bft) S-SW 207 0 min 0,000 mm 0,0 UV-I 0 W/m 8,0 C 8,9 C 4,8 km/h (1 Bft) 100,00 %
19.10.2018 01:48 8,9 C 12,2 C 6,1 C 94 % 1020,0 hPa 0,0 l/m 4,4 km/h (1 Bft) S-SW 207 0 min 0,000 mm 0,0 UV-I 0 W/m 8,0 C 8,9 C 4,8 km/h (1 Bft) 100,00 %
19.10.2018 01:50 8,9 C 12,2 C 5,6 C 93 % 1020,1 hPa 0,0 l/m 3,9 km/h (1 Bft) S-SW 207 0 min 0,000 mm 0,0 UV-I 0 W/m 7,8 C 8,9 C 4,8 km/h (1 Bft) 97,87 %
19.10.2018 01:52 8,9 C 12,2 C 5,6 C 93 % 1020,0 hPa 0,0 l/m 3,3 km/h (1 Bft) S-SW 207 0 min 0,000 mm 0,0 UV-I 0 W/m 7,8 C 8,9 C 4,8 km/h (1 Bft) 100,00 %
19.10.2018 01:54 8,9 C 12,2 C 5,6 C 94 % 1020,1 hPa 0,0 l/m 3,6 km/h (1 Bft) S-SW 207 0 min 0,000 mm 0,0 UV-I 0 W/m 8,0 C 8,9 C 4,8 km/h (1 Bft) 97,87 %
19.10.2018 01:56 8,9 C 12,2 C 5,0 C 94 % 1020,0 hPa 0,0 l/m 3,5 km/h (1 Bft) S-SW 207 0 min 0,000 mm 0,0 UV-I 0 W/m 8,0 C 8,9 C 4,8 km/h (1 Bft) 97,87 %
19.10.2018 01:58 8,9 C 12,2 C 5,0 C 93 % 1020,1 hPa 0,0 l/m 2,2 km/h (1 Bft) S-SW 207 0 min 0,000 mm 0,0 UV-I 0 W/m 7,8 C 8,9 C 3,2 km/h (1 Bft) 95,74 %
19.10.2018 02:00 8,8 C 12,2 C 5,0 C 93 % 1020,0 hPa 0,0 l/m 1,9 km/h (1 Bft) S-SW 207 0 min 0,000 mm 0,0 UV-I 0 W/m 7,7 C 8,8 C 3,2 km/h (1 Bft) 93,75 %
19.10.2018 02:02 8,7 C 12,2 C 5,0 C 93 % 1020,1 hPa 0,0 l/m 2,1 km/h (1 Bft) S-SW 207 0 min 0,000 mm 0,0 UV-I 0 W/m 7,6 C 8,7 C 3,2 km/h (1 Bft) 97,87 %
19.10.2018 02:04 8,6 C 12,2 C 5,0 C 93 % 1020,1 hPa 0,0 l/m 3,0 km/h (1 Bft) S-SW 207 0 min 0,000 mm 0,0 UV-I 0 W/m 7,5 C 8,6 C 3,2 km/h (1 Bft) 94,74 %
19.10.2018 02:06 8,4 C 12,2 C 5,0 C 93 % 1020,1 hPa 0,0 l/m 2,6 km/h (1 Bft) S-SW 207 0 min 0,000 mm 0,0 UV-I 0 W/m 7,3 C 8,4 C 3,2 km/h (1 Bft) 96,00 %
19.10.2018 02:08 8,4 C 12,2 C 5,0 C 94 % 1020,1 hPa 0,0 l/m 3,3 km/h (1 Bft) S-SW 207 0 min 0,000 mm 0,0 UV-I 0 W/m 7,5 C 8,4 C 4,8 km/h (1 Bft) 93,62 %
19.10.2018 02:10 8,3 C 12,2 C 4,4 C 93 % 1020,1 hPa 0,0 l/m 3,3 km/h (1 Bft) S-SW 207 0 min 0,000 mm 0,0 UV-I 0 W/m 7,2 C 8,3 C 4,8 km/h (1 Bft) 95,74 %
19.10.2018 02:12 8,2 C 12,2 C 5,0 C 93 % 1020,0 hPa 0,0 l/m 3,7 km/h (1 Bft) S-SW 207 0 min 0,000 mm 0,0 UV-I 0 W/m 7,1 C 8,2 C 4,8 km/h (1 Bft) 94,00 %
19.10.2018 02:14 8,2 C 12,2 C 5,0 C 93 % 1020,1 hPa 0,0 l/m 4,4 km/h (1 Bft) S-SW 207 0 min 0,000 mm 0,0 UV-I 0 W/m 7,1 C 8,2 C 6,4 km/h (2 Bft) 91,49 %
19.10.2018 02:16 8,1 C 12,2 C 5,6 C 94 % 1020,1 hPa 0,0 l/m 4,4 km/h (1 Bft) S-SW 207 0 min 0,000 mm 0,0 UV-I 0 W/m 7,2 C 8,1 C 6,4 km/h (2 Bft) 95,74 %
19.10.2018 02:18 8,1 C 12,2 C 5,0 C 94 % 1020,1 hPa 0,0 l/m 2,5 km/h (1 Bft) S-SW 207 0 min 0,000 mm 0,0 UV-I 0 W/m 7,2 C 8,1 C 3,2 km/h (1 Bft) 93,62 %
19.10.2018 02:20 8,1 C 12,2 C 5,0 C 94 % 1020,1 hPa 0,0 l/m 2,2 km/h (1 Bft) S-SW 207 0 min 0,000 mm 0,0 UV-I 0 W/m 7,2 C 8,1 C 3,2 km/h (1 Bft) 93,62 %
19.10.2018 02:22 8,2 C 12,2 C 4,4 C 94 % 1020,1 hPa 0,0 l/m 2,4 km/h (1 Bft) S-SW 207 0 min 0,000 mm 0,0 UV-I 0 W/m 7,3 C 8,2 C 3,2 km/h (1 Bft) 93,62 %
19.10.2018 02:24 8,3 C 12,2 C 4,4 C 94 % 1020,1 hPa 0,0 l/m 1,9 km/h (1 Bft) S-SW 207 0 min 0,000 mm 0,0 UV-I 0 W/m 7,4 C 8,3 C 3,2 km/h (1 Bft) 97,37 %
19.10.2018 02:26 8,3 C 12,2 C 3,9 C 94 % 1020,1 hPa 0,0 l/m 3,5 km/h (1 Bft) SW 214 0 min 0,000 mm 0,0 UV-I 0 W/m 7,4 C 8,3 C 4,8 km/h (1 Bft) 95,74 %
19.10.2018 02:28 8,2 C 12,2 C 4,4 C 94 % 1020,0 hPa 0,0 l/m 3,7 km/h (1 Bft) W-SW 241 0 min 0,000 mm 0,0 UV-I 0 W/m 7,3 C 8,2 C 4,8 km/h (1 Bft) 97,92 %
19.10.2018 02:30 8,2 C 12,2 C 5,0 C 94 % 1020,0 hPa 0,0 l/m 4,4 km/h (1 Bft) W-SW 241 0 min 0,000 mm 0,0 UV-I 0 W/m 7,3 C 8,2 C 4,8 km/h (1 Bft) 95,74 %
19.10.2018 02:32 8,2 C 12,2 C 5,6 C 94 % 1020,1 hPa 0,0 l/m 4,1 km/h (1 Bft) W-SW 241 0 min 0,000 mm 0,0 UV-I 0 W/m 7,3 C 8,2 C 4,8 km/h (1 Bft) 95,74 %
19.10.2018 02:34 8,2 C 12,2 C 5,6 C 94 % 1020,0 hPa 0,0 l/m 3,8 km/h (1 Bft) W-SW 241 0 min 0,000 mm 0,0 UV-I 0 W/m 7,3 C 8,2 C 4,8 km/h (1 Bft) 97,87 %
19.10.2018 02:36 8,2 C 12,2 C 5,6 C 94 % 1020,1 hPa 0,0 l/m 3,5 km/h (1 Bft) W-SW 241 0 min 0,000 mm 0,0 UV-I 0 W/m 7,3 C 8,2 C 4,8 km/h (1 Bft) 100,00 %
19.10.2018 02:38 8,1 C 12,2 C 5,6 C 94 % 1020,1 hPa 0,0 l/m 3,1 km/h (1 Bft) W-SW 241 0 min 0,000 mm 0,0 UV-I 0 W/m 7,2 C 8,1 C 4,8 km/h (1 Bft) 100,00 %
19.10.2018 02:40 8,0 C 12,2 C 5,6 C 94 % 1020,1 hPa 0,0 l/m 4,2 km/h (1 Bft) W-SW 240 0 min 0,000 mm 0,0 UV-I 0 W/m 7,1 C 8,0 C 4,8 km/h (1 Bft) 100,00 %
19.10.2018 02:42 7,7 C 12,2 C 5,6 C 93 % 1020,1 hPa 0,0 l/m 4,7 km/h (1 Bft) W-SW 240 0 min 0,000 mm 0,0 UV-I 0 W/m 6,6 C 7,7 C 6,4 km/h (2 Bft) 97,87 %
19.10.2018 02:44 7,7 C 12,2 C 5,0 C 94 % 1020,0 hPa 0,0 l/m 4,2 km/h (1 Bft) W-SW 240 0 min 0,000 mm 0,0 UV-I 0 W/m 6,8 C 7,7 C 4,8 km/h (1 Bft) 100,00 %
19.10.2018 02:46 7,6 C 12,2 C 4,4 C 94 % 1020,0 hPa 0,0 l/m 2,9 km/h (1 Bft) W-SW 240 0 min 0,000 mm 0,0 UV-I 0 W/m 6,7 C 7,6 C 4,8 km/h (1 Bft) 100,00 %
19.10.2018 02:48 7,8 C 12,2 C 4,4 C 94 % 1020,0 hPa 0,0 l/m 3,0 km/h (1 Bft) W-SW 240 0 min 0,000 mm 0,0 UV-I 0 W/m 6,9 C 7,8 C 4,8 km/h (1 Bft) 100,00 %
19.10.2018 02:50 8,0 C 12,2 C 4,4 C 95 % 1020,0 hPa 0,0 l/m 4,3 km/h (1 Bft) W-SW 240 0 min 0,000 mm 0,0 UV-I 0 W/m 7,2 C 8,0 C 4,8 km/h (1 Bft) 100,00 %
19.10.2018 02:52 7,9 C 12,2 C 4,4 C 94 % 1019,9 hPa 0,0 l/m 3,9 km/h (1 Bft) W-SW 240 0 min 0,000 mm 0,0 UV-I 0 W/m 7,0 C 7,9 C 4,8 km/h (1 Bft) 100,00 %
19.10.2018 02:54 7,8 C 12,2 C 4,4 C 94 % 1019,9 hPa 0,0 l/m 3,8 km/h (1 Bft) W-SW 240 0 min 0,000 mm 0,0 UV-I 0 W/m 6,9 C 7,8 C 4,8 km/h (1 Bft) 95,74 %
19.10.2018 02:56 7,7 C 12,2 C 4,4 C 94 % 1020,0 hPa 0,0 l/m 3,6 km/h (1 Bft) W-SW 240 0 min 0,000 mm 0,0 UV-I 0 W/m 6,8 C 7,7 C 4,8 km/h (1 Bft) 100,00 %
19.10.2018 02:58 7,7 C 12,2 C 4,4 C 94 % 1020,0 hPa 0,0 l/m 3,8 km/h (1 Bft) W-SW 240 0 min 0,000 mm 0,0 UV-I 0 W/m 6,8 C 7,7 C 4,8 km/h (1 Bft) 97,87 %
19.10.2018 03:00 7,8 C 12,2 C 4,4 C 94 % 1020,0 hPa 0,0 l/m 3,6 km/h (1 Bft) W-SW 240 0 min 0,000 mm 0,0 UV-I 0 W/m 6,9 C 7,8 C 4,8 km/h (1 Bft) 95,83 %
19.10.2018 03:02 7,8 C 12,2 C 5,0 C 94 % 1019,9 hPa 0,0 l/m 3,7 km/h (1 Bft) W-SW 240 0 min 0,000 mm 0,0 UV-I 0 W/m 6,9 C 7,8 C 4,8 km/h (1 Bft) 100,00 %
19.10.2018 03:04 7,7 C 12,2 C 5,0 C 94 % 1020,0 hPa 0,0 l/m 2,9 km/h (1 Bft) W-SW 240 0 min 0,000 mm 0,0 UV-I 0 W/m 6,8 C 7,7 C 4,8 km/h (1 Bft) 97,87 %
19.10.2018 03:06 7,6 C 12,2 C 5,0 C 94 % 1019,9 hPa 0,0 l/m 3,1 km/h (1 Bft) W-SW 240 0 min 0,000 mm 0,0 UV-I 0 W/m 6,7 C 7,6 C 4,8 km/h (1 Bft) 100,00 %
19.10.2018 03:08 7,7 C 12,2 C 4,4 C 94 % 1020,0 hPa 0,0 l/m 4,1 km/h (1 Bft) W-SW 240 0 min 0,000 mm 0,0 UV-I 0 W/m 6,8 C 7,7 C 6,4 km/h (2 Bft) 100,00 %
19.10.2018 03:10 7,9 C 12,2 C 4,4 C 95 % 1020,0 hPa 0,0 l/m 4,2 km/h (1 Bft) W-SW 240 0 min 0,000 mm 0,0 UV-I 0 W/m 7,1 C 7,9 C 6,4 km/h (2 Bft) 100,00 %
19.10.2018 03:12 8,1 C 12,2 C 4,4 C 95 % 1020,0 hPa 0,0 l/m 4,1 km/h (1 Bft) W-SW 240 0 min 0,000 mm 0,0 UV-I 0 W/m 7,3 C 8,1 C 4,8 km/h (1 Bft) 97,87 %
19.10.2018 03:14 7,8 C 12,2 C 4,4 C 95 % 1020,0 hPa 0,0 l/m 4,3 km/h (1 Bft) W-SW 240 0 min 0,000 mm 0,0 UV-I 0 W/m 7,0 C 7,8 C 4,8 km/h (1 Bft) 97,87 %
19.10.2018 03:16 7,7 C 12,2 C 4,4 C 94 % 1020,0 hPa 0,0 l/m 4,5 km/h (1 Bft) W-SW 240 0 min 0,000 mm 0,0 UV-I 0 W/m 6,8 C 7,7 C 6,4 km/h (2 Bft) 100,00 %
19.10.2018 03:18 7,7 C 12,2 C 4,4 C 94 % 1020,0 hPa 0,0 l/m 4,6 km/h (1 Bft) S-SW 209 0 min 0,000 mm 0,0 UV-I 0 W/m 6,8 C 7,7 C 6,4 km/h (2 Bft) 100,00 %
19.10.2018 03:20 7,7 C 12,2 C 4,4 C 95 % 1020,0 hPa 0,0 l/m 4,2 km/h (1 Bft) S-SW 207 0 min 0,000 mm 0,0 UV-I 0 W/m 7,0 C 7,7 C 4,8 km/h (1 Bft) 100,00 %
19.10.2018 03:22 7,7 C 12,2 C 4,4 C 95 % 1020,0 hPa 0,0 l/m 3,8 km/h (1 Bft) S-SW 207 0 min 0,000 mm 0,0 UV-I 0 W/m 7,0 C 7,7 C 4,8 km/h (1 Bft) 97,87 %
19.10.2018 03:24 7,8 C 12,2 C 3,9 C 95 % 1020,0 hPa 0,0 l/m 2,6 km/h (1 Bft) S-SW 207 0 min 0,000 mm 0,0 UV-I 0 W/m 7,0 C 7,8 C 3,2 km/h (1 Bft) 94,00 %
19.10.2018 03:26 7,7 C 12,2 C 3,9 C 95 % 1020,0 hPa 0,0 l/m 2,5 km/h (1 Bft) S-SW 207 0 min 0,000 mm 0,0 UV-I 0 W/m 7,0 C 7,7 C 3,2 km/h (1 Bft) 98,00 %
19.10.2018 03:28 7,8 C 12,2 C 3,9 C 95 % 1020,0 hPa 0,0 l/m 3,2 km/h (1 Bft) S-SW 207 0 min 0,000 mm 0,0 UV-I 0 W/m 7,0 C 7,8 C 4,8 km/h (1 Bft) 95,74 %
19.10.2018 03:30 7,9 C 12,2 C 3,9 C 95 % 1020,0 hPa 0,0 l/m 3,2 km/h (1 Bft) S-SW 207 0 min 0,000 mm 0,0 UV-I 0 W/m 7,1 C 7,9 C 3,2 km/h (1 Bft) 97,87 %
19.10.2018 03:32 7,9 C 12,2 C 3,9 C 95 % 1020,0 hPa 0,0 l/m 3,1 km/h (1 Bft) S-SW 207 0 min 0,000 mm 0,0 UV-I 0 W/m 7,1 C 7,9 C 4,8 km/h (1 Bft) 97,92 %
19.10.2018 03:34 7,7 C 12,2 C 4,4 C 95 % 1020,0 hPa 0,0 l/m 2,7 km/h (1 Bft) S-SW 207 0 min 0,000 mm 0,0 UV-I 0 W/m 7,0 C 7,7 C 3,2 km/h (1 Bft) 95,74 %
19.10.2018 03:36 7,5 C 12,2 C 4,4 C 94 % 1020,0 hPa 0,0 l/m 2,1 km/h (1 Bft) S-SW 207 0 min 0,000 mm 0,0 UV-I 0 W/m 6,6 C 7,5 C 3,2 km/h (1 Bft) 93,62 %
19.10.2018 03:38 7,4 C 12,2 C 4,4 C 94 % 1020,0 hPa 0,0 l/m 2,0 km/h (1 Bft) S-SW 207 0 min 0,000 mm 0,0 UV-I 0 W/m 6,5 C 7,4 C 3,2 km/h (1 Bft) 95,74 %
19.10.2018 03:40 7,4 C 12,2 C 3,9 C 94 % 1020,0 hPa 0,0 l/m 2,7 km/h (1 Bft) S-SW 207 0 min 0,000 mm 0,0 UV-I 0 W/m 6,5 C 7,4 C 3,2 km/h (1 Bft) 97,37 %
19.10.2018 03:42 7,4 C 12,2 C 4,4 C 95 % 1020,0 hPa 0,0 l/m 3,0 km/h (1 Bft) S-SW 207 0 min 0,000 mm 0,0 UV-I 0 W/m 6,7 C 7,4 C 4,8 km/h (1 Bft) 94,00 %
19.10.2018 03:44 7,3 C 12,2 C 5,0 C 95 % 1019,9 hPa 0,0 l/m 3,1 km/h (1 Bft) S-SW 207 0 min 0,000 mm 0,0 UV-I 0 W/m 6,6 C 7,3 C 4,8 km/h (1 Bft) 97,87 %
19.10.2018 03:46 7,3 C 12,2 C 5,0 C 94 % 1019,9 hPa 0,0 l/m 3,2 km/h (1 Bft) S-SW 207 0 min 0,000 mm 0,0 UV-I 0 W/m 6,4 C 7,3 C 4,8 km/h (1 Bft) 97,87 %
19.10.2018 03:48 7,2 C 12,2 C 5,0 C 95 % 1019,9 hPa 0,0 l/m 2,4 km/h (1 Bft) S-SW 207 0 min 0,000 mm 0,0 UV-I 0 W/m 6,5 C 7,2 C 3,2 km/h (1 Bft) 94,00 %
19.10.2018 03:50 7,1 C 12,2 C 4,4 C 94 % 1019,9 hPa 0,0 l/m 2,7 km/h (1 Bft) S-SW 207 0 min 0,000 mm 0,0 UV-I 0 W/m 6,2 C 7,1 C 3,2 km/h (1 Bft) 91,49 %
19.10.2018 03:52 7,0 C 12,2 C 3,9 C 94 % 1019,9 hPa 0,0 l/m 3,1 km/h (1 Bft) S-SW 207 0 min 0,000 mm 0,0 UV-I 0 W/m 6,1 C 7,0 C 4,8 km/h (1 Bft) 97,87 %
19.10.2018 03:54 7,1 C 12,2 C 3,9 C 95 % 1019,9 hPa 0,0 l/m 3,7 km/h (1 Bft) S-SW 207 0 min 0,000 mm 0,0 UV-I 0 W/m 6,4 C 7,1 C 4,8 km/h (1 Bft) 97,87 %
19.10.2018 03:56 7,3 C 12,2 C 3,9 C 95 % 1019,9 hPa 0,0 l/m 4,2 km/h (1 Bft) S-SW 207 0 min 0,000 mm 0,0 UV-I 0 W/m 6,6 C 7,3 C 6,4 km/h (2 Bft) 97,87 %
19.10.2018 03:58 7,6 C 12,2 C 3,9 C 95 % 1019,9 hPa 0,0 l/m 2,7 km/h (1 Bft) S-SW 207 0 min 0,000 mm 0,0 UV-I 0 W/m 6,9 C 7,6 C 3,2 km/h (1 Bft) 97,62 %
19.10.2018 04:00 7,6 C 12,2 C 3,3 C 95 % 1019,9 hPa 0,0 l/m 2,2 km/h (1 Bft) S-SW 207 0 min 0,000 mm 0,0 UV-I 0 W/m 6,9 C 7,6 C 3,2 km/h (1 Bft) 97,87 %
19.10.2018 04:02 7,6 C 12,2 C 3,3 C 95 % 1019,8 hPa 0,0 l/m 2,6 km/h (1 Bft) S-SW 207 0 min 0,000 mm 0,0 UV-I 0 W/m 6,9 C 7,6 C 3,2 km/h (1 Bft) 94,12 %
19.10.2018 04:04 7,7 C 12,2 C 3,9 C 95 % 1019,9 hPa 0,0 l/m 0,6 km/h (0 Bft) S-SW 207 0 min 0,000 mm 0,0 UV-I 0 W/m 7,0 C 7,7 C 3,2 km/h (1 Bft) 97,87 %
19.10.2018 04:06 7,6 C 12,2 C 4,4 C 95 % 1019,9 hPa 0,0 l/m 1,4 km/h (1 Bft) S-SW 207 0 min 0,000 mm 0,0 UV-I 0 W/m 6,9 C 7,6 C 3,2 km/h (1 Bft) 97,87 %
19.10.2018 04:08 7,4 C 12,2 C 4,4 C 95 % 1019,9 hPa 0,0 l/m 2,2 km/h (1 Bft) S-SW 207 0 min 0,000 mm 0,0 UV-I 0 W/m 6,7 C 7,4 C 3,2 km/h (1 Bft) 97,87 %
19.10.2018 04:10 7,5 C 12,2 C 4,4 C 95 % 1019,9 hPa 0,0 l/m 1,5 km/h (1 Bft) S-SW 207 0 min 0,000 mm 0,0 UV-I 0 W/m 6,8 C 7,5 C 3,2 km/h (1 Bft) 97,87 %
19.10.2018 04:12 7,4 C 12,2 C 3,9 C 95 % 1019,9 hPa 0,0 l/m 0,1 km/h (0 Bft) S-SW 207 0 min 0,000 mm 0,0 UV-I 0 W/m 6,7 C 7,4 C 1,6 km/h (1 Bft) 95,74 %
19.10.2018 04:15 7,3 C 12,2 C 3,3 C 95 % 1019,9 hPa 0,0 l/m 0,2 km/h (0 Bft) S-SW 207 0 min 0,000 mm 0,0 UV-I 0 W/m 6,6 C 7,3 C 1,6 km/h (1 Bft) 97,26 %
19.10.2018 04:16 7,2 C 12,2 C 3,3 C 95 % 1019,9 hPa 0,0 l/m 1,1 km/h (1 Bft) S-SW 207 0 min 0,000 mm 0,0 UV-I 0 W/m 6,5 C 7,2 C 1,6 km/h (1 Bft) 83,33 %
19.10.2018 04:18 7,2 C 12,2 C 3,3 C 95 % 1019,9 hPa 0,0 l/m 0,2 km/h (0 Bft) S-SW 207 0 min 0,000 mm 0,0 UV-I 0 W/m 6,5 C 7,2 C 1,6 km/h (1 Bft) 96,00 %
19.10.2018 04:20 7,2 C 12,2 C 3,3 C 95 % 1019,9 hPa 0,0 l/m 0,0 km/h (0 Bft) S-SW 207 0 min 0,000 mm 0,0 UV-I 0 W/m 6,5 C 7,2 C 0,0 km/h (0 Bft) 97,87 %
19.10.2018 04:22 7,2 C 12,2 C 2,8 C 95 % 1019,9 hPa 0,0 l/m 0,4 km/h (0 Bft) S-SW 207 0 min 0,000 mm 0,0 UV-I 0 W/m 6,5 C 7,2 C 1,6 km/h (1 Bft) 93,62 %
19.10.2018 04:25 7,1 C 12,2 C 3,3 C 95 % 1019,9 hPa 0,0 l/m 1,9 km/h (1 Bft) S-SW 207 0 min 0,000 mm 0,0 UV-I 0 W/m 6,4 C 7,1 C 3,2 km/h (1 Bft) 95,18 %
19.10.2018 04:26 7,1 C 12,2 C 3,3 C 95 % 1019,9 hPa 0,0 l/m 2,6 km/h (1 Bft) S-SW 207 0 min 0,000 mm 0,0 UV-I 0 W/m 6,4 C 7,1 C 3,2 km/h (1 Bft) 100,00 %
19.10.2018 04:28 7,0 C 12,2 C 3,9 C 95 % 1019,9 hPa 0,0 l/m 3,3 km/h (1 Bft) S-SW 207 0 min 0,000 mm 0,0 UV-I 0 W/m 6,3 C 7,0 C 4,8 km/h (1 Bft) 93,62 %
19.10.2018 04:30 6,9 C 12,2 C 3,9 C 95 % 1020,0 hPa 0,0 l/m 3,8 km/h (1 Bft) S-SW 207 0 min 0,000 mm 0,0 UV-I 0 W/m 6,2 C 6,9 C 4,8 km/h (1 Bft) 93,62 %
19.10.2018 04:32 6,8 C 12,2 C 4,4 C 95 % 1020,0 hPa 0,0 l/m 4,1 km/h (1 Bft) S-SW 207 0 min 0,000 mm 0,0 UV-I 0 W/m 6,1 C 6,8 C 4,8 km/h (1 Bft) 97,92 %
19.10.2018 04:34 6,8 C 12,2 C 5,0 C 94 % 1020,0 hPa 0,0 l/m 4,2 km/h (1 Bft) S-SW 207 0 min 0,000 mm 0,0 UV-I 0 W/m 5,9 C 6,8 C 4,8 km/h (1 Bft) 95,74 %
19.10.2018 04:36 6,8 C 12,2 C 5,0 C 95 % 1020,1 hPa 0,0 l/m 3,1 km/h (1 Bft) S-SW 207 0 min 0,000 mm 0,0 UV-I 0 W/m 6,1 C 6,8 C 4,8 km/h (1 Bft) 98,00 %
19.10.2018 04:38 6,6 C 12,2 C 4,4 C 94 % 1020,1 hPa 0,0 l/m 3,8 km/h (1 Bft) S-SW 207 0 min 0,000 mm 0,0 UV-I 0 W/m 5,7 C 6,6 C 4,8 km/h (1 Bft) 95,74 %
19.10.2018 04:40 6,5 C 12,2 C 4,4 C 94 % 1020,1 hPa 0,0 l/m 4,6 km/h (1 Bft) S-SW 207 0 min 0,000 mm 0,0 UV-I 0 W/m 5,6 C 6,5 C 6,4 km/h (2 Bft) 93,62 %
19.10.2018 04:42 6,7 C 12,2 C 4,4 C 95 % 1020,1 hPa 0,0 l/m 4,8 km/h (1 Bft) S-SW 207 0 min 0,000 mm 0,0 UV-I 0 W/m 6,0 C 6,7 C 6,4 km/h (2 Bft) 97,87 %
19.10.2018 04:44 6,8 C 12,2 C 5,0 C 95 % 1020,1 hPa 0,0 l/m 4,4 km/h (1 Bft) S-SW 207 0 min 0,000 mm 0,0 UV-I 0 W/m 6,1 C 6,8 C 6,4 km/h (2 Bft) 92,00 %
19.10.2018 04:46 6,7 C 12,2 C 4,4 C 95 % 1020,1 hPa 0,0 l/m 4,0 km/h (1 Bft) S-SW 207 0 min 0,000 mm 0,0 UV-I 0 W/m 6,0 C 6,7 C 4,8 km/h (1 Bft) 93,62 %
19.10.2018 04:48 6,7 C 12,2 C 4,4 C 95 % 1020,1 hPa 0,0 l/m 3,8 km/h (1 Bft) S-SW 207 0 min 0,000 mm 0,0 UV-I 0 W/m 6,0 C 6,7 C 4,8 km/h (1 Bft) 95,74 %
19.10.2018 04:50 6,7 C 12,2 C 3,9 C 95 % 1020,2 hPa 0,0 l/m 3,8 km/h (1 Bft) S-SW 207 0 min 0,000 mm 0,0 UV-I 0 W/m 6,0 C 6,7 C 4,8 km/h (1 Bft) 93,62 %
19.10.2018 04:52 6,7 C 12,2 C 3,9 C 95 % 1020,2 hPa 0,0 l/m 3,0 km/h (1 Bft) S-SW 207 0 min 0,000 mm 0,0 UV-I 0 W/m 6,0 C 6,7 C 4,8 km/h (1 Bft) 93,62 %
19.10.2018 04:54 6,8 C 12,2 C 3,3 C 95 % 1020,2 hPa 0,0 l/m 3,2 km/h (1 Bft) S-SW 207 0 min 0,000 mm 0,0 UV-I 0 W/m 6,1 C 6,8 C 4,8 km/h (1 Bft) 95,74 %
19.10.2018 04:56 6,9 C 12,2 C 3,3 C 95 % 1020,3 hPa 0,0 l/m 4,7 km/h (1 Bft) S-SW 207 0 min 0,000 mm 0,0 UV-I 0 W/m 6,2 C 6,9 C 6,4 km/h (2 Bft) 93,62 %
19.10.2018 04:58 6,9 C 12,2 C 3,9 C 95 % 1020,3 hPa 0,0 l/m 4,1 km/h (1 Bft) S-SW 207 0 min 0,000 mm 0,0 UV-I 0 W/m 6,2 C 6,9 C 4,8 km/h (1 Bft) 97,37 %
19.10.2018 05:00 7,1 C 12,2 C 3,9 C 95 % 1020,3 hPa 0,0 l/m 1,8 km/h (1 Bft) S-SW 207 0 min 0,000 mm 0,0 UV-I 0 W/m 6,4 C 7,1 C 4,8 km/h (1 Bft) 97,87 %
19.10.2018 05:02 7,0 C 12,2 C 3,3 C 95 % 1020,2 hPa 0,0 l/m 2,5 km/h (1 Bft) S-SW 207 0 min 0,000 mm 0,0 UV-I 0 W/m 6,3 C 7,0 C 3,2 km/h (1 Bft) 97,22 %
19.10.2018 05:04 7,1 C 12,2 C 3,3 C 95 % 1020,2 hPa 0,0 l/m 2,5 km/h (1 Bft) S-SW 207 0 min 0,000 mm 0,0 UV-I 0 W/m 6,4 C 7,1 C 3,2 km/h (1 Bft) 98,36 %
19.10.2018 05:06 7,2 C 12,2 C 3,9 C 96 % 1020,1 hPa 0,0 l/m 3,5 km/h (1 Bft) S-SW 207 0 min 0,000 mm 0,0 UV-I 0 W/m 6,6 C 7,2 C 4,8 km/h (1 Bft) 100,00 %
19.10.2018 05:08 6,9 C 12,2 C 3,9 C 95 % 1020,2 hPa 0,0 l/m 4,6 km/h (1 Bft) S-SW 196 0 min 0,000 mm 0,0 UV-I 0 W/m 6,2 C 6,9 C 6,4 km/h (2 Bft) 97,44 %
19.10.2018 05:10 6,8 C 12,2 C 4,4 C 95 % 1020,1 hPa 0,0 l/m 5,4 km/h (1 Bft) S-SW 196 0 min 0,000 mm 0,0 UV-I 0 W/m 6,1 C 6,8 C 6,4 km/h (2 Bft) 98,00 %
19.10.2018 05:12 6,7 C 12,2 C 4,4 C 95 % 1020,1 hPa 0,0 l/m 4,2 km/h (1 Bft) S-SW 196 0 min 0,000 mm 0,0 UV-I 0 W/m 6,0 C 6,7 C 6,4 km/h (2 Bft) 100,00 %
19.10.2018 05:14 6,6 C 12,2 C 3,9 C 95 % 1020,1 hPa 0,0 l/m 3,6 km/h (1 Bft) S-SW 196 0 min 0,000 mm 0,0 UV-I 0 W/m 5,9 C 6,6 C 4,8 km/h (1 Bft) 97,87 %
19.10.2018 05:16 6,5 C 12,2 C 3,9 C 95 % 1020,1 hPa 0,0 l/m 4,1 km/h (1 Bft) S-SW 196 0 min 0,000 mm 0,0 UV-I 0 W/m 5,8 C 6,5 C 6,4 km/h (2 Bft) 100,00 %
19.10.2018 05:18 6,5 C 12,2 C 3,3 C 95 % 1020,1 hPa 0,0 l/m 3,6 km/h (1 Bft) S-SW 196 0 min 0,000 mm 0,0 UV-I 0 W/m 5,8 C 6,5 C 4,8 km/h (1 Bft) 95,74 %
19.10.2018 05:20 6,4 C 12,2 C 3,3 C 95 % 1020,1 hPa 0,0 l/m 3,6 km/h (1 Bft) S-SW 196 0 min 0,000 mm 0,0 UV-I 0 W/m 5,7 C 6,4 C 4,8 km/h (1 Bft) 100,00 %
19.10.2018 05:22 6,5 C 12,2 C 3,3 C 95 % 1020,1 hPa 0,0 l/m 3,0 km/h (1 Bft) S-SW 196 0 min 0,000 mm 0,0 UV-I 0 W/m 5,8 C 6,5 C 4,8 km/h (1 Bft) 100,00 %
19.10.2018 05:24 6,6 C 12,2 C 2,8 C 95 % 1020,2 hPa 0,0 l/m 3,3 km/h (1 Bft) S-SW 196 0 min 0,000 mm 0,0 UV-I 0 W/m 5,9 C 6,6 C 4,8 km/h (1 Bft) 97,37 %
19.10.2018 05:26 6,5 C 12,2 C 2,8 C 95 % 1020,2 hPa 0,0 l/m 3,4 km/h (1 Bft) S-SW 196 0 min 0,000 mm 0,0 UV-I 0 W/m 5,8 C 6,5 C 4,8 km/h (1 Bft) 100,00 %
19.10.2018 05:28 6,4 C 12,2 C 2,8 C 95 % 1020,2 hPa 0,0 l/m 4,1 km/h (1 Bft) S-SW 196 0 min 0,000 mm 0,0 UV-I 0 W/m 5,7 C 6,4 C 4,8 km/h (1 Bft) 100,00 %
19.10.2018 05:30 6,4 C 12,2 C 2,8 C 95 % 1020,2 hPa 0,0 l/m 4,1 km/h (1 Bft) S-SW 196 0 min 0,000 mm 0,0 UV-I 0 W/m 5,7 C 6,4 C 4,8 km/h (1 Bft) 97,87 %
19.10.2018 05:32 6,4 C 12,2 C 3,3 C 95 % 1020,2 hPa 0,0 l/m 5,0 km/h (1 Bft) S 182 0 min 0,000 mm 0,0 UV-I 0 W/m 5,7 C 6,4 C 6,4 km/h (2 Bft) 97,87 %
19.10.2018 05:34 6,6 C 12,2 C 4,4 C 95 % 1020,2 hPa 0,0 l/m 4,7 km/h (1 Bft) S-SW 194 0 min 0,000 mm 0,0 UV-I 0 W/m 5,9 C 6,6 C 6,4 km/h (2 Bft) 100,00 %
19.10.2018 05:36 6,7 C 12,2 C 3,9 C 96 % 1020,2 hPa 0,0 l/m 5,1 km/h (1 Bft) S-SW 194 0 min 0,000 mm 0,0 UV-I 0 W/m 6,1 C 6,7 C 6,4 km/h (2 Bft) 96,15 %
19.10.2018 05:38 6,7 C 12,2 C 3,9 C 96 % 1020,2 hPa 0,0 l/m 5,0 km/h (1 Bft) S-SW 194 0 min 0,000 mm 0,0 UV-I 0 W/m 6,1 C 6,7 C 6,4 km/h (2 Bft) 100,00 %
19.10.2018 05:40 6,9 C 12,2 C 4,4 C 96 % 1020,2 hPa 0,0 l/m 5,7 km/h (1 Bft) S 190 0 min 0,000 mm 0,0 UV-I 0 W/m 6,3 C 6,9 C 6,4 km/h (2 Bft) 100,00 %
19.10.2018 05:42 7,1 C 12,2 C 5,0 C 96 % 1020,2 hPa 0,0 l/m 6,1 km/h (2 Bft) S 185 0 min 0,000 mm 0,0 UV-I 0 W/m 6,5 C 7,1 C 8,0 km/h (2 Bft) 98,00 %
19.10.2018 05:44 7,2 C 12,2 C 5,0 C 96 % 1020,2 hPa 0,0 l/m 5,1 km/h (1 Bft) S 190 0 min 0,000 mm 0,0 UV-I 0 W/m 6,6 C 7,2 C 8,0 km/h (2 Bft) 98,00 %
19.10.2018 05:46 7,3 C 12,2 C 4,4 C 96 % 1020,2 hPa 0,0 l/m 5,2 km/h (1 Bft) S 190 0 min 0,000 mm 0,0 UV-I 0 W/m 6,7 C 7,3 C 6,4 km/h (2 Bft) 97,87 %
19.10.2018 05:48 7,4 C 12,2 C 4,4 C 96 % 1020,1 hPa 0,0 l/m 5,3 km/h (1 Bft) S 187 0 min 0,000 mm 0,0 UV-I 0 W/m 6,8 C 7,4 C 6,4 km/h (2 Bft) 97,87 %
19.10.2018 05:50 7,6 C 12,2 C 5,0 C 96 % 1020,2 hPa 0,0 l/m 4,7 km/h (1 Bft) S 187 0 min 0,000 mm 0,0 UV-I 0 W/m 7,0 C 7,6 C 6,4 km/h (2 Bft) 100,00 %
19.10.2018 05:52 7,4 C 12,2 C 4,4 C 96 % 1020,2 hPa 0,0 l/m 4,6 km/h (1 Bft) S 187 0 min 0,000 mm 0,0 UV-I 0 W/m 6,8 C 7,4 C 6,4 km/h (2 Bft) 100,00 %
19.10.2018 05:54 7,4 C 12,2 C 3,9 C 96 % 1020,1 hPa 0,0 l/m 5,0 km/h (1 Bft) S 187 0 min 0,000 mm 0,0 UV-I 0 W/m 6,8 C 7,4 C 6,4 km/h (2 Bft) 100,00 %
19.10.2018 05:56 7,4 C 12,2 C 3,9 C 96 % 1020,2 hPa 0,0 l/m 5,5 km/h (1 Bft) S 187 0 min 0,000 mm 0,0 UV-I 0 W/m 6,8 C 7,4 C 6,4 km/h (2 Bft) 95,74 %
19.10.2018 05:58 7,5 C 12,2 C 3,9 C 96 % 1020,1 hPa 0,0 l/m 5,2 km/h (1 Bft) S 187 0 min 0,000 mm 0,0 UV-I 0 W/m 6,9 C 7,5 C 6,4 km/h (2 Bft) 95,74 %
19.10.2018 06:00 7,6 C 12,2 C 3,9 C 96 % 1020,2 hPa 0,0 l/m 4,8 km/h (1 Bft) S 187 0 min 0,000 mm 0,0 UV-I 0 W/m 7,0 C 7,6 C 6,4 km/h (2 Bft) 93,62 %
19.10.2018 06:02 7,5 C 12,2 C 3,9 C 96 % 1020,1 hPa 0,0 l/m 3,8 km/h (1 Bft) S 187 0 min 0,000 mm 0,0 UV-I 0 W/m 6,9 C 7,5 C 4,8 km/h (1 Bft) 98,00 %
19.10.2018 06:04 7,4 C 12,2 C 3,9 C 95 % 1020,1 hPa 0,0 l/m 3,8 km/h (1 Bft) S 187 0 min 0,000 mm 0,0 UV-I 0 W/m 6,7 C 7,4 C 4,8 km/h (1 Bft) 95,74 %
19.10.2018 06:06 7,3 C 12,2 C 3,3 C 95 % 1020,1 hPa 0,0 l/m 4,2 km/h (1 Bft) S 187 0 min 0,000 mm 0,0 UV-I 0 W/m 6,6 C 7,3 C 4,8 km/h (1 Bft) 97,87 %
19.10.2018 06:08 7,3 C 12,2 C 3,3 C 95 % 1020,2 hPa 0,0 l/m 3,8 km/h (1 Bft) S 187 0 min 0,000 mm 0,0 UV-I 0 W/m 6,6 C 7,3 C 4,8 km/h (1 Bft) 95,74 %
19.10.2018 06:10 7,2 C 12,2 C 3,3 C 95 % 1020,1 hPa 0,0 l/m 2,2 km/h (1 Bft) S 187 0 min 0,000 mm 0,0 UV-I 0 W/m 6,5 C 7,2 C 3,2 km/h (1 Bft) 93,62 %
19.10.2018 06:12 6,9 C 12,2 C 3,3 C 95 % 1020,1 hPa 0,0 l/m 2,0 km/h (1 Bft) S 187 0 min 0,000 mm 0,0 UV-I 0 W/m 6,2 C 6,9 C 3,2 km/h (1 Bft) 98,00 %
19.10.2018 06:14 6,8 C 12,2 C 3,3 C 95 % 1020,1 hPa 0,0 l/m 2,6 km/h (1 Bft) S 187 0 min 0,000 mm 0,0 UV-I 0 W/m 6,1 C 6,8 C 3,2 km/h (1 Bft) 95,74 %
19.10.2018 06:16 6,6 C 12,2 C 3,3 C 95 % 1020,1 hPa 0,0 l/m 2,7 km/h (1 Bft) S 187 0 min 0,000 mm 0,0 UV-I 0 W/m 5,9 C 6,6 C 3,2 km/h (1 Bft) 100,00 %
19.10.2018 06:18 6,6 C 12,2 C 2,8 C 95 % 1020,1 hPa 0,0 l/m 2,9 km/h (1 Bft) S 187 0 min 0,000 mm 0,0 UV-I 0 W/m 5,9 C 6,6 C 3,2 km/h (1 Bft) 96,77 %
19.10.2018 06:20 6,6 C 12,2 C 2,8 C 95 % 1020,1 hPa 0,0 l/m 3,0 km/h (1 Bft) S 187 0 min 0,000 mm 0,0 UV-I 0 W/m 5,9 C 6,6 C 4,8 km/h (1 Bft) 100,00 %
19.10.2018 06:22 6,6 C 12,2 C 2,8 C 95 % 1020,1 hPa 0,0 l/m 2,8 km/h (1 Bft) S 187 0 min 0,000 mm 0,0 UV-I 0 W/m 5,9 C 6,6 C 3,2 km/h (1 Bft) 97,87 %
19.10.2018 06:24 6,5 C 12,2 C 2,8 C 95 % 1020,1 hPa 0,0 l/m 2,4 km/h (1 Bft) S 187 0 min 0,000 mm 0,0 UV-I 0 W/m 5,8 C 6,5 C 3,2 km/h (1 Bft) 100,00 %
19.10.2018 06:26 6,5 C 12,2 C 2,8 C 95 % 1020,1 hPa 0,0 l/m 1,9 km/h (1 Bft) S 187 0 min 0,000 mm 0,0 UV-I 0 W/m 5,8 C 6,5 C 3,2 km/h (1 Bft) 100,00 %
19.10.2018 06:28 6,5 C 12,2 C 2,8 C 95 % 1020,1 hPa 0,0 l/m 1,7 km/h (1 Bft) S 187 0 min 0,000 mm 0,0 UV-I 0 W/m 5,8 C 6,5 C 3,2 km/h (1 Bft) 97,87 %
19.10.2018 06:30 6,6 C 12,2 C 2,8 C 95 % 1020,1 hPa 0,0 l/m 1,8 km/h (1 Bft) S 187 0 min 0,000 mm 0,0 UV-I 0 W/m 5,9 C 6,6 C 3,2 km/h (1 Bft) 98,00 %
19.10.2018 06:32 6,6 C 12,2 C 3,3 C 95 % 1020,1 hPa 0,0 l/m 1,9 km/h (1 Bft) S 187 0 min 0,000 mm 0,0 UV-I 0 W/m 5,9 C 6,6 C 3,2 km/h (1 Bft) 100,00 %
19.10.2018 06:34 6,5 C 12,2 C 3,3 C 95 % 1020,2 hPa 0,0 l/m 1,9 km/h (1 Bft) S 187 0 min 0,000 mm 0,0 UV-I 0 W/m 5,8 C 6,5 C 3,2 km/h (1 Bft) 100,00 %
19.10.2018 06:36 6,4 C 12,2 C 2,8 C 95 % 1020,3 hPa 0,0 l/m 1,8 km/h (1 Bft) S 187 0 min 0,000 mm 0,0 UV-I 0 W/m 5,7 C 6,4 C 3,2 km/h (1 Bft) 98,00 %
19.10.2018 06:38 6,6 C 12,2 C 2,8 C 95 % 1020,3 hPa 0,0 l/m 1,9 km/h (1 Bft) S 187 0 min 0,000 mm 0,0 UV-I 0 W/m 5,9 C 6,6 C 3,2 km/h (1 Bft) 100,00 %
19.10.2018 06:40 6,6 C 12,2 C 2,8 C 95 % 1020,3 hPa 0,0 l/m 1,7 km/h (1 Bft) S 187 0 min 0,000 mm 0,0 UV-I 0 W/m 5,9 C 6,6 C 3,2 km/h (1 Bft) 100,00 %
19.10.2018 06:42 6,7 C 12,2 C 2,8 C 95 % 1020,3 hPa 0,0 l/m 1,2 km/h (1 Bft) S 187 0 min 0,000 mm 0,0 UV-I 0 W/m 6,0 C 6,7 C 1,6 km/h (1 Bft) 97,87 %
19.10.2018 06:44 6,8 C 12,2 C 2,8 C 95 % 1020,3 hPa 0,0 l/m 0,0 km/h (0 Bft) S 187 0 min 0,000 mm 0,0 UV-I 0 W/m 6,1 C 6,8 C 0,0 km/h (0 Bft) 97,92 %
19.10.2018 06:46 6,7 C 12,2 C 2,2 C 95 % 1020,3 hPa 0,0 l/m 0,0 km/h (0 Bft) S 187 0 min 0,000 mm 0,0 UV-I 0 W/m 6,0 C 6,7 C 0,0 km/h (0 Bft) 97,87 %
19.10.2018 06:48 6,7 C 12,2 C 2,2 C 95 % 1020,3 hPa 0,0 l/m 0,0 km/h (0 Bft) S 187 0 min 0,000 mm 0,0 UV-I 0 W/m 6,0 C 6,7 C 0,0 km/h (0 Bft) 95,74 %
19.10.2018 06:50 6,7 C 12,2 C 2,8 C 95 % 1020,4 hPa 0,0 l/m 0,8 km/h (0 Bft) S 187 0 min 0,000 mm 0,0 UV-I 0 W/m 6,0 C 6,7 C 1,6 km/h (1 Bft) 97,87 %
19.10.2018 06:52 6,8 C 12,2 C 2,8 C 95 % 1020,3 hPa 0,0 l/m 1,1 km/h (1 Bft) S 187 0 min 0,000 mm 0,0 UV-I 0 W/m 6,1 C 6,8 C 1,6 km/h (1 Bft) 94,00 %
19.10.2018 06:54 6,8 C 12,2 C 2,8 C 96 % 1020,3 hPa 0,0 l/m 1,2 km/h (1 Bft) S 187 0 min 0,000 mm 0,0 UV-I 0 W/m 6,2 C 6,8 C 1,6 km/h (1 Bft) 97,96 %
19.10.2018 06:56 6,7 C 12,2 C 2,8 C 95 % 1020,4 hPa 0,0 l/m 0,8 km/h (0 Bft) S 187 0 min 0,000 mm 0,0 UV-I 0 W/m 6,0 C 6,7 C 1,6 km/h (1 Bft) 95,74 %
19.10.2018 06:58 6,7 C 12,2 C 2,8 C 95 % 1020,3 hPa 0,0 l/m 0,7 km/h (0 Bft) S 187 0 min 0,000 mm 0,0 UV-I 0 W/m 6,0 C 6,7 C 1,6 km/h (1 Bft) 94,74 %
19.10.2018 07:00 6,6 C 12,2 C 2,8 C 95 % 1020,3 hPa 0,0 l/m 0,8 km/h (0 Bft) S 187 0 min 0,000 mm 0,0 UV-I 0 W/m 5,9 C 6,6 C 1,6 km/h (1 Bft) 95,74 %
19.10.2018 07:02 6,5 C 12,2 C 2,8 C 95 % 1020,3 hPa 0,0 l/m 0,7 km/h (0 Bft) S 187 0 min 0,000 mm 0,0 UV-I 0 W/m 5,8 C 6,5 C 1,6 km/h (1 Bft) 93,62 %
19.10.2018 07:04 6,5 C 12,2 C 2,8 C 95 % 1020,4 hPa 0,0 l/m 0,0 km/h (0 Bft) S 187 0 min 0,000 mm 0,0 UV-I 0 W/m 5,8 C 6,5 C 0,0 km/h (0 Bft) 94,00 %
19.10.2018 07:06 6,6 C 12,2 C 2,8 C 96 % 1020,4 hPa 0,0 l/m 0,0 km/h (0 Bft) S 187 0 min 0,000 mm 0,0 UV-I 0 W/m 6,0 C 6,6 C 0,0 km/h (0 Bft) 96,00 %
19.10.2018 07:08 6,7 C 12,2 C 2,8 C 96 % 1020,4 hPa 0,0 l/m 0,0 km/h (0 Bft) S 187 0 min 0,000 mm 0,0 UV-I 0 W/m 6,1 C 6,7 C 0,0 km/h (0 Bft) 97,87 %
19.10.2018 07:10 6,7 C 12,2 C 2,2 C 96 % 1020,4 hPa 0,0 l/m 0,0 km/h (0 Bft) S 187 0 min 0,000 mm 0,0 UV-I 0 W/m 6,1 C 6,7 C 0,0 km/h (0 Bft) 95,74 %
19.10.2018 07:12 6,6 C 12,2 C 2,2 C 96 % 1020,4 hPa 0,0 l/m 0,0 km/h (0 Bft) S 187 0 min 0,000 mm 0,0 UV-I 0 W/m 6,0 C 6,6 C 0,0 km/h (0 Bft) 92,31 %
19.10.2018 07:14 6,6 C 12,2 C 2,2 C 96 % 1020,4 hPa 0,0 l/m 0,0 km/h (0 Bft) S 187 0 min 0,000 mm 0,0 UV-I 0 W/m 6,0 C 6,6 C 0,0 km/h (0 Bft) 93,62 %
19.10.2018 07:16 6,6 C 12,2 C 2,2 C 96 % 1020,5 hPa 0,0 l/m 0,0 km/h (0 Bft) S 187 0 min 0,000 mm 0,0 UV-I 0 W/m 6,0 C 6,6 C 0,0 km/h (0 Bft) 91,49 %
19.10.2018 07:18 6,4 C 12,2 C 2,2 C 96 % 1020,5 hPa 0,0 l/m 0,0 km/h (0 Bft) S 187 0 min 0,000 mm 0,0 UV-I 0 W/m 5,8 C 6,4 C 0,0 km/h (0 Bft) 90,00 %
19.10.2018 07:20 6,3 C 12,2 C 2,2 C 96 % 1020,5 hPa 0,0 l/m 0,0 km/h (0 Bft) S 187 0 min 0,000 mm 0,0 UV-I 3 W/m 5,7 C 6,3 C 0,0 km/h (0 Bft) 91,49 %
19.10.2018 07:22 6,2 C 12,2 C 2,2 C 96 % 1020,6 hPa 0,0 l/m 0,1 km/h (0 Bft) S 187 0 min 0,000 mm 0,0 UV-I 5 W/m 5,6 C 6,2 C 1,6 km/h (1 Bft) 89,36 %
19.10.2018 07:25 6,1 C 12,2 C 2,2 C 96 % 1020,6 hPa 0,0 l/m 1,0 km/h (0 Bft) S 187 0 min 0,000 mm 0,0 UV-I 5 W/m 5,5 C 6,1 C 1,6 km/h (1 Bft) 92,86 %
19.10.2018 07:26 6,1 C 12,2 C 2,2 C 96 % 1020,6 hPa 0,0 l/m 1,1 km/h (1 Bft) S 187 0 min 0,000 mm 0,0 UV-I 6 W/m 5,5 C 6,1 C 1,6 km/h (1 Bft) 87,50 %
19.10.2018 07:28 6,2 C 12,2 C 2,2 C 96 % 1020,6 hPa 0,0 l/m 1,8 km/h (1 Bft) S 187 0 min 0,000 mm 0,0 UV-I 7 W/m 5,6 C 6,2 C 3,2 km/h (1 Bft) 95,74 %
19.10.2018 07:30 6,3 C 12,2 C 2,8 C 96 % 1020,6 hPa 0,0 l/m 3,1 km/h (1 Bft) S 187 0 min 0,000 mm 0,0 UV-I 7 W/m 5,7 C 6,3 C 4,8 km/h (1 Bft) 93,62 %
19.10.2018 07:32 6,2 C 12,2 C 2,8 C 96 % 1020,6 hPa 0,0 l/m 3,4 km/h (1 Bft) S 187 0 min 0,000 mm 0,0 UV-I 7 W/m 5,6 C 6,2 C 4,8 km/h (1 Bft) 95,74 %
19.10.2018 07:34 6,1 C 12,2 C 2,8 C 96 % 1020,7 hPa 0,0 l/m 3,3 km/h (1 Bft) S 187 0 min 0,000 mm 0,0 UV-I 9 W/m 5,5 C 6,1 C 4,8 km/h (1 Bft) 97,87 %
19.10.2018 07:36 6,1 C 12,2 C 3,3 C 96 % 1020,7 hPa 0,0 l/m 3,1 km/h (1 Bft) S 187 0 min 0,000 mm 0,0 UV-I 9 W/m 5,5 C 6,1 C 4,8 km/h (1 Bft) 95,74 %
19.10.2018 07:38 6,0 C 12,2 C 3,3 C 96 % 1020,7 hPa 0,0 l/m 2,5 km/h (1 Bft) S 187 0 min 0,000 mm 0,0 UV-I 11 W/m 5,4 C 6,0 C 3,2 km/h (1 Bft) 97,87 %
19.10.2018 07:40 5,9 C 12,2 C 3,3 C 96 % 1020,7 hPa 0,0 l/m 2,9 km/h (1 Bft) S 187 2 min 0,000 mm 0,0 UV-I 11 W/m 5,3 C 5,9 C 3,2 km/h (1 Bft) 95,74 %
19.10.2018 07:42 5,9 C 12,2 C 3,3 C 96 % 1020,8 hPa 0,0 l/m 2,7 km/h (1 Bft) S 187 0 min 0,000 mm 0,0 UV-I 12 W/m 5,3 C 5,9 C 3,2 km/h (1 Bft) 93,62 %
19.10.2018 07:44 5,8 C 12,2 C 3,3 C 96 % 1020,7 hPa 0,0 l/m 2,7 km/h (1 Bft) S 187 0 min 0,000 mm 0,0 UV-I 14 W/m 5,2 C 5,8 C 3,2 km/h (1 Bft) 93,62 %
19.10.2018 07:46 6,0 C 12,2 C 3,3 C 96 % 1020,8 hPa 0,0 l/m 2,6 km/h (1 Bft) S 187 0 min 0,000 mm 0,0 UV-I 16 W/m 5,4 C 6,0 C 3,2 km/h (1 Bft) 97,87 %
19.10.2018 07:48 6,2 C 12,2 C 3,3 C 96 % 1020,9 hPa 0,0 l/m 2,6 km/h (1 Bft) S 187 0 min 0,000 mm 0,0 UV-I 17 W/m 5,6 C 6,2 C 4,8 km/h (1 Bft) 95,74 %
19.10.2018 07:50 6,3 C 12,2 C 3,3 C 96 % 1020,9 hPa 0,0 l/m 2,4 km/h (1 Bft) S 187 0 min 0,000 mm 0,0 UV-I 19 W/m 5,7 C 6,3 C 3,2 km/h (1 Bft) 97,87 %
19.10.2018 07:52 6,2 C 12,2 C 3,9 C 96 % 1020,9 hPa 0,0 l/m 2,1 km/h (1 Bft) S 187 0 min 0,000 mm 0,0 UV-I 21 W/m 5,6 C 6,2 C 3,2 km/h (1 Bft) 100,00 %
19.10.2018 07:54 6,2 C 12,2 C 3,3 C 96 % 1021,0 hPa 0,0 l/m 2,8 km/h (1 Bft) S 187 0 min 0,000 mm 0,0 UV-I 22 W/m 5,6 C 6,2 C 3,2 km/h (1 Bft) 100,00 %
19.10.2018 07:56 6,2 C 12,2 C 3,3 C 96 % 1021,0 hPa 0,0 l/m 2,9 km/h (1 Bft) S 187 0 min 0,000 mm 0,0 UV-I 24 W/m 5,6 C 6,2 C 3,2 km/h (1 Bft) 100,00 %
19.10.2018 07:58 6,2 C 12,2 C 3,3 C 96 % 1021,0 hPa 0,0 l/m 3,6 km/h (1 Bft) S 187 0 min 0,000 mm 0,0 UV-I 26 W/m 5,6 C 6,2 C 4,8 km/h (1 Bft) 100,00 %
19.10.2018 08:00 6,1 C 12,2 C 3,3 C 96 % 1021,0 hPa 0,0 l/m 3,4 km/h (1 Bft) S 187 0 min 0,000 mm 0,0 UV-I 28 W/m 5,5 C 6,1 C 4,8 km/h (1 Bft) 100,00 %
19.10.2018 08:02 6,2 C 12,2 C 3,3 C 96 % 1021,0 hPa 0,0 l/m 3,1 km/h (1 Bft) S 187 0 min 0,000 mm 0,0 UV-I 31 W/m 5,6 C 6,2 C 3,2 km/h (1 Bft) 98,00 %
19.10.2018 08:04 6,3 C 12,2 C 3,9 C 96 % 1021,0 hPa 0,0 l/m 3,1 km/h (1 Bft) S 187 0 min 0,000 mm 0,0 UV-I 32 W/m 5,7 C 6,3 C 3,2 km/h (1 Bft) 100,00 %
19.10.2018 08:06 6,6 C 12,2 C 3,9 C 96 % 1021,0 hPa 0,0 l/m 2,4 km/h (1 Bft) S 187 0 min 0,000 mm 0,0 UV-I 34 W/m 6,0 C 6,6 C 3,2 km/h (1 Bft) 100,00 %
19.10.2018 08:08 6,7 C 12,2 C 4,4 C 96 % 1021,0 hPa 0,0 l/m 2,4 km/h (1 Bft) S 187 0 min 0,000 mm 0,0 UV-I 36 W/m 6,1 C 6,7 C 3,2 km/h (1 Bft) 100,00 %
19.10.2018 08:10 6,7 C 12,2 C 5,0 C 96 % 1021,0 hPa 0,0 l/m 1,8 km/h (1 Bft) S 187 0 min 0,000 mm 0,0 UV-I 39 W/m 6,1 C 6,7 C 3,2 km/h (1 Bft) 100,00 %
19.10.2018 08:12 6,6 C 12,2 C 5,0 C 96 % 1021,1 hPa 0,0 l/m 2,4 km/h (1 Bft) S 187 0 min 0,000 mm 0,0 UV-I 40 W/m 6,0 C 6,6 C 3,2 km/h (1 Bft) 97,87 %
19.10.2018 08:14 6,5 C 12,2 C 5,0 C 96 % 1021,1 hPa 0,0 l/m 2,0 km/h (1 Bft) S 187 0 min 0,000 mm 0,0 UV-I 43 W/m 5,9 C 6,5 C 3,2 km/h (1 Bft) 97,87 %
19.10.2018 08:16 6,4 C 12,2 C 5,0 C 96 % 1021,1 hPa 0,0 l/m 1,4 km/h (1 Bft) S 187 0 min 0,000 mm 0,0 UV-I 46 W/m 5,8 C 6,4 C 3,2 km/h (1 Bft) 100,00 %
19.10.2018 08:18 6,4 C 12,2 C 5,0 C 96 % 1021,1 hPa 0,0 l/m 0,8 km/h (0 Bft) S 187 0 min 0,000 mm 0,0 UV-I 48 W/m 5,8 C 6,4 C 1,6 km/h (1 Bft) 100,00 %
19.10.2018 08:21 6,4 C 12,2 C 5,0 C 96 % 1021,1 hPa 0,0 l/m 1,1 km/h (1 Bft) S 187 0 min 0,000 mm 0,0 UV-I 54 W/m 5,8 C 6,4 C 1,6 km/h (1 Bft) 98,57 %
19.10.2018 08:22 6,5 C 12,2 C 5,0 C 96 % 1021,1 hPa 0,0 l/m 1,4 km/h (1 Bft) S 187 0 min 0,000 mm 0,0 UV-I 56 W/m 5,9 C 6,5 C 1,6 km/h (1 Bft) 100,00 %
19.10.2018 08:24 6,6 C 12,2 C 5,0 C 96 % 1021,2 hPa 0,0 l/m 0,9 km/h (0 Bft) S 187 0 min 0,000 mm 0,0 UV-I 58 W/m 6,0 C 6,6 C 1,6 km/h (1 Bft) 100,00 %
19.10.2018 08:26 6,7 C 12,2 C 5,0 C 96 % 1021,2 hPa 0,0 l/m 1,3 km/h (1 Bft) S 187 0 min 0,000 mm 0,0 UV-I 42 W/m 6,1 C 6,7 C 3,2 km/h (1 Bft) 97,87 %
19.10.2018 08:28 6,7 C 12,2 C 5,0 C 96 % 1021,3 hPa 0,0 l/m 0,6 km/h (0 Bft) S 187 0 min 0,000 mm 0,0 UV-I 49 W/m 6,1 C 6,7 C 1,6 km/h (1 Bft) 95,74 %
19.10.2018 08:30 6,7 C 12,2 C 5,6 C 96 % 1021,2 hPa 0,0 l/m 1,3 km/h (1 Bft) S 187 0 min 0,000 mm 0,0 UV-I 67 W/m 6,1 C 6,7 C 1,6 km/h (1 Bft) 97,87 %
19.10.2018 08:32 6,7 C 12,2 C 5,6 C 96 % 1021,3 hPa 0,0 l/m 1,3 km/h (1 Bft) S 187 0 min 0,000 mm 0,0 UV-I 69 W/m 6,1 C 6,7 C 1,6 km/h (1 Bft) 93,62 %
19.10.2018 08:34 6,7 C 12,2 C 6,1 C 96 % 1021,3 hPa 0,0 l/m 0,7 km/h (0 Bft) S 187 0 min 0,000 mm 0,0 UV-I 73 W/m 6,1 C 6,7 C 1,6 km/h (1 Bft) 97,87 %
19.10.2018 08:36 6,7 C 12,2 C 6,1 C 96 % 1021,3 hPa 0,0 l/m 0,1 km/h (0 Bft) S 187 0 min 0,000 mm 0,0 UV-I 76 W/m 6,1 C 6,7 C 1,6 km/h (1 Bft) 97,37 %
19.10.2018 08:38 6,8 C 12,2 C 6,1 C 96 % 1021,4 hPa 0,0 l/m 0,0 km/h (0 Bft) S 187 0 min 0,000 mm 0,0 UV-I 80 W/m 6,2 C 6,8 C 0,0 km/h (0 Bft) 94,00 %
19.10.2018 08:40 6,8 C 12,2 C 6,1 C 96 % 1021,3 hPa 0,0 l/m 0,0 km/h (0 Bft) S 187 0 min 0,000 mm 0,0 UV-I 84 W/m 6,2 C 6,8 C 0,0 km/h (0 Bft) 94,00 %
19.10.2018 08:42 6,9 C 12,2 C 6,1 C 96 % 1021,4 hPa 0,0 l/m 0,0 km/h (0 Bft) S 187 0 min 0,000 mm 0,0 UV-I 88 W/m 6,3 C 6,9 C 0,0 km/h (0 Bft) 97,44 %
19.10.2018 08:44 7,0 C 12,2 C 6,7 C 96 % 1021,4 hPa 0,0 l/m 0,1 km/h (0 Bft) S 187 0 min 0,000 mm 0,0 UV-I 91 W/m 6,4 C 7,0 C 1,6 km/h (1 Bft) 93,62 %
19.10.2018 08:46 7,2 C 12,2 C 6,7 C 96 % 1021,4 hPa 0,0 l/m 0,1 km/h (0 Bft) S 187 0 min 0,000 mm 0,0 UV-I 93 W/m 6,6 C 7,2 C 1,6 km/h (1 Bft) 100,00 %
19.10.2018 08:48 7,3 C 12,2 C 6,7 C 96 % 1021,5 hPa 0,0 l/m 0,0 km/h (0 Bft) S 187 0 min 0,000 mm 0,0 UV-I 93 W/m 6,7 C 7,3 C 0,0 km/h (0 Bft) 95,74 %
19.10.2018 08:50 7,5 C 12,2 C 7,2 C 96 % 1021,5 hPa 0,0 l/m 0,0 km/h (0 Bft) S 187 0 min 0,000 mm 0,0 UV-I 95 W/m 6,9 C 7,5 C 0,0 km/h (0 Bft) 97,87 %
19.10.2018 08:52 7,6 C 12,2 C 7,2 C 96 % 1021,5 hPa 0,0 l/m 0,0 km/h (0 Bft) S 187 0 min 0,000 mm 0,0 UV-I 97 W/m 7,0 C 7,6 C 0,0 km/h (0 Bft) 97,87 %
19.10.2018 08:54 7,7 C 12,2 C 7,2 C 96 % 1021,5 hPa 0,0 l/m 0,8 km/h (0 Bft) S 187 0 min 0,000 mm 0,0 UV-I 98 W/m 7,1 C 7,7 C 3,2 km/h (1 Bft) 98,00 %
19.10.2018 08:56 7,8 C 12,2 C 7,2 C 96 % 1021,5 hPa 0,0 l/m 2,2 km/h (1 Bft) S 187 0 min 0,000 mm 0,0 UV-I 102 W/m 7,2 C 7,8 C 3,2 km/h (1 Bft) 100,00 %
19.10.2018 08:58 7,8 C 12,2 C 7,8 C 96 % 1021,5 hPa 0,0 l/m 1,7 km/h (1 Bft) S 187 0 min 0,000 mm 0,0 UV-I 106 W/m 7,2 C 7,8 C 3,2 km/h (1 Bft) 100,00 %
19.10.2018 09:00 7,9 C 12,2 C 7,8 C 96 % 1021,6 hPa 0,0 l/m 1,8 km/h (1 Bft) S 187 0 min 0,025 mm 0,0 UV-I 111 W/m 7,3 C 7,9 C 3,2 km/h (1 Bft) 100,00 %
19.10.2018 09:02 8,0 C 12,2 C 7,8 C 96 % 1021,6 hPa 0,0 l/m 0,8 km/h (0 Bft) S 187 0 min 0,000 mm 0,0 UV-I 115 W/m 7,4 C 8,0 C 1,6 km/h (1 Bft) 95,74 %
19.10.2018 09:04 8,1 C 12,2 C 8,3 C 96 % 1021,6 hPa 0,0 l/m 0,9 km/h (0 Bft) S 187 0 min 0,000 mm 0,0 UV-I 121 W/m 7,5 C 8,1 C 1,6 km/h (1 Bft) 93,62 %
19.10.2018 09:06 8,2 C 12,2 C 8,3 C 96 % 1021,7 hPa 0,0 l/m 0,6 km/h (0 Bft) S 187 0 min 0,000 mm 0,0 UV-I 124 W/m 7,6 C 8,2 C 1,6 km/h (1 Bft) 97,87 %
19.10.2018 09:08 8,2 C 12,2 C 8,3 C 96 % 1021,7 hPa 0,0 l/m 1,3 km/h (1 Bft) S 187 0 min 0,000 mm 0,0 UV-I 128 W/m 7,6 C 8,2 C 1,6 km/h (1 Bft) 98,00 %
19.10.2018 09:10 8,2 C 12,2 C 8,3 C 96 % 1021,7 hPa 0,0 l/m 1,1 km/h (1 Bft) S 187 0 min 0,000 mm 0,0 UV-I 130 W/m 7,6 C 8,2 C 1,6 km/h (1 Bft) 97,87 %
19.10.2018 09:12 8,2 C 12,2 C 8,3 C 96 % 1021,7 hPa 0,0 l/m 1,7 km/h (1 Bft) S 187 0 min 0,000 mm 0,0 UV-I 134 W/m 7,6 C 8,2 C 3,2 km/h (1 Bft) 97,87 %
19.10.2018 09:14 8,1 C 12,2 C 8,3 C 96 % 1021,7 hPa 0,0 l/m 1,4 km/h (1 Bft) S 187 0 min 0,000 mm 0,0 UV-I 137 W/m 7,5 C 8,1 C 1,6 km/h (1 Bft) 94,87 %
19.10.2018 09:16 8,1 C 12,2 C 8,9 C 95 % 1021,7 hPa 0,0 l/m 1,5 km/h (1 Bft) S 187 0 min 0,000 mm 0,0 UV-I 140 W/m 7,3 C 8,1 C 1,6 km/h (1 Bft) 98,00 %
19.10.2018 09:18 8,2 C 12,2 C 8,9 C 96 % 1021,7 hPa 0,0 l/m 1,1 km/h (1 Bft) S 187 0 min 0,000 mm 0,0 UV-I 144 W/m 7,6 C 8,2 C 1,6 km/h (1 Bft) 95,74 %
19.10.2018 09:20 8,3 C 12,2 C 8,9 C 96 % 1021,7 hPa 0,0 l/m 1,4 km/h (1 Bft) S 187 0 min 0,000 mm 0,0 UV-I 148 W/m 7,7 C 8,3 C 1,6 km/h (1 Bft) 96,00 %
19.10.2018 09:22 8,4 C 12,2 C 8,9 C 96 % 1021,7 hPa 0,0 l/m 1,1 km/h (1 Bft) S 187 0 min 0,000 mm 0,0 UV-I 151 W/m 7,8 C 8,4 C 1,6 km/h (1 Bft) 95,74 %
19.10.2018 09:24 8,7 C 12,2 C 9,4 C 96 % 1021,7 hPa 0,0 l/m 0,8 km/h (0 Bft) S 187 0 min 0,000 mm 0,0 UV-I 153 W/m 8,1 C 8,7 C 1,6 km/h (1 Bft) 96,00 %
19.10.2018 09:26 8,8 C 12,2 C 9,4 C 96 % 1021,8 hPa 0,0 l/m 1,2 km/h (1 Bft) S 187 0 min 0,000 mm 0,0 UV-I 154 W/m 8,2 C 8,8 C 1,6 km/h (1 Bft) 97,87 %
19.10.2018 09:28 9,0 C 12,2 C 9,4 C 96 % 1021,8 hPa 0,0 l/m 1,3 km/h (1 Bft) S 187 0 min 0,000 mm 0,0 UV-I 158 W/m 8,4 C 9,0 C 3,2 km/h (1 Bft) 97,14 %
19.10.2018 09:30 9,1 C 12,2 C 10,0 C 96 % 1021,8 hPa 0,0 l/m 1,6 km/h (1 Bft) S 187 0 min 0,000 mm 0,0 UV-I 163 W/m 8,5 C 9,1 C 3,2 km/h (1 Bft) 98,00 %
19.10.2018 09:32 9,2 C 12,2 C 10,0 C 96 % 1021,8 hPa 0,0 l/m 1,4 km/h (1 Bft) S 187 2 min 0,000 mm 0,0 UV-I 169 W/m 8,6 C 9,2 C 1,6 km/h (1 Bft) 93,62 %
19.10.2018 09:34 9,3 C 12,2 C 10,0 C 96 % 1021,8 hPa 0,0 l/m 1,4 km/h (1 Bft) S 187 2 min 0,000 mm 0,0 UV-I 171 W/m 8,7 C 9,3 C 3,2 km/h (1 Bft) 97,87 %
19.10.2018 09:36 9,4 C 12,2 C 10,0 C 96 % 1021,9 hPa 0,0 l/m 1,3 km/h (1 Bft) S 187 2 min 0,000 mm 0,0 UV-I 172 W/m 8,8 C 9,4 C 3,2 km/h (1 Bft) 100,00 %
19.10.2018 09:38 9,6 C 12,2 C 10,6 C 96 % 1021,8 hPa 0,0 l/m 1,3 km/h (1 Bft) S 187 2 min 0,000 mm 0,0 UV-I 176 W/m 9,0 C 9,6 C 1,6 km/h (1 Bft) 97,87 %
19.10.2018 09:40 9,7 C 12,2 C 10,6 C 95 % 1021,9 hPa 0,0 l/m 1,3 km/h (1 Bft) S 187 2 min 0,000 mm 0,0 UV-I 180 W/m 8,9 C 9,7 C 3,2 km/h (1 Bft) 95,74 %
19.10.2018 09:42 9,8 C 12,2 C 10,6 C 95 % 1021,9 hPa 0,0 l/m 1,8 km/h (1 Bft) S 187 2 min 0,000 mm 0,0 UV-I 185 W/m 9,0 C 9,8 C 3,2 km/h (1 Bft) 98,00 %
19.10.2018 09:44 9,9 C 12,2 C 10,6 C 95 % 1021,9 hPa 0,0 l/m 1,7 km/h (1 Bft) S 187 2 min 0,000 mm 0,0 UV-I 189 W/m 9,1 C 9,9 C 3,2 km/h (1 Bft) 97,87 %
19.10.2018 09:46 10,0 C 12,2 C 11,1 C 95 % 1021,9 hPa 0,0 l/m 1,7 km/h (1 Bft) S 187 2 min 0,000 mm 0,0 UV-I 194 W/m 9,2 C 10,0 C 3,2 km/h (1 Bft) 98,00 %
19.10.2018 09:48 10,1 C 12,2 C 11,1 C 95 % 1022,0 hPa 0,0 l/m 0,8 km/h (0 Bft) S 187 2 min 0,000 mm 0,3 UV-I 196 W/m 9,3 C 10,1 C 3,2 km/h (1 Bft) 97,87 %
19.10.2018 09:50 10,2 C 12,2 C 11,1 C 95 % 1021,9 hPa 0,0 l/m 1,0 km/h (0 Bft) S 187 2 min 0,000 mm 0,5 UV-I 199 W/m 9,4 C 10,2 C 1,6 km/h (1 Bft) 95,83 %
19.10.2018 09:52 10,2 C 12,2 C 11,1 C 94 % 1021,9 hPa 0,0 l/m 1,2 km/h (1 Bft) S 187 2 min 0,000 mm 0,5 UV-I 203 W/m 9,3 C 10,2 C 3,2 km/h (1 Bft) 97,37 %
19.10.2018 09:54 10,3 C 12,2 C 11,7 C 95 % 1022,0 hPa 0,0 l/m 1,2 km/h (1 Bft) S 187 2 min 0,000 mm 0,5 UV-I 206 W/m 9,5 C 10,3 C 3,2 km/h (1 Bft) 97,87 %
19.10.2018 09:56 10,3 C 12,2 C 11,7 C 95 % 1022,0 hPa 0,0 l/m 2,7 km/h (1 Bft) SO 136 2 min 0,000 mm 0,5 UV-I 208 W/m 9,5 C 10,3 C 4,8 km/h (1 Bft) 97,87 %
19.10.2018 09:58 10,4 C 12,2 C 11,7 C 94 % 1022,0 hPa 0,0 l/m 2,2 km/h (1 Bft) SO 136 2 min 0,000 mm 0,5 UV-I 218 W/m 9,5 C 10,4 C 4,8 km/h (1 Bft) 97,87 %
19.10.2018 10:00 10,7 C 12,2 C 11,7 C 94 % 1022,0 hPa 0,0 l/m 2,5 km/h (1 Bft) SO 136 2 min 0,077 mm 0,5 UV-I 222 W/m 9,8 C 10,7 C 4,8 km/h (1 Bft) 96,00 %
19.10.2018 10:02 10,7 C 12,2 C 12,2 C 94 % 1022,0 hPa 0,0 l/m 2,2 km/h (1 Bft) SO 136 2 min 0,000 mm 0,5 UV-I 226 W/m 9,8 C 10,7 C 3,2 km/h (1 Bft) 95,74 %
19.10.2018 10:04 10,8 C 12,2 C 12,2 C 93 % 1022,0 hPa 0,0 l/m 2,5 km/h (1 Bft) SO 136 2 min 0,000 mm 0,5 UV-I 229 W/m 9,7 C 10,8 C 4,8 km/h (1 Bft) 98,00 %
19.10.2018 10:06 10,9 C 12,2 C 12,2 C 93 % 1021,9 hPa 0,0 l/m 3,8 km/h (1 Bft) O 97 2 min 0,000 mm 0,6 UV-I 234 W/m 9,8 C 10,9 C 4,8 km/h (1 Bft) 100,00 %
19.10.2018 10:08 11,0 C 12,2 C 12,2 C 93 % 1022,0 hPa 0,0 l/m 4,0 km/h (1 Bft) O 97 2 min 0,000 mm 0,6 UV-I 236 W/m 9,9 C 11,0 C 6,4 km/h (2 Bft) 95,74 %
19.10.2018 10:10 11,1 C 12,2 C 12,8 C 92 % 1021,9 hPa 0,0 l/m 3,8 km/h (1 Bft) O 97 2 min 0,000 mm 0,6 UV-I 233 W/m 9,8 C 11,1 C 4,8 km/h (1 Bft) 97,87 %
19.10.2018 10:12 11,2 C 12,2 C 12,8 C 92 % 1021,9 hPa 0,0 l/m 4,4 km/h (1 Bft) O 82 2 min 0,000 mm 0,6 UV-I 236 W/m 9,9 C 11,2 C 6,4 km/h (2 Bft) 98,00 %
19.10.2018 10:15 11,2 C 12,2 C 12,8 C 92 % 1022,0 hPa 0,0 l/m 3,8 km/h (1 Bft) O-SO 105 3 min 0,000 mm 0,6 UV-I 237 W/m 9,9 C 11,2 C 6,4 km/h (2 Bft) 98,59 %
19.10.2018 10:16 11,3 C 12,2 C 12,8 C 91 % 1022,0 hPa 0,0 l/m 2,5 km/h (1 Bft) O-SO 102 1 min 0,000 mm 0,6 UV-I 242 W/m 9,9 C 11,3 C 4,8 km/h (1 Bft) 100,00 %
19.10.2018 10:18 11,3 C 12,2 C 12,8 C 91 % 1022,0 hPa 0,0 l/m 2,9 km/h (1 Bft) O-SO 102 2 min 0,000 mm 0,6 UV-I 248 W/m 9,9 C 11,3 C 4,8 km/h (1 Bft) 100,00 %
19.10.2018 10:20 11,3 C 12,2 C 13,3 C 91 % 1022,1 hPa 0,0 l/m 3,0 km/h (1 Bft) O-SO 102 2 min 0,000 mm 0,6 UV-I 257 W/m 9,9 C 11,3 C 4,8 km/h (1 Bft) 100,00 %
19.10.2018 10:22 11,4 C 12,2 C 13,3 C 91 % 1022,0 hPa 0,0 l/m 2,9 km/h (1 Bft) O-SO 102 2 min 0,000 mm 0,7 UV-I 258 W/m 10,0 C 11,4 C 4,8 km/h (1 Bft) 100,00 %
19.10.2018 10:25 11,6 C 12,2 C 13,9 C 91 % 1022,0 hPa 0,0 l/m 4,2 km/h (1 Bft) O-SO 103 3 min 0,000 mm 0,7 UV-I 264 W/m 10,2 C 11,6 C 6,4 km/h (2 Bft) 98,65 %
19.10.2018 10:26 11,6 C 12,2 C 13,9 C 90 % 1022,0 hPa 0,0 l/m 3,1 km/h (1 Bft) O-SO 103 1 min 0,000 mm 0,7 UV-I 269 W/m 10,0 C 11,6 C 4,8 km/h (1 Bft) 100,00 %
19.10.2018 10:28 11,6 C 12,2 C 14,4 C 90 % 1022,1 hPa 0,0 l/m 2,8 km/h (1 Bft) O 82 2 min 0,000 mm 0,7 UV-I 274 W/m 10,0 C 11,6 C 4,8 km/h (1 Bft) 100,00 %
19.10.2018 10:30 11,6 C 12,2 C 14,4 C 89 % 1022,0 hPa 0,0 l/m 3,1 km/h (1 Bft) O 91 2 min 0,000 mm 0,7 UV-I 283 W/m 9,8 C 11,6 C 4,8 km/h (1 Bft) 100,00 %
19.10.2018 10:32 11,7 C 12,2 C 14,4 C 90 % 1022,0 hPa 0,0 l/m 2,6 km/h (1 Bft) O 90 2 min 0,000 mm 0,7 UV-I 292 W/m 10,1 C 11,7 C 4,8 km/h (1 Bft) 100,00 %
19.10.2018 10:34 11,8 C 12,2 C 15,0 C 90 % 1022,0 hPa 0,0 l/m 4,2 km/h (1 Bft) O 90 2 min 0,000 mm 0,8 UV-I 296 W/m 10,2 C 11,8 C 6,4 km/h (2 Bft) 98,00 %
19.10.2018 10:36 11,8 C 12,2 C 15,6 C 89 % 1022,0 hPa 0,0 l/m 3,5 km/h (1 Bft) O 90 2 min 0,000 mm 0,8 UV-I 301 W/m 10,0 C 11,8 C 4,8 km/h (1 Bft) 100,00 %
19.10.2018 10:38 11,9 C 12,2 C 15,6 C 89 % 1022,0 hPa 0,0 l/m 2,7 km/h (1 Bft) O 90 2 min 0,000 mm 0,8 UV-I 302 W/m 10,1 C 11,9 C 4,8 km/h (1 Bft) 97,87 %
19.10.2018 10:40 11,9 C 12,2 C 16,1 C 89 % 1022,0 hPa 0,0 l/m 3,9 km/h (1 Bft) O-SO 103 2 min 0,000 mm 0,8 UV-I 302 W/m 10,1 C 11,9 C 9,7 km/h (2 Bft) 100,00 %
19.10.2018 10:42 12,0 C 12,2 C 16,7 C 88 % 1021,9 hPa 0,0 l/m 5,5 km/h (1 Bft) O 101 2 min 0,000 mm 0,8 UV-I 307 W/m 10,1 C 12,0 C 6,4 km/h (2 Bft) 100,00 %
19.10.2018 10:44 12,1 C 12,2 C 17,2 C 88 % 1021,9 hPa 0,0 l/m 3,5 km/h (1 Bft) O 98 2 min 0,000 mm 0,8 UV-I 310 W/m 10,2 C 12,1 C 6,4 km/h (2 Bft) 100,00 %
19.10.2018 10:46 12,1 C 12,2 C 17,2 C 88 % 1021,9 hPa 0,0 l/m 4,9 km/h (1 Bft) NO 49 2 min 0,000 mm 0,8 UV-I 311 W/m 10,2 C 12,1 C 9,7 km/h (2 Bft) 95,74 %
19.10.2018 10:48 12,3 C 12,2 C 17,8 C 88 % 1021,9 hPa 0,0 l/m 5,9 km/h (2 Bft) NO 42 2 min 0,000 mm 0,9 UV-I 314 W/m 10,4 C 12,3 C 8,0 km/h (2 Bft) 95,74 %
19.10.2018 10:50 12,3 C 12,2 C 18,3 C 87 % 1022,0 hPa 0,0 l/m 3,9 km/h (1 Bft) O 92 2 min 0,000 mm 0,9 UV-I 315 W/m 10,2 C 12,3 C 6,4 km/h (2 Bft) 97,87 %
19.10.2018 10:52 12,2 C 12,2 C 18,3 C 87 % 1021,9 hPa 0,0 l/m 4,2 km/h (1 Bft) O 87 2 min 0,000 mm 0,9 UV-I 316 W/m 10,1 C 12,2 C 6,4 km/h (2 Bft) 95,74 %
19.10.2018 10:54 12,3 C 12,2 C 18,9 C 88 % 1021,9 hPa 0,0 l/m 5,8 km/h (2 Bft) O 100 2 min 0,000 mm 0,9 UV-I 325 W/m 10,4 C 12,3 C 11,3 km/h (2 Bft) 96,23 %
19.10.2018 10:56 12,3 C 12,2 C 18,9 C 87 % 1022,0 hPa 0,0 l/m 5,6 km/h (1 Bft) O-NO 57 2 min 0,000 mm 0,9 UV-I 328 W/m 10,2 C 12,3 C 6,4 km/h (2 Bft) 95,74 %
19.10.2018 10:58 12,3 C 12,2 C 19,4 C 87 % 1022,0 hPa 0,0 l/m 4,3 km/h (1 Bft) O 95 2 min 0,000 mm 0,9 UV-I 336 W/m 10,2 C 12,3 C 6,4 km/h (2 Bft) 91,49 %
19.10.2018 11:00 12,4 C 12,2 C 19,4 C 86 % 1021,9 hPa 0,0 l/m 4,4 km/h (1 Bft) SO 134 2 min 0,000 mm 0,9 UV-I 339 W/m 10,1 C 12,4 C 6,4 km/h (2 Bft) 93,62 %
19.10.2018 11:02 12,5 C 12,2 C 20,0 C 86 % 1021,9 hPa 0,0 l/m 3,6 km/h (1 Bft) O-SO 117 2 min 0,127 mm 1,0 UV-I 340 W/m 10,2 C 12,5 C 4,8 km/h (1 Bft) 92,86 %
19.10.2018 11:04 12,6 C 12,2 C 20,6 C 86 % 1021,9 hPa 0,0 l/m 2,9 km/h (1 Bft) O 80 2 min 0,000 mm 1,0 UV-I 345 W/m 10,3 C 12,6 C 4,8 km/h (1 Bft) 93,62 %
19.10.2018 11:06 12,8 C 12,2 C 20,6 C 87 % 1021,8 hPa 0,0 l/m 4,1 km/h (1 Bft) O-NO 60 2 min 0,000 mm 1,0 UV-I 346 W/m 10,7 C 12,8 C 6,4 km/h (2 Bft) 89,36 %
19.10.2018 11:08 12,8 C 12,2 C 21,1 C 86 % 1021,8 hPa 0,0 l/m 3,2 km/h (1 Bft) O-NO 60 2 min 0,000 mm 1,0 UV-I 347 W/m 10,5 C 12,8 C 6,4 km/h (2 Bft) 95,74 %
19.10.2018 11:10 12,9 C 12,2 C 21,1 C 86 % 1021,8 hPa 0,0 l/m 5,3 km/h (1 Bft) O 101 2 min 0,000 mm 1,0 UV-I 349 W/m 10,6 C 12,9 C 6,4 km/h (2 Bft) 93,62 %
19.10.2018 11:12 13,0 C 12,2 C 20,6 C 86 % 1021,8 hPa 0,0 l/m 6,0 km/h (2 Bft) O-NO 61 2 min 0,000 mm 1,0 UV-I 354 W/m 10,7 C 13,0 C 8,0 km/h (2 Bft) 93,62 %
19.10.2018 11:14 12,9 C 12,2 C 20,0 C 85 % 1021,8 hPa 0,0 l/m 5,0 km/h (1 Bft) O-NO 67 2 min 0,000 mm 1,0 UV-I 354 W/m 10,4 C 12,9 C 8,0 km/h (2 Bft) 95,74 %
19.10.2018 11:16 12,9 C 12,2 C 20,0 C 85 % 1021,8 hPa 0,0 l/m 5,5 km/h (1 Bft) O 81 2 min 0,000 mm 1,0 UV-I 356 W/m 10,4 C 12,9 C 8,0 km/h (2 Bft) 100,00 %
19.10.2018 11:18 12,9 C 12,2 C 20,6 C 85 % 1021,8 hPa 0,0 l/m 5,1 km/h (1 Bft) O-SO 103 2 min 0,000 mm 1,1 UV-I 366 W/m 10,4 C 12,9 C 9,7 km/h (2 Bft) 100,00 %
19.10.2018 11:20 13,1 C 12,2 C 21,1 C 85 % 1021,8 hPa 0,0 l/m 6,0 km/h (2 Bft) O-NO 78 2 min 0,000 mm 1,1 UV-I 367 W/m 10,6 C 13,1 C 9,7 km/h (2 Bft) 97,87 %
19.10.2018 11:22 13,1 C 12,2 C 21,7 C 84 % 1021,7 hPa 0,0 l/m 3,8 km/h (1 Bft) O 101 2 min 0,000 mm 1,1 UV-I 370 W/m 10,5 C 13,1 C 9,7 km/h (2 Bft) 94,74 %
19.10.2018 11:24 13,1 C 12,2 C 21,7 C 84 % 1021,8 hPa 0,0 l/m 5,7 km/h (1 Bft) O-NO 76 2 min 0,000 mm 1,1 UV-I 373 W/m 10,5 C 13,1 C 9,7 km/h (2 Bft) 100,00 %
19.10.2018 11:26 13,3 C 12,2 C 22,2 C 84 % 1021,8 hPa 0,0 l/m 4,8 km/h (1 Bft) O-SO 111 2 min 0,000 mm 1,1 UV-I 375 W/m 10,7 C 13,3 C 6,4 km/h (2 Bft) 97,87 %
19.10.2018 11:28 13,3 C 12,2 C 22,2 C 83 % 1021,8 hPa 0,0 l/m 4,7 km/h (1 Bft) O 101 2 min 0,000 mm 1,1 UV-I 375 W/m 10,5 C 13,3 C 9,7 km/h (2 Bft) 100,00 %
19.10.2018 11:30 13,3 C 12,2 C 22,2 C 84 % 1021,8 hPa 0,0 l/m 4,8 km/h (1 Bft) O 80 2 min 0,000 mm 1,1 UV-I 376 W/m 10,7 C 13,3 C 8,0 km/h (2 Bft) 100,00 %
19.10.2018 11:32 13,3 C 12,2 C 22,2 C 83 % 1021,8 hPa 0,0 l/m 4,6 km/h (1 Bft) O 84 2 min 0,000 mm 1,1 UV-I 382 W/m 10,5 C 13,3 C 6,4 km/h (2 Bft) 97,92 %
19.10.2018 11:34 13,3 C 12,2 C 22,2 C 83 % 1021,8 hPa 0,0 l/m 5,4 km/h (1 Bft) O 92 2 min 0,000 mm 1,2 UV-I 381 W/m 10,5 C 13,3 C 9,7 km/h (2 Bft) 97,87 %
19.10.2018 11:36 13,3 C 12,2 C 22,2 C 83 % 1021,8 hPa 0,0 l/m 4,0 km/h (1 Bft) O-NO 65 2 min 0,000 mm 1,2 UV-I 384 W/m 10,5 C 13,3 C 4,8 km/h (1 Bft) 100,00 %
19.10.2018 11:38 13,4 C 12,2 C 22,2 C 83 % 1021,8 hPa 0,0 l/m 4,0 km/h (1 Bft) NO 56 2 min 0,000 mm 1,2 UV-I 388 W/m 10,6 C 13,4 C 6,4 km/h (2 Bft) 100,00 %
19.10.2018 11:40 13,6 C 12,2 C 21,7 C 83 % 1021,8 hPa 0,0 l/m 4,1 km/h (1 Bft) O 79 2 min 0,000 mm 1,2 UV-I 390 W/m 10,8 C 13,6 C 6,4 km/h (2 Bft) 97,87 %
19.10.2018 11:42 13,5 C 12,2 C 22,2 C 83 % 1021,8 hPa 0,0 l/m 1,6 km/h (1 Bft) O 79 2 min 0,000 mm 1,2 UV-I 388 W/m 10,7 C 13,5 C 3,2 km/h (1 Bft) 100,00 %
19.10.2018 11:44 13,6 C 12,2 C 22,2 C 83 % 1021,7 hPa 0,0 l/m 4,2 km/h (1 Bft) NO 48 2 min 0,000 mm 1,2 UV-I 390 W/m 10,8 C 13,6 C 9,7 km/h (2 Bft) 97,87 %
19.10.2018 11:46 13,8 C 12,2 C 22,2 C 83 % 1021,7 hPa 0,0 l/m 6,6 km/h (2 Bft) O-NO 72 2 min 0,000 mm 1,2 UV-I 388 W/m 11,0 C 13,7 C 11,3 km/h (2 Bft) 100,00 %
19.10.2018 11:48 13,8 C 12,2 C 22,8 C 82 % 1021,7 hPa 0,0 l/m 6,6 km/h (2 Bft) O 82 2 min 0,000 mm 1,2 UV-I 394 W/m 10,8 C 13,7 C 9,7 km/h (2 Bft) 100,00 %
19.10.2018 11:50 13,8 C 12,2 C 22,8 C 82 % 1021,7 hPa 0,0 l/m 3,6 km/h (1 Bft) O-SO 115 2 min 0,000 mm 1,2 UV-I 400 W/m 10,8 C 13,8 C 4,8 km/h (1 Bft) 100,00 %
19.10.2018 11:52 14,0 C 12,2 C 22,8 C 83 % 1021,7 hPa 0,0 l/m 5,6 km/h (1 Bft) O-NO 66 2 min 0,000 mm 1,3 UV-I 402 W/m 11,2 C 14,0 C 9,7 km/h (2 Bft) 97,87 %
19.10.2018 11:54 14,1 C 12,2 C 22,8 C 81 % 1021,7 hPa 0,0 l/m 4,9 km/h (1 Bft) O 88 2 min 0,000 mm 1,3 UV-I 404 W/m 10,9 C 14,1 C 6,4 km/h (2 Bft) 100,00 %
19.10.2018 11:56 14,0 C 12,2 C 22,2 C 80 % 1021,7 hPa 0,0 l/m 5,6 km/h (1 Bft) O 94 2 min 0,000 mm 1,3 UV-I 407 W/m 10,6 C 14,0 C 11,3 km/h (2 Bft) 97,87 %
19.10.2018 11:58 14,1 C 12,2 C 22,8 C 81 % 1021,7 hPa 0,0 l/m 5,7 km/h (1 Bft) O 82 2 min 0,000 mm 1,3 UV-I 406 W/m 10,9 C 14,1 C 9,7 km/h (2 Bft) 97,87 %
19.10.2018 12:00 14,2 C 12,2 C 23,3 C 81 % 1021,7 hPa 0,0 l/m 6,9 km/h (2 Bft) NO 49 2 min 0,000 mm 1,3 UV-I 410 W/m 11,0 C 13,9 C 11,3 km/h (2 Bft) 97,87 %
19.10.2018 12:02 14,4 C 12,2 C 22,8 C 82 % 1021,7 hPa 0,0 l/m 9,7 km/h (2 Bft) N-NO 23 2 min 0,203 mm 1,3 UV-I 412 W/m 11,4 C 12,6 C 14,5 km/h (3 Bft) 100,00 %
19.10.2018 12:04 14,5 C 12,2 C 22,8 C 82 % 1021,7 hPa 0,0 l/m 8,0 km/h (2 Bft) N-NO 30 2 min 0,000 mm 1,3 UV-I 410 W/m 11,5 C 13,6 C 11,3 km/h (2 Bft) 100,00 %
19.10.2018 12:06 14,5 C 12,2 C 22,2 C 81 % 1021,7 hPa 0,0 l/m 9,1 km/h (2 Bft) NO 39 2 min 0,000 mm 1,3 UV-I 412 W/m 11,3 C 13,0 C 14,5 km/h (3 Bft) 98,11 %
19.10.2018 12:08 14,5 C 12,2 C 21,7 C 81 % 1021,7 hPa 0,0 l/m 9,7 km/h (2 Bft) NO 36 2 min 0,000 mm 1,3 UV-I 409 W/m 11,3 C 12,7 C 14,5 km/h (3 Bft) 100,00 %
19.10.2018 12:10 14,5 C 12,2 C 21,1 C 82 % 1021,7 hPa 0,0 l/m 11,7 km/h (2 Bft) NO 40 2 min 0,000 mm 1,3 UV-I 416 W/m 11,5 C 11,8 C 16,1 km/h (3 Bft) 97,87 %
19.10.2018 12:12 14,5 C 12,2 C 20,6 C 82 % 1021,7 hPa 0,0 l/m 10,9 km/h (2 Bft) NO 36 2 min 0,000 mm 1,3 UV-I 417 W/m 11,5 C 12,2 C 16,1 km/h (3 Bft) 100,00 %
19.10.2018 12:14 14,6 C 12,2 C 21,1 C 82 % 1021,7 hPa 0,0 l/m 9,4 km/h (2 Bft) NO 36 2 min 0,000 mm 1,3 UV-I 420 W/m 11,6 C 13,0 C 14,5 km/h (3 Bft) 98,00 %
19.10.2018 12:16 14,6 C 12,2 C 21,1 C 81 % 1021,7 hPa 0,0 l/m 11,2 km/h (2 Bft) N-NO 19 2 min 0,000 mm 1,3 UV-I 419 W/m 11,4 C 12,1 C 16,1 km/h (3 Bft) 97,87 %
19.10.2018 12:18 14,6 C 12,2 C 20,6 C 82 % 1021,7 hPa 0,0 l/m 10,6 km/h (2 Bft) NO 51 2 min 0,000 mm 1,3 UV-I 417 W/m 11,6 C 12,4 C 14,5 km/h (3 Bft) 94,00 %
19.10.2018 12:20 14,6 C 12,2 C 20,6 C 83 % 1021,7 hPa 0,0 l/m 10,1 km/h (2 Bft) N-NO 26 2 min 0,000 mm 1,3 UV-I 420 W/m 11,7 C 12,6 C 14,5 km/h (3 Bft) 97,87 %
19.10.2018 12:22 14,6 C 12,2 C 20,0 C 82 % 1021,7 hPa 0,0 l/m 9,7 km/h (2 Bft) NO 49 2 min 0,000 mm 1,3 UV-I 423 W/m 11,6 C 12,8 C 12,9 km/h (3 Bft) 97,87 %
19.10.2018 12:24 14,6 C 12,2 C 20,0 C 82 % 1021,7 hPa 0,0 l/m 7,9 km/h (2 Bft) N-NO 24 2 min 0,000 mm 1,3 UV-I 423 W/m 11,6 C 13,7 C 9,7 km/h (2 Bft) 93,62 %
19.10.2018 12:26 14,6 C 12,2 C 20,0 C 82 % 1021,7 hPa 0,0 l/m 7,7 km/h (2 Bft) NO 45 2 min 0,000 mm 1,3 UV-I 423 W/m 11,6 C 13,8 C 16,1 km/h (3 Bft) 93,62 %
19.10.2018 12:28 14,8 C 12,2 C 20,6 C 83 % 1021,6 hPa 0,0 l/m 11,3 km/h (2 Bft) N-NO 25 2 min 0,000 mm 1,3 UV-I 423 W/m 11,9 C 12,3 C 16,1 km/h (3 Bft) 93,62 %
19.10.2018 12:30 14,9 C 12,2 C 21,7 C 82 % 1021,6 hPa 0,0 l/m 7,0 km/h (2 Bft) O 97 2 min 0,000 mm 1,3 UV-I 423 W/m 11,9 C 14,6 C 11,3 km/h (2 Bft) 94,44 %
19.10.2018 12:32 15,1 C 12,2 C 21,7 C 80 % 1021,6 hPa 0,0 l/m 8,6 km/h (2 Bft) NO 34 2 min 0,000 mm 1,4 UV-I 425 W/m 11,7 C 13,9 C 12,9 km/h (3 Bft) 94,44 %
19.10.2018 12:34 15,1 C 12,2 C 21,7 C 81 % 1021,5 hPa 0,0 l/m 11,1 km/h (2 Bft) N-NO 29 2 min 0,000 mm 1,4 UV-I 427 W/m 11,9 C 12,8 C 16,1 km/h (3 Bft) 95,92 %
19.10.2018 12:36 15,1 C 12,2 C 21,7 C 81 % 1021,5 hPa 0,0 l/m 9,7 km/h (2 Bft) O-NO 70 2 min 0,000 mm 1,4 UV-I 428 W/m 11,9 C 13,4 C 14,5 km/h (3 Bft) 95,83 %
19.10.2018 12:38 15,1 C 12,2 C 21,7 C 80 % 1021,5 hPa 0,0 l/m 9,9 km/h (2 Bft) NO 38 2 min 0,000 mm 1,4 UV-I 430 W/m 11,7 C 13,3 C 16,1 km/h (3 Bft) 97,87 %
19.10.2018 12:40 15,0 C 12,2 C 20,6 C 81 % 1021,5 hPa 0,0 l/m 12,5 km/h (3 Bft) O-NO 61 2 min 0,000 mm 1,4 UV-I 430 W/m 11,8 C 12,1 C 16,1 km/h (3 Bft) 94,00 %
19.10.2018 12:42 15,1 C 12,2 C 20,6 C 81 % 1021,5 hPa 0,0 l/m 11,2 km/h (2 Bft) N-NO 23 2 min 0,000 mm 1,4 UV-I 429 W/m 11,9 C 12,7 C 16,1 km/h (3 Bft) 95,12 %
19.10.2018 12:44 15,2 C 12,2 C 20,6 C 81 % 1021,5 hPa 0,0 l/m 9,3 km/h (2 Bft) N-NO 19 2 min 0,000 mm 1,4 UV-I 430 W/m 12,0 C 13,7 C 14,5 km/h (3 Bft) 98,00 %
19.10.2018 12:46 15,2 C 12,2 C 20,6 C 80 % 1021,5 hPa 0,0 l/m 14,1 km/h (3 Bft) O 80 2 min 0,000 mm 1,4 UV-I 429 W/m 11,8 C 11,7 C 16,1 km/h (3 Bft) 97,87 %
19.10.2018 12:48 15,2 C 12,2 C 20,6 C 79 % 1021,4 hPa 0,0 l/m 7,6 km/h (2 Bft) O-NO 77 2 min 0,000 mm 1,4 UV-I 429 W/m 11,6 C 14,5 C 12,9 km/h (3 Bft) 97,87 %
19.10.2018 12:50 15,2 C 12,2 C 21,1 C 80 % 1021,4 hPa 0,0 l/m 9,4 km/h (2 Bft) NO 49 2 min 0,000 mm 1,4 UV-I 431 W/m 11,8 C 13,6 C 17,7 km/h (3 Bft) 97,87 %
19.10.2018 12:52 15,3 C 12,2 C 20,6 C 80 % 1021,4 hPa 0,0 l/m 10,2 km/h (2 Bft) N-NO 15 2 min 0,000 mm 1,4 UV-I 433 W/m 11,9 C 13,4 C 14,5 km/h (3 Bft) 100,00 %
19.10.2018 12:54 15,3 C 12,2 C 20,6 C 80 % 1021,3 hPa 0,0 l/m 10,7 km/h (2 Bft) NO 39 2 min 0,000 mm 1,4 UV-I 435 W/m 11,9 C 13,1 C 17,7 km/h (3 Bft) 100,00 %
19.10.2018 12:56 15,3 C 12,2 C 19,4 C 80 % 1021,3 hPa 0,0 l/m 11,4 km/h (2 Bft) N-NO 32 2 min 0,000 mm 1,4 UV-I 432 W/m 11,9 C 12,9 C 14,5 km/h (3 Bft) 97,87 %
19.10.2018 12:58 15,4 C 12,2 C 19,4 C 80 % 1021,3 hPa 0,0 l/m 11,2 km/h (2 Bft) NO 45 2 min 0,000 mm 1,4 UV-I 432 W/m 12,0 C 13,0 C 14,5 km/h (3 Bft) 95,74 %
19.10.2018 13:00 15,5 C 12,2 C 18,9 C 79 % 1021,3 hPa 0,0 l/m 9,4 km/h (2 Bft) O-NO 76 2 min 0,254 mm 1,4 UV-I 428 W/m 11,9 C 13,9 C 14,5 km/h (3 Bft) 100,00 %
19.10.2018 13:02 15,4 C 12,2 C 18,9 C 78 % 1021,3 hPa 0,0 l/m 8,0 km/h (2 Bft) O-NO 57 2 min 0,000 mm 1,4 UV-I 426 W/m 11,6 C 14,5 C 12,9 km/h (3 Bft) 100,00 %
19.10.2018 13:04 15,5 C 12,2 C 18,9 C 77 % 1021,3 hPa 0,0 l/m 7,9 km/h (2 Bft) O-NO 66 2 min 0,000 mm 1,4 UV-I 428 W/m 11,5 C 14,7 C 11,3 km/h (2 Bft) 100,00 %
19.10.2018 13:06 15,6 C 12,2 C 18,9 C 78 % 1021,2 hPa 0,0 l/m 7,5 km/h (2 Bft) NO 36 2 min 0,000 mm 1,4 UV-I 426 W/m 11,8 C 15,0 C 12,9 km/h (3 Bft) 97,87 %
19.10.2018 13:08 15,7 C 12,2 C 18,9 C 79 % 1021,2 hPa 0,0 l/m 8,6 km/h (2 Bft) N-NO 32 2 min 0,000 mm 1,4 UV-I 426 W/m 12,1 C 14,5 C 11,3 km/h (2 Bft) 100,00 %
19.10.2018 13:10 15,6 C 12,2 C 18,3 C 79 % 1021,2 hPa 0,0 l/m 8,6 km/h (2 Bft) O-NO 65 2 min 0,000 mm 1,4 UV-I 427 W/m 12,0 C 14,4 C 12,9 km/h (3 Bft) 95,74 %
19.10.2018 13:12 15,6 C 12,2 C 18,3 C 78 % 1021,2 hPa 0,0 l/m 8,2 km/h (2 Bft) NO 56 2 min 0,000 mm 1,4 UV-I 422 W/m 11,8 C 14,6 C 16,1 km/h (3 Bft) 97,87 %
19.10.2018 13:14 15,8 C 12,2 C 18,9 C 80 % 1021,1 hPa 0,0 l/m 8,0 km/h (2 Bft) N-NO 30 2 min 0,000 mm 1,4 UV-I 422 W/m 12,4 C 14,9 C 12,9 km/h (3 Bft) 97,87 %
19.10.2018 13:16 15,8 C 12,2 C 18,3 C 78 % 1021,1 hPa 0,0 l/m 7,5 km/h (2 Bft) O 81 2 min 0,000 mm 1,4 UV-I 428 W/m 12,0 C 15,2 C 11,3 km/h (2 Bft) 98,00 %
19.10.2018 13:18 15,9 C 12,2 C 18,9 C 78 % 1021,1 hPa 0,0 l/m 7,0 km/h (2 Bft) NO 56 2 min 0,000 mm 1,4 UV-I 427 W/m 12,1 C 15,6 C 9,7 km/h (2 Bft) 97,87 %
19.10.2018 13:20 16,1 C 12,2 C 18,9 C 78 % 1021,1 hPa 0,0 l/m 10,0 km/h (2 Bft) N-NO 32 2 min 0,000 mm 1,4 UV-I 426 W/m 12,3 C 14,3 C 14,5 km/h (3 Bft) 97,87 %
19.10.2018 13:22 16,2 C 12,2 C 18,9 C 76 % 1021,1 hPa 0,0 l/m 9,2 km/h (2 Bft) NO 34 2 min 0,000 mm 1,4 UV-I 427 W/m 12,0 C 14,8 C 12,9 km/h (3 Bft) 97,87 %
19.10.2018 13:24 16,2 C 12,2 C 18,3 C 77 % 1021,1 hPa 0,0 l/m 9,9 km/h (2 Bft) NO 49 2 min 0,000 mm 1,4 UV-I 424 W/m 12,2 C 14,5 C 17,7 km/h (3 Bft) 100,00 %
19.10.2018 13:26 16,2 C 12,2 C 18,3 C 77 % 1021,1 hPa 0,0 l/m 12,4 km/h (3 Bft) O-NO 57 2 min 0,000 mm 1,4 UV-I 419 W/m 12,2 C 13,5 C 17,7 km/h (3 Bft) 97,37 %
19.10.2018 13:28 16,2 C 12,2 C 18,3 C 76 % 1021,1 hPa 0,0 l/m 9,4 km/h (2 Bft) O-NO 69 2 min 0,000 mm 1,4 UV-I 423 W/m 12,0 C 14,7 C 14,5 km/h (3 Bft) 95,83 %
19.10.2018 13:30 16,3 C 12,2 C 18,3 C 76 % 1021,1 hPa 0,0 l/m 7,1 km/h (2 Bft) NO 50 2 min 0,000 mm 1,3 UV-I 422 W/m 12,1 C 15,9 C 14,5 km/h (3 Bft) 97,87 %
19.10.2018 13:32 16,4 C 12,2 C 18,3 C 77 % 1021,1 hPa 0,0 l/m 12,0 km/h (2 Bft) NO 37 2 min 0,000 mm 1,3 UV-I 423 W/m 12,4 C 13,9 C 16,1 km/h (3 Bft) 97,87 %
19.10.2018 13:34 16,4 C 12,2 C 18,3 C 77 % 1021,0 hPa 0,0 l/m 13,6 km/h (3 Bft) O-NO 62 2 min 0,000 mm 1,3 UV-I 415 W/m 12,4 C 13,3 C 19,3 km/h (3 Bft) 95,74 %
19.10.2018 13:36 16,4 C 12,2 C 18,3 C 78 % 1021,1 hPa 0,0 l/m 12,0 km/h (2 Bft) NO 37 2 min 0,000 mm 1,3 UV-I 414 W/m 12,6 C 13,9 C 17,7 km/h (3 Bft) 89,36 %
19.10.2018 13:38 16,4 C 12,2 C 18,3 C 76 % 1021,0 hPa 0,0 l/m 11,5 km/h (2 Bft) NO 56 2 min 0,000 mm 1,3 UV-I 416 W/m 12,2 C 14,1 C 16,1 km/h (3 Bft) 95,74 %
19.10.2018 13:40 16,3 C 12,2 C 18,3 C 75 % 1021,0 hPa 0,0 l/m 9,9 km/h (2 Bft) O-NO 65 2 min 0,000 mm 1,3 UV-I 411 W/m 11,9 C 14,6 C 14,5 km/h (3 Bft) 94,00 %
19.10.2018 13:42 16,3 C 12,2 C 18,3 C 74 % 1021,0 hPa 0,0 l/m 8,9 km/h (2 Bft) NO 56 2 min 0,000 mm 1,3 UV-I 409 W/m 11,7 C 15,0 C 14,5 km/h (3 Bft) 97,56 %
19.10.2018 13:44 16,3 C 12,2 C 18,3 C 75 % 1021,0 hPa 0,0 l/m 12,2 km/h (2 Bft) NO 49 2 min 0,000 mm 1,3 UV-I 412 W/m 11,9 C 13,7 C 17,7 km/h (3 Bft) 93,62 %
19.10.2018 13:46 16,4 C 12,2 C 17,8 C 75 % 1020,9 hPa 0,0 l/m 12,2 km/h (2 Bft) NO 39 2 min 0,000 mm 1,3 UV-I 412 W/m 12,0 C 13,8 C 17,7 km/h (3 Bft) 96,00 %
19.10.2018 13:48 16,3 C 12,2 C 17,8 C 76 % 1020,9 hPa 0,0 l/m 8,6 km/h (2 Bft) N-NO 32 2 min 0,000 mm 1,3 UV-I 395 W/m 12,1 C 15,2 C 12,9 km/h (3 Bft) 93,62 %
19.10.2018 13:50 16,4 C 12,2 C 17,8 C 75 % 1020,9 hPa 0,0 l/m 10,6 km/h (2 Bft) NO 39 2 min 0,000 mm 1,3 UV-I 401 W/m 12,0 C 14,4 C 16,1 km/h (3 Bft) 93,62 %
19.10.2018 13:52 16,4 C 12,2 C 17,8 C 75 % 1020,9 hPa 0,0 l/m 11,2 km/h (2 Bft) O-NO 73 2 min 0,000 mm 1,3 UV-I 399 W/m 12,0 C 14,2 C 17,7 km/h (3 Bft) 96,00 %
19.10.2018 13:54 16,5 C 12,2 C 17,8 C 74 % 1020,9 hPa 0,0 l/m 9,8 km/h (2 Bft) O-NO 73 2 min 0,000 mm 1,3 UV-I 404 W/m 11,8 C 14,9 C 14,5 km/h (3 Bft) 93,62 %
19.10.2018 13:56 16,5 C 12,2 C 17,8 C 74 % 1020,8 hPa 0,0 l/m 8,7 km/h (2 Bft) O 97 2 min 0,000 mm 1,3 UV-I 402 W/m 11,8 C 15,3 C 14,5 km/h (3 Bft) 93,62 %
19.10.2018 13:58 16,6 C 12,2 C 17,8 C 73 % 1020,8 hPa 0,0 l/m 9,3 km/h (2 Bft) O-NO 71 2 min 0,000 mm 1,3 UV-I 402 W/m 11,7 C 15,2 C 14,5 km/h (3 Bft) 93,62 %
19.10.2018 14:00 16,6 C 12,2 C 17,8 C 73 % 1020,8 hPa 0,0 l/m 9,0 km/h (2 Bft) O-NO 67 2 min 0,254 mm 1,2 UV-I 397 W/m 11,7 C 15,3 C 12,9 km/h (3 Bft) 95,74 %
19.10.2018 14:02 16,7 C 12,2 C 17,8 C 74 % 1020,9 hPa 0,0 l/m 11,3 km/h (2 Bft) N-NO 28 2 min 0,000 mm 1,2 UV-I 393 W/m 12,0 C 14,5 C 19,3 km/h (3 Bft) 95,83 %
19.10.2018 14:04 16,6 C 12,2 C 17,8 C 74 % 1020,8 hPa 0,0 l/m 14,1 km/h (3 Bft) NO 42 2 min 0,000 mm 1,2 UV-I 391 W/m 11,9 C 13,4 C 17,7 km/h (3 Bft) 94,29 %
19.10.2018 14:06 16,7 C 12,2 C 17,8 C 75 % 1020,9 hPa 0,0 l/m 10,3 km/h (2 Bft) N-NO 26 2 min 0,000 mm 1,2 UV-I 383 W/m 12,2 C 14,9 C 14,5 km/h (3 Bft) 96,23 %
19.10.2018 14:08 16,8 C 12,2 C 17,8 C 75 % 1020,9 hPa 0,0 l/m 9,1 km/h (2 Bft) O-NO 67 2 min 0,000 mm 1,2 UV-I 387 W/m 12,3 C 15,5 C 12,9 km/h (3 Bft) 93,62 %
19.10.2018 14:10 16,8 C 12,2 C 17,8 C 73 % 1020,9 hPa 0,0 l/m 7,6 km/h (2 Bft) N-NO 32 2 min 0,000 mm 1,2 UV-I 382 W/m 11,9 C 16,2 C 12,9 km/h (3 Bft) 93,62 %
19.10.2018 14:12 16,9 C 12,2 C 17,8 C 73 % 1020,8 hPa 0,0 l/m 11,0 km/h (2 Bft) NO 48 2 min 0,000 mm 1,2 UV-I 379 W/m 12,0 C 14,8 C 14,5 km/h (3 Bft) 93,62 %
19.10.2018 14:14 17,1 C 12,2 C 17,8 C 75 % 1020,8 hPa 0,0 l/m 10,2 km/h (2 Bft) NO 51 2 min 0,000 mm 1,2 UV-I 384 W/m 12,6 C 15,4 C 14,5 km/h (3 Bft) 95,74 %
19.10.2018 14:16 17,0 C 12,2 C 17,8 C 73 % 1020,8 hPa 0,0 l/m 8,4 km/h (2 Bft) O 88 2 min 0,000 mm 1,2 UV-I 386 W/m 12,1 C 16,0 C 11,3 km/h (2 Bft) 91,49 %
19.10.2018 14:18 17,0 C 12,2 C 17,8 C 71 % 1020,8 hPa 0,0 l/m 8,8 km/h (2 Bft) N-NO 33 2 min 0,000 mm 1,2 UV-I 389 W/m 11,7 C 15,8 C 12,9 km/h (3 Bft) 94,34 %
19.10.2018 14:20 17,0 C 12,2 C 17,8 C 72 % 1020,8 hPa 0,0 l/m 6,8 km/h (2 Bft) NO 42 2 min 0,000 mm 1,2 UV-I 386 W/m 11,9 C 16,8 C 11,3 km/h (2 Bft) 93,62 %
19.10.2018 14:22 17,1 C 12,2 C 17,8 C 73 % 1020,8 hPa 0,0 l/m 9,0 km/h (2 Bft) NO 55 2 min 0,000 mm 1,1 UV-I 381 W/m 12,2 C 15,9 C 14,5 km/h (3 Bft) 93,62 %
19.10.2018 14:24 17,1 C 12,2 C 17,8 C 73 % 1020,7 hPa 0,0 l/m 10,4 km/h (2 Bft) NO 52 2 min 0,000 mm 1,1 UV-I 379 W/m 12,2 C 15,3 C 16,1 km/h (3 Bft) 94,74 %
19.10.2018 14:26 17,1 C 12,2 C 17,8 C 72 % 1020,7 hPa 0,0 l/m 11,1 km/h (2 Bft) NO 34 2 min 0,000 mm 1,1 UV-I 372 W/m 12,0 C 15,0 C 16,1 km/h (3 Bft) 95,74 %
19.10.2018 14:28 17,1 C 12,2 C 17,8 C 72 % 1020,8 hPa 0,0 l/m 9,8 km/h (2 Bft) O 88 2 min 0,000 mm 1,1 UV-I 373 W/m 12,0 C 15,5 C 12,9 km/h (3 Bft) 97,87 %
19.10.2018 14:30 17,2 C 12,2 C 17,8 C 72 % 1020,6 hPa 0,0 l/m 8,4 km/h (2 Bft) NO 46 2 min 0,000 mm 1,1 UV-I 372 W/m 12,1 C 16,2 C 16,1 km/h (3 Bft) 96,23 %
19.10.2018 14:32 17,2 C 12,2 C 17,8 C 73 % 1020,7 hPa 0,0 l/m 14,3 km/h (3 Bft) NO 38 2 min 0,000 mm 1,1 UV-I 368 W/m 12,3 C 14,1 C 17,7 km/h (3 Bft) 97,87 %
19.10.2018 14:34 17,1 C 12,2 C 17,2 C 73 % 1020,6 hPa 0,0 l/m 13,1 km/h (3 Bft) O-NO 59 2 min 0,000 mm 1,1 UV-I 366 W/m 12,2 C 14,3 C 19,3 km/h (3 Bft) 97,87 %
19.10.2018 14:36 17,1 C 12,2 C 17,2 C 72 % 1020,6 hPa 0,0 l/m 12,3 km/h (3 Bft) N-NO 32 2 min 0,000 mm 1,1 UV-I 362 W/m 12,0 C 14,6 C 16,1 km/h (3 Bft) 97,87 %
19.10.2018 14:38 17,1 C 12,2 C 17,2 C 72 % 1020,6 hPa 0,0 l/m 10,9 km/h (2 Bft) O-NO 61 2 min 0,000 mm 1,1 UV-I 359 W/m 12,0 C 15,1 C 17,7 km/h (3 Bft) 97,87 %
19.10.2018 14:40 17,1 C 12,2 C 17,2 C 71 % 1020,6 hPa 0,0 l/m 10,2 km/h (2 Bft) NO 50 2 min 0,000 mm 1,0 UV-I 348 W/m 11,8 C 15,4 C 16,1 km/h (3 Bft) 97,44 %
19.10.2018 14:42 17,0 C 12,2 C 17,2 C 70 % 1020,6 hPa 0,0 l/m 9,7 km/h (2 Bft) O-NO 74 2 min 0,000 mm 1,0 UV-I 354 W/m 11,5 C 15,4 C 14,5 km/h (3 Bft) 96,23 %
19.10.2018 14:44 17,1 C 12,2 C 17,2 C 72 % 1020,5 hPa 0,0 l/m 14,6 km/h (3 Bft) O 88 2 min 0,000 mm 1,0 UV-I 356 W/m 12,0 C 13,9 C 22,5 km/h (4 Bft) 95,74 %
19.10.2018 14:46 17,1 C 12,2 C 17,2 C 68 % 1020,6 hPa 0,0 l/m 16,1 km/h (3 Bft) O 79 2 min 0,000 mm 1,0 UV-I 357 W/m 11,1 C 13,4 C 19,3 km/h (3 Bft) 97,87 %
19.10.2018 14:48 17,1 C 12,2 C 17,2 C 69 % 1020,5 hPa 0,0 l/m 11,4 km/h (2 Bft) O-SO 109 2 min 0,000 mm 1,0 UV-I 359 W/m 11,4 C 14,9 C 16,1 km/h (3 Bft) 97,87 %
19.10.2018 14:50 17,2 C 12,2 C 17,2 C 69 % 1020,5 hPa 0,0 l/m 8,3 km/h (2 Bft) O-NO 72 2 min 0,000 mm 1,0 UV-I 352 W/m 11,5 C 16,3 C 14,5 km/h (3 Bft) 97,87 %
19.10.2018 14:52 17,3 C 12,2 C 17,2 C 70 % 1020,5 hPa 0,0 l/m 12,4 km/h (3 Bft) O-NO 69 2 min 0,000 mm 1,0 UV-I 351 W/m 11,8 C 14,8 C 17,7 km/h (3 Bft) 97,87 %
19.10.2018 14:54 17,3 C 12,2 C 17,2 C 69 % 1020,5 hPa 0,0 l/m 13,2 km/h (3 Bft) O-SO 111 2 min 0,000 mm 1,0 UV-I 344 W/m 11,6 C 14,5 C 16,1 km/h (3 Bft) 95,74 %
19.10.2018 14:56 17,3 C 12,2 C 17,2 C 68 % 1020,5 hPa 0,0 l/m 16,0 km/h (3 Bft) O 85 2 min 0,000 mm 0,9 UV-I 341 W/m 11,3 C 13,7 C 22,5 km/h (4 Bft) 97,87 %
19.10.2018 14:58 17,2 C 12,2 C 17,2 C 67 % 1020,5 hPa 0,0 l/m 15,5 km/h (3 Bft) O 93 2 min 0,000 mm 0,9 UV-I 341 W/m 11,0 C 13,7 C 17,7 km/h (3 Bft) 96,00 %
19.10.2018 15:00 17,2 C 12,2 C 17,2 C 68 % 1020,5 hPa 0,0 l/m 13,1 km/h (3 Bft) O 87 2 min 0,228 mm 0,9 UV-I 337 W/m 11,2 C 14,4 C 19,3 km/h (3 Bft) 95,12 %
19.10.2018 15:02 17,2 C 12,2 C 17,2 C 67 % 1020,5 hPa 0,0 l/m 13,7 km/h (3 Bft) O-NO 69 2 min 0,000 mm 0,9 UV-I 335 W/m 11,0 C 14,2 C 19,3 km/h (3 Bft) 93,62 %
19.10.2018 15:04 17,2 C 12,2 C 17,2 C 69 % 1020,5 hPa 0,0 l/m 12,7 km/h (3 Bft) O-NO 57 2 min 0,000 mm 0,9 UV-I 334 W/m 11,5 C 14,6 C 16,1 km/h (3 Bft) 93,62 %
19.10.2018 15:06 17,2 C 12,2 C 17,2 C 68 % 1020,5 hPa 0,0 l/m 10,4 km/h (2 Bft) O 89 2 min 0,000 mm 0,9 UV-I 328 W/m 11,2 C 15,4 C 16,1 km/h (3 Bft) 94,00 %
19.10.2018 15:08 17,2 C 12,2 C 17,2 C 67 % 1020,5 hPa 0,0 l/m 13,2 km/h (3 Bft) O-NO 61 2 min 0,000 mm 0,9 UV-I 317 W/m 11,0 C 14,4 C 17,7 km/h (3 Bft) 97,44 %
19.10.2018 15:10 17,3 C 12,2 C 17,2 C 69 % 1020,5 hPa 0,0 l/m 13,7 km/h (3 Bft) NO 41 2 min 0,000 mm 0,8 UV-I 320 W/m 11,6 C 14,4 C 20,9 km/h (4 Bft) 96,00 %
19.10.2018 15:12 17,3 C 12,2 C 17,2 C 69 % 1020,5 hPa 0,0 l/m 12,5 km/h (3 Bft) O-NO 71 2 min 0,000 mm 0,8 UV-I 318 W/m 11,6 C 14,8 C 19,3 km/h (3 Bft) 95,74 %
19.10.2018 15:14 17,3 C 12,2 C 17,2 C 67 % 1020,5 hPa 0,0 l/m 11,7 km/h (2 Bft) O 90 2 min 0,000 mm 0,8 UV-I 312 W/m 11,1 C 15,0 C 16,1 km/h (3 Bft) 96,00 %
19.10.2018 15:16 17,3 C 12,2 C 16,7 C 66 % 1020,5 hPa 0,0 l/m 11,6 km/h (2 Bft) O 88 2 min 0,000 mm 0,8 UV-I 311 W/m 10,9 C 15,1 C 19,3 km/h (3 Bft) 93,62 %
19.10.2018 15:18 17,3 C 12,2 C 16,7 C 65 % 1020,5 hPa 0,0 l/m 13,4 km/h (3 Bft) NO 53 2 min 0,000 mm 0,8 UV-I 306 W/m 10,7 C 14,5 C 19,3 km/h (3 Bft) 93,62 %
19.10.2018 15:20 17,3 C 12,2 C 16,7 C 66 % 1020,4 hPa 0,0 l/m 12,6 km/h (3 Bft) NO 54 2 min 0,000 mm 0,8 UV-I 303 W/m 10,9 C 14,7 C 17,7 km/h (3 Bft) 98,00 %
19.10.2018 15:22 17,4 C 12,2 C 16,7 C 66 % 1020,4 hPa 0,0 l/m 9,0 km/h (2 Bft) NO 55 2 min 0,000 mm 0,8 UV-I 301 W/m 11,0 C 16,2 C 14,5 km/h (3 Bft) 93,62 %
19.10.2018 15:24 17,4 C 12,2 C 16,7 C 65 % 1020,4 hPa 0,0 l/m 12,1 km/h (2 Bft) O-NO 61 2 min 0,000 mm 0,7 UV-I 296 W/m 10,8 C 15,0 C 16,1 km/h (3 Bft) 97,37 %
19.10.2018 15:26 17,4 C 12,2 C 16,7 C 66 % 1020,4 hPa 0,0 l/m 11,9 km/h (2 Bft) O 92 2 min 0,000 mm 0,7 UV-I 293 W/m 11,0 C 15,1 C 16,1 km/h (3 Bft) 94,00 %
19.10.2018 15:28 17,4 C 12,2 C 16,7 C 65 % 1020,4 hPa 0,0 l/m 11,2 km/h (2 Bft) O-NO 58 2 min 0,000 mm 0,7 UV-I 290 W/m 10,8 C 15,3 C 16,1 km/h (3 Bft) 97,87 %
19.10.2018 15:30 17,4 C 12,2 C 16,7 C 64 % 1020,4 hPa 0,0 l/m 13,3 km/h (3 Bft) O 81 2 min 0,000 mm 0,7 UV-I 286 W/m 10,5 C 14,6 C 20,9 km/h (4 Bft) 97,87 %
19.10.2018 15:32 17,4 C 12,2 C 16,7 C 64 % 1020,4 hPa 0,0 l/m 14,4 km/h (3 Bft) O-NO 61 2 min 0,000 mm 0,7 UV-I 282 W/m 10,5 C 14,3 C 17,7 km/h (3 Bft) 95,74 %
19.10.2018 15:34 17,4 C 12,2 C 16,7 C 65 % 1020,4 hPa 0,0 l/m 10,4 km/h (2 Bft) O-NO 67 2 min 0,000 mm 0,7 UV-I 278 W/m 10,8 C 15,6 C 20,9 km/h (4 Bft) 94,00 %
19.10.2018 15:36 17,4 C 12,2 C 16,7 C 64 % 1020,4 hPa 0,0 l/m 8,5 km/h (2 Bft) O-NO 68 2 min 0,000 mm 0,7 UV-I 272 W/m 10,5 C 16,4 C 16,1 km/h (3 Bft) 97,87 %
19.10.2018 15:38 17,5 C 12,2 C 16,7 C 64 % 1020,5 hPa 0,0 l/m 11,3 km/h (2 Bft) O-NO 59 2 min 0,000 mm 0,6 UV-I 266 W/m 10,6 C 15,4 C 16,1 km/h (3 Bft) 100,00 %
19.10.2018 15:40 17,5 C 12,2 C 16,7 C 63 % 1020,5 hPa 0,0 l/m 9,8 km/h (2 Bft) O-NO 69 2 min 0,000 mm 0,6 UV-I 261 W/m 10,4 C 16,0 C 16,1 km/h (3 Bft) 100,00 %
19.10.2018 15:42 17,5 C 12,2 C 16,7 C 62 % 1020,4 hPa 0,0 l/m 10,3 km/h (2 Bft) NO 45 2 min 0,000 mm 0,6 UV-I 263 W/m 10,1 C 15,8 C 16,1 km/h (3 Bft) 97,87 %
19.10.2018 15:44 17,5 C 12,2 C 16,7 C 63 % 1020,5 hPa 0,0 l/m 13,7 km/h (3 Bft) O-NO 77 2 min 0,000 mm 0,6 UV-I 258 W/m 10,4 C 14,6 C 19,3 km/h (3 Bft) 94,74 %
19.10.2018 15:46 17,5 C 12,2 C 16,7 C 63 % 1020,5 hPa 0,0 l/m 11,3 km/h (2 Bft) O 86 2 min 0,000 mm 0,6 UV-I 253 W/m 10,4 C 15,4 C 16,1 km/h (3 Bft) 95,74 %
19.10.2018 15:48 17,5 C 12,2 C 16,7 C 62 % 1020,5 hPa 0,0 l/m 9,6 km/h (2 Bft) NO 53 2 min 0,000 mm 0,6 UV-I 249 W/m 10,1 C 16,0 C 16,1 km/h (3 Bft) 95,74 %
19.10.2018 15:50 17,6 C 12,2 C 16,7 C 64 % 1020,5 hPa 0,0 l/m 9,3 km/h (2 Bft) O-NO 73 2 min 0,000 mm 0,6 UV-I 246 W/m 10,7 C 16,3 C 14,5 km/h (3 Bft) 97,87 %
19.10.2018 15:52 17,6 C 12,2 C 16,7 C 63 % 1020,5 hPa 0,0 l/m 7,0 km/h (2 Bft) N-NO 26 2 min 0,000 mm 0,5 UV-I 244 W/m 10,5 C 17,3 C 12,9 km/h (3 Bft) 97,87 %
19.10.2018 15:54 17,6 C 12,2 C 16,7 C 65 % 1020,5 hPa 0,0 l/m 10,0 km/h (2 Bft) O 82 2 min 0,000 mm 0,5 UV-I 240 W/m 10,9 C 16,0 C 14,5 km/h (3 Bft) 98,11 %
19.10.2018 15:56 17,5 C 12,2 C 16,7 C 63 % 1020,5 hPa 0,0 l/m 12,7 km/h (3 Bft) O-NO 58 2 min 0,000 mm 0,5 UV-I 235 W/m 10,4 C 14,9 C 16,1 km/h (3 Bft) 97,37 %
19.10.2018 15:59 17,4 C 12,2 C 16,7 C 65 % 1020,5 hPa 0,0 l/m 12,5 km/h (3 Bft) O-NO 65 3 min 0,000 mm 0,5 UV-I 229 W/m 10,8 C 14,9 C 19,3 km/h (3 Bft) 95,00 %
19.10.2018 16:00 17,4 C 12,2 C 16,7 C 65 % 1020,4 hPa 0,0 l/m 15,1 km/h (3 Bft) NO 51 1 min 0,000 mm 0,5 UV-I 223 W/m 10,8 C 14,1 C 19,3 km/h (3 Bft) 100,00 %
19.10.2018 16:02 17,3 C 12,2 C 16,7 C 65 % 1020,4 hPa 0,0 l/m 14,0 km/h (3 Bft) O-NO 69 2 min 0,204 mm 0,5 UV-I 221 W/m 10,7 C 14,3 C 17,7 km/h (3 Bft) 93,62 %
19.10.2018 16:04 17,2 C 12,2 C 16,1 C 64 % 1020,5 hPa 0,0 l/m 9,0 km/h (2 Bft) N-NO 26 2 min 0,000 mm 0,5 UV-I 216 W/m 10,3 C 16,0 C 14,5 km/h (3 Bft) 97,87 %
19.10.2018 16:06 17,2 C 12,2 C 16,1 C 65 % 1020,4 hPa 0,0 l/m 11,5 km/h (2 Bft) O-NO 62 2 min 0,000 mm 0,3 UV-I 212 W/m 10,6 C 15,0 C 17,7 km/h (3 Bft) 97,87 %
19.10.2018 16:08 17,1 C 12,2 C 16,1 C 66 % 1020,5 hPa 0,0 l/m 13,2 km/h (3 Bft) O-NO 62 2 min 0,000 mm 0,0 UV-I 207 W/m 10,7 C 14,3 C 17,7 km/h (3 Bft) 98,00 %
19.10.2018 16:10 17,1 C 12,2 C 16,1 C 66 % 1020,4 hPa 0,0 l/m 10,3 km/h (2 Bft) NO 46 2 min 0,000 mm 0,0 UV-I 203 W/m 10,7 C 15,3 C 14,5 km/h (3 Bft) 97,87 %
19.10.2018 16:12 17,1 C 12,2 C 16,1 C 66 % 1020,4 hPa 0,0 l/m 12,2 km/h (2 Bft) NO 35 2 min 0,000 mm 0,0 UV-I 198 W/m 10,7 C 14,6 C 16,1 km/h (3 Bft) 97,92 %
19.10.2018 16:14 17,1 C 12,2 C 16,1 C 65 % 1020,4 hPa 0,0 l/m 10,6 km/h (2 Bft) NO 46 2 min 0,000 mm 0,0 UV-I 196 W/m 10,5 C 15,2 C 16,1 km/h (3 Bft) 98,00 %
19.10.2018 16:16 17,2 C 12,2 C 16,1 C 65 % 1020,4 hPa 0,0 l/m 9,6 km/h (2 Bft) O-NO 57 2 min 0,000 mm 0,0 UV-I 191 W/m 10,6 C 15,7 C 14,5 km/h (3 Bft) 100,00 %
19.10.2018 16:18 17,2 C 12,2 C 16,1 C 67 % 1020,4 hPa 0,0 l/m 9,9 km/h (2 Bft) NO 40 2 min 0,000 mm 0,0 UV-I 185 W/m 11,0 C 15,6 C 16,1 km/h (3 Bft) 100,00 %
19.10.2018 16:20 17,1 C 12,2 C 16,1 C 68 % 1020,4 hPa 0,0 l/m 8,5 km/h (2 Bft) NO 34 2 min 0,000 mm 0,0 UV-I 183 W/m 11,1 C 16,1 C 14,5 km/h (3 Bft) 97,87 %
19.10.2018 16:22 17,1 C 12,2 C 16,1 C 68 % 1020,4 hPa 0,0 l/m 10,6 km/h (2 Bft) O-NO 62 2 min 0,000 mm 0,0 UV-I 179 W/m 11,1 C 15,2 C 14,5 km/h (3 Bft) 97,87 %
19.10.2018 16:24 16,9 C 12,2 C 16,1 C 68 % 1020,4 hPa 0,0 l/m 12,5 km/h (3 Bft) NO 50 2 min 0,000 mm 0,0 UV-I 174 W/m 11,0 C 14,3 C 20,9 km/h (4 Bft) 100,00 %
19.10.2018 16:26 16,8 C 12,2 C 15,6 C 67 % 1020,4 hPa 0,0 l/m 11,0 km/h (2 Bft) O-NO 68 2 min 0,000 mm 0,0 UV-I 169 W/m 10,6 C 14,7 C 14,5 km/h (3 Bft) 100,00 %
19.10.2018 16:28 16,9 C 12,2 C 15,6 C 67 % 1020,4 hPa 0,0 l/m 11,2 km/h (2 Bft) O-NO 65 2 min 0,000 mm 0,0 UV-I 164 W/m 10,7 C 14,8 C 17,7 km/h (3 Bft) 95,74 %
19.10.2018 16:30 16,9 C 12,2 C 15,6 C 67 % 1020,4 hPa 0,0 l/m 9,8 km/h (2 Bft) NO 51 2 min 0,000 mm 0,0 UV-I 162 W/m 10,7 C 15,3 C 17,7 km/h (3 Bft) 95,74 %
19.10.2018 16:32 16,8 C 12,2 C 15,6 C 68 % 1020,4 hPa 0,0 l/m 10,4 km/h (2 Bft) NO 41 2 min 0,000 mm 0,0 UV-I 158 W/m 10,9 C 14,9 C 16,1 km/h (3 Bft) 96,00 %
19.10.2018 16:34 16,7 C 12,2 C 15,6 C 69 % 1020,4 hPa 0,0 l/m 8,7 km/h (2 Bft) NO 49 2 min 0,000 mm 0,0 UV-I 155 W/m 11,0 C 15,6 C 14,5 km/h (3 Bft) 97,87 %
19.10.2018 16:36 16,7 C 12,2 C 15,6 C 69 % 1020,4 hPa 0,0 l/m 10,5 km/h (2 Bft) N-NO 22 2 min 0,000 mm 0,0 UV-I 150 W/m 11,0 C 14,8 C 17,7 km/h (3 Bft) 95,74 %
19.10.2018 16:38 16,7 C 12,2 C 15,6 C 69 % 1020,4 hPa 0,0 l/m 12,1 km/h (2 Bft) NO 38 2 min 0,000 mm 0,0 UV-I 146 W/m 11,0 C 14,2 C 19,3 km/h (3 Bft) 98,00 %
19.10.2018 16:40 16,6 C 12,2 C 15,6 C 69 % 1020,4 hPa 0,0 l/m 9,9 km/h (2 Bft) NO 51 2 min 0,000 mm 0,0 UV-I 142 W/m 10,9 C 14,9 C 16,1 km/h (3 Bft) 97,87 %
19.10.2018 16:42 16,6 C 12,2 C 15,6 C 69 % 1020,4 hPa 0,0 l/m 5,7 km/h (1 Bft) NO 55 2 min 0,000 mm 0,0 UV-I 137 W/m 10,9 C 16,6 C 8,0 km/h (2 Bft) 94,74 %
19.10.2018 16:44 16,6 C 12,2 C 15,6 C 69 % 1020,4 hPa 0,0 l/m 8,0 km/h (2 Bft) NO 49 2 min 0,000 mm 0,0 UV-I 134 W/m 10,9 C 15,8 C 11,3 km/h (2 Bft) 95,74 %
19.10.2018 16:46 16,6 C 12,2 C 15,0 C 69 % 1020,4 hPa 0,0 l/m 7,8 km/h (2 Bft) O 96 2 min 0,000 mm 0,0 UV-I 129 W/m 10,9 C 15,9 C 9,7 km/h (2 Bft) 93,75 %
19.10.2018 16:48 16,6 C 12,2 C 15,0 C 69 % 1020,4 hPa 0,0 l/m 7,8 km/h (2 Bft) O-NO 61 2 min 0,000 mm 0,0 UV-I 125 W/m 10,9 C 15,9 C 14,5 km/h (3 Bft) 97,87 %
19.10.2018 16:50 16,6 C 12,2 C 15,0 C 68 % 1020,4 hPa 0,0 l/m 6,1 km/h (2 Bft) NO 40 2 min 0,000 mm 0,0 UV-I 121 W/m 10,7 C 16,6 C 8,0 km/h (2 Bft) 93,62 %
19.10.2018 16:52 16,7 C 12,2 C 15,0 C 68 % 1020,4 hPa 0,0 l/m 5,8 km/h (2 Bft) NO 55 2 min 0,000 mm 0,0 UV-I 118 W/m 10,8 C 16,7 C 8,0 km/h (2 Bft) 100,00 %
19.10.2018 16:54 16,7 C 12,2 C 15,0 C 68 % 1020,4 hPa 0,0 l/m 7,0 km/h (2 Bft) O-NO 77 2 min 0,000 mm 0,0 UV-I 115 W/m 10,8 C 16,4 C 9,7 km/h (2 Bft) 97,87 %
19.10.2018 16:56 16,6 C 12,2 C 15,0 C 69 % 1020,4 hPa 0,0 l/m 5,8 km/h (2 Bft) N-NO 33 2 min 0,000 mm 0,0 UV-I 111 W/m 10,9 C 16,6 C 11,3 km/h (2 Bft) 100,00 %
19.10.2018 16:58 16,5 C 12,2 C 15,0 C 70 % 1020,4 hPa 0,0 l/m 9,6 km/h (2 Bft) O-NO 64 2 min 0,000 mm 0,0 UV-I 106 W/m 11,0 C 14,9 C 14,5 km/h (3 Bft) 100,00 %
19.10.2018 17:00 16,4 C 12,2 C 15,0 C 70 % 1020,4 hPa 0,0 l/m 9,0 km/h (2 Bft) NO 44 2 min 0,000 mm 0,0 UV-I 102 W/m 10,9 C 15,1 C 16,1 km/h (3 Bft) 100,00 %
19.10.2018 17:02 16,3 C 12,2 C 15,0 C 70 % 1020,5 hPa 0,0 l/m 8,4 km/h (2 Bft) NO 35 2 min 0,127 mm 0,0 UV-I 98 W/m 10,8 C 15,3 C 12,9 km/h (3 Bft) 100,00 %
19.10.2018 17:04 16,3 C 12,2 C 14,4 C 70 % 1020,5 hPa 0,0 l/m 8,0 km/h (2 Bft) NO 40 2 min 0,000 mm 0,0 UV-I 93 W/m 10,8 C 15,5 C 11,3 km/h (2 Bft) 97,87 %
19.10.2018 17:06 16,4 C 12,2 C 14,4 C 69 % 1020,5 hPa 0,0 l/m 6,5 km/h (2 Bft) O-NO 76 2 min 0,000 mm 0,0 UV-I 88 W/m 10,7 C 16,4 C 14,5 km/h (3 Bft) 100,00 %
19.10.2018 17:08 16,3 C 12,2 C 14,4 C 69 % 1020,5 hPa 0,0 l/m 8,3 km/h (2 Bft) NO 47 2 min 0,000 mm 0,0 UV-I 85 W/m 10,6 C 15,3 C 14,5 km/h (3 Bft) 100,00 %
19.10.2018 17:10 16,3 C 12,2 C 14,4 C 70 % 1020,5 hPa 0,0 l/m 6,9 km/h (2 Bft) O-NO 71 2 min 0,000 mm 0,0 UV-I 82 W/m 10,8 C 16,0 C 9,7 km/h (2 Bft) 97,56 %
19.10.2018 17:12 16,3 C 12,2 C 14,4 C 69 % 1020,5 hPa 0,0 l/m 9,1 km/h (2 Bft) O 89 2 min 0,000 mm 0,0 UV-I 78 W/m 10,6 C 14,9 C 14,5 km/h (3 Bft) 98,00 %
19.10.2018 17:14 16,3 C 12,2 C 14,4 C 69 % 1020,5 hPa 0,0 l/m 7,5 km/h (2 Bft) O-NO 76 2 min 0,000 mm 0,0 UV-I 75 W/m 10,6 C 15,7 C 11,3 km/h (2 Bft) 100,00 %
19.10.2018 17:16 16,3 C 12,2 C 14,4 C 69 % 1020,5 hPa 0,0 l/m 8,3 km/h (2 Bft) O-NO 57 2 min 0,000 mm 0,0 UV-I 71 W/m 10,6 C 15,3 C 11,3 km/h (2 Bft) 100,00 %
19.10.2018 17:18 16,2 C 12,2 C 14,4 C 70 % 1020,5 hPa 0,0 l/m 7,4 km/h (2 Bft) O-NO 69 2 min 0,000 mm 0,0 UV-I 69 W/m 10,7 C 15,7 C 11,3 km/h (2 Bft) 100,00 %
19.10.2018 17:20 16,2 C 12,2 C 14,4 C 70 % 1020,5 hPa 0,0 l/m 5,8 km/h (2 Bft) O-NO 65 2 min 0,000 mm 0,0 UV-I 65 W/m 10,7 C 16,2 C 8,0 km/h (2 Bft) 100,00 %
19.10.2018 17:22 16,1 C 12,2 C 13,9 C 71 % 1020,6 hPa 0,0 l/m 5,6 km/h (1 Bft) O-NO 76 2 min 0,000 mm 0,0 UV-I 62 W/m 10,8 C 16,1 C 8,0 km/h (2 Bft) 100,00 %
19.10.2018 17:24 16,0 C 12,2 C 13,9 C 71 % 1020,6 hPa 0,0 l/m 6,3 km/h (2 Bft) O 83 0 min 0,000 mm 0,0 UV-I 58 W/m 10,7 C 16,0 C 11,3 km/h (2 Bft) 98,67 %
19.10.2018 17:26 16,0 C 12,2 C 13,9 C 71 % 1020,6 hPa 0,0 l/m 5,7 km/h (1 Bft) O-NO 78 0 min 0,000 mm 0,0 UV-I 54 W/m 10,7 C 16,0 C 6,4 km/h (2 Bft) 100,00 %
19.10.2018 17:28 15,9 C 12,2 C 13,9 C 71 % 1020,6 hPa 0,0 l/m 4,5 km/h (1 Bft) O-NO 74 0 min 0,000 mm 0,0 UV-I 52 W/m 10,6 C 15,9 C 6,4 km/h (2 Bft) 100,00 %
19.10.2018 17:30 15,8 C 12,2 C 13,3 C 72 % 1020,6 hPa 0,0 l/m 5,9 km/h (2 Bft) O 83 0 min 0,000 mm 0,0 UV-I 49 W/m 10,8 C 15,8 C 9,7 km/h (2 Bft) 98,21 %
19.10.2018 17:32 15,7 C 12,2 C 13,3 C 72 % 1020,7 hPa 0,0 l/m 4,3 km/h (1 Bft) O 88 0 min 0,000 mm 0,0 UV-I 47 W/m 10,7 C 15,7 C 6,4 km/h (2 Bft) 100,00 %
19.10.2018 17:34 15,7 C 12,2 C 13,3 C 72 % 1020,6 hPa 0,0 l/m 5,1 km/h (1 Bft) O-NO 60 0 min 0,000 mm 0,0 UV-I 43 W/m 10,7 C 15,7 C 8,0 km/h (2 Bft) 97,37 %
19.10.2018 17:36 15,7 C 12,2 C 13,3 C 72 % 1020,6 hPa 0,0 l/m 5,3 km/h (1 Bft) O 86 0 min 0,000 mm 0,0 UV-I 40 W/m 10,7 C 15,7 C 8,0 km/h (2 Bft) 95,74 %
19.10.2018 17:38 15,7 C 12,2 C 12,8 C 72 % 1020,6 hPa 0,0 l/m 5,2 km/h (1 Bft) O 82 2 min 0,000 mm 0,0 UV-I 38 W/m 10,7 C 15,7 C 8,0 km/h (2 Bft) 100,00 %
19.10.2018 17:40 15,6 C 12,2 C 12,8 C 72 % 1020,6 hPa 0,0 l/m 5,2 km/h (1 Bft) O-NO 63 2 min 0,000 mm 0,0 UV-I 35 W/m 10,6 C 15,6 C 8,0 km/h (2 Bft) 97,87 %
19.10.2018 17:42 15,6 C 12,2 C 12,2 C 73 % 1020,6 hPa 0,0 l/m 5,6 km/h (1 Bft) O-NO 69 2 min 0,000 mm 0,0 UV-I 33 W/m 10,8 C 15,6 C 6,4 km/h (2 Bft) 98,00 %
19.10.2018 17:44 15,4 C 12,2 C 12,2 C 73 % 1020,6 hPa 0,0 l/m 5,7 km/h (1 Bft) O-NO 78 2 min 0,000 mm 0,0 UV-I 30 W/m 10,6 C 15,4 C 8,0 km/h (2 Bft) 96,00 %
19.10.2018 17:46 15,3 C 12,2 C 12,2 C 73 % 1020,6 hPa 0,0 l/m 4,9 km/h (1 Bft) O 81 0 min 0,000 mm 0,0 UV-I 25 W/m 10,5 C 15,3 C 9,7 km/h (2 Bft) 97,87 %
19.10.2018 17:49 15,2 C 12,2 C 12,2 C 74 % 1020,6 hPa 0,0 l/m 6,4 km/h (2 Bft) O 83 0 min 0,000 mm 0,0 UV-I 21 W/m 10,6 C 15,2 C 8,0 km/h (2 Bft) 97,40 %
19.10.2018 17:50 15,2 C 12,2 C 12,2 C 74 % 1020,6 hPa 0,0 l/m 6,4 km/h (2 Bft) O 84 0 min 0,000 mm 0,0 UV-I 18 W/m 10,6 C 15,2 C 8,0 km/h (2 Bft) 100,00 %
19.10.2018 17:52 15,2 C 12,2 C 12,2 C 74 % 1020,6 hPa 0,0 l/m 6,6 km/h (2 Bft) O-NO 75 0 min 0,000 mm 0,0 UV-I 16 W/m 10,6 C 15,1 C 8,0 km/h (2 Bft) 95,83 %
19.10.2018 17:54 15,2 C 12,2 C 12,2 C 74 % 1020,6 hPa 0,0 l/m 6,4 km/h (2 Bft) O 81 2 min 0,000 mm 0,0 UV-I 16 W/m 10,6 C 15,2 C 8,0 km/h (2 Bft) 95,74 %
19.10.2018 17:56 15,1 C 12,2 C 12,2 C 74 % 1020,7 hPa 0,0 l/m 5,4 km/h (1 Bft) O-NO 65 2 min 0,000 mm 0,0 UV-I 15 W/m 10,5 C 15,1 C 8,0 km/h (2 Bft) 93,62 %
19.10.2018 17:58 15,0 C 12,2 C 12,2 C 74 % 1020,6 hPa 0,0 l/m 5,1 km/h (1 Bft) O-NO 63 0 min 0,000 mm 0,0 UV-I 13 W/m 10,4 C 15,0 C 6,4 km/h (2 Bft) 95,74 %
19.10.2018 18:00 14,8 C 12,2 C 12,2 C 75 % 1020,6 hPa 0,0 l/m 4,8 km/h (1 Bft) O-NO 76 0 min 0,000 mm 0,0 UV-I 11 W/m 10,4 C 14,8 C 6,4 km/h (2 Bft) 93,62 %
19.10.2018 18:02 14,7 C 12,2 C 11,7 C 76 % 1020,7 hPa 0,0 l/m 6,2 km/h (2 Bft) O-NO 65 0 min 0,050 mm 0,0 UV-I 9 W/m 10,5 C 14,7 C 11,3 km/h (2 Bft) 93,62 %
19.10.2018 18:04 14,6 C 12,2 C 11,7 C 76 % 1020,6 hPa 0,0 l/m 5,2 km/h (1 Bft) O-NO 70 0 min 0,000 mm 0,0 UV-I 9 W/m 10,4 C 14,6 C 8,0 km/h (2 Bft) 95,74 %
19.10.2018 18:06 14,6 C 12,2 C 11,7 C 76 % 1020,7 hPa 0,0 l/m 5,5 km/h (1 Bft) O-NO 57 0 min 0,000 mm 0,0 UV-I 8 W/m 10,4 C 14,6 C 8,0 km/h (2 Bft) 95,74 %
19.10.2018 18:08 14,3 C 12,2 C 11,7 C 76 % 1020,7 hPa 0,0 l/m 6,3 km/h (2 Bft) O-NO 61 0 min 0,000 mm 0,0 UV-I 7 W/m 10,1 C 14,3 C 8,0 km/h (2 Bft) 95,74 %
19.10.2018 18:10 14,2 C 12,2 C 11,7 C 77 % 1020,8 hPa 0,0 l/m 6,7 km/h (2 Bft) NO 56 0 min 0,000 mm 0,0 UV-I 7 W/m 10,2 C 14,0 C 9,7 km/h (2 Bft) 95,74 %
19.10.2018 18:12 14,1 C 12,2 C 11,1 C 77 % 1020,8 hPa 0,0 l/m 6,1 km/h (2 Bft) NO 53 0 min 0,000 mm 0,0 UV-I 7 W/m 10,1 C 14,1 C 8,0 km/h (2 Bft) 95,74 %
19.10.2018 18:14 13,9 C 12,2 C 11,1 C 78 % 1020,8 hPa 0,0 l/m 5,9 km/h (2 Bft) O-NO 62 0 min 0,000 mm 0,0 UV-I 5 W/m 10,1 C 13,9 C 8,0 km/h (2 Bft) 93,62 %
19.10.2018 18:16 13,8 C 12,2 C 10,6 C 78 % 1020,8 hPa 0,0 l/m 5,5 km/h (1 Bft) O 88 0 min 0,000 mm 0,0 UV-I 5 W/m 10,0 C 13,8 C 8,0 km/h (2 Bft) 97,83 %
19.10.2018 18:18 13,8 C 12,2 C 10,6 C 79 % 1020,9 hPa 0,0 l/m 5,2 km/h (1 Bft) O-NO 59 0 min 0,000 mm 0,0 UV-I 5 W/m 10,2 C 13,8 C 8,0 km/h (2 Bft) 100,00 %
19.10.2018 18:20 13,8 C 12,2 C 10,6 C 79 % 1020,9 hPa 0,0 l/m 5,9 km/h (2 Bft) O-NO 70 0 min 0,000 mm 0,0 UV-I 5 W/m 10,2 C 13,8 C 9,7 km/h (2 Bft) 97,87 %
19.10.2018 18:22 13,9 C 12,2 C 10,6 C 79 % 1020,9 hPa 0,0 l/m 6,8 km/h (2 Bft) O 83 0 min 0,000 mm 0,0 UV-I 0 W/m 10,3 C 13,7 C 11,3 km/h (2 Bft) 98,00 %
19.10.2018 18:24 13,9 C 12,2 C 10,6 C 79 % 1020,9 hPa 0,0 l/m 7,2 km/h (2 Bft) O-NO 59 0 min 0,000 mm 0,0 UV-I 0 W/m 10,3 C 13,4 C 11,3 km/h (2 Bft) 94,74 %
19.10.2018 18:26 13,9 C 12,2 C 11,1 C 79 % 1020,9 hPa 0,0 l/m 8,9 km/h (2 Bft) O 93 0 min 0,000 mm 0,0 UV-I 0 W/m 10,3 C 12,5 C 12,9 km/h (3 Bft) 97,87 %
19.10.2018 18:29 13,8 C 12,2 C 11,1 C 79 % 1020,9 hPa 0,0 l/m 8,0 km/h (2 Bft) O 79 0 min 0,000 mm 0,0 UV-I 0 W/m 10,2 C 12,8 C 11,3 km/h (2 Bft) 98,65 %
19.10.2018 18:30 13,8 C 12,2 C 11,1 C 79 % 1020,9 hPa 0,0 l/m 7,9 km/h (2 Bft) O-NO 72 0 min 0,000 mm 0,0 UV-I 0 W/m 10,2 C 12,9 C 12,9 km/h (3 Bft) 100,00 %
19.10.2018 18:32 13,8 C 12,2 C 11,1 C 79 % 1021,0 hPa 0,0 l/m 7,2 km/h (2 Bft) O-NO 73 0 min 0,000 mm 0,0 UV-I 0 W/m 10,2 C 13,3 C 12,9 km/h (3 Bft) 100,00 %
19.10.2018 18:34 13,7 C 12,2 C 11,1 C 79 % 1021,0 hPa 0,0 l/m 6,4 km/h (2 Bft) NO 55 0 min 0,000 mm 0,0 UV-I 0 W/m 10,1 C 13,7 C 9,7 km/h (2 Bft) 97,92 %
19.10.2018 18:36 13,6 C 12,2 C 11,1 C 80 % 1021,0 hPa 0,0 l/m 7,5 km/h (2 Bft) O-NO 69 0 min 0,000 mm 0,0 UV-I 0 W/m 10,2 C 12,9 C 11,3 km/h (2 Bft) 97,87 %
19.10.2018 18:39 13,4 C 12,2 C 11,1 C 80 % 1021,0 hPa 0,0 l/m 7,3 km/h (2 Bft) O-NO 78 0 min 0,000 mm 0,0 UV-I 0 W/m 10,0 C 12,8 C 11,3 km/h (2 Bft) 97,26 %
19.10.2018 18:40 13,4 C 12,2 C 11,1 C 80 % 1021,0 hPa 0,0 l/m 6,6 km/h (2 Bft) O-NO 61 0 min 0,000 mm 0,0 UV-I 0 W/m 10,0 C 13,3 C 8,0 km/h (2 Bft) 100,00 %
19.10.2018 18:42 13,4 C 12,2 C 11,1 C 80 % 1021,0 hPa 0,0 l/m 6,5 km/h (2 Bft) O 89 0 min 0,000 mm 0,0 UV-I 0 W/m 10,0 C 13,4 C 9,7 km/h (2 Bft) 97,87 %
19.10.2018 18:44 13,4 C 12,2 C 11,1 C 81 % 1021,1 hPa 0,0 l/m 6,6 km/h (2 Bft) O-NO 70 0 min 0,000 mm 0,0 UV-I 0 W/m 10,2 C 13,3 C 11,3 km/h (2 Bft) 95,74 %
19.10.2018 18:46 13,3 C 12,2 C 10,6 C 81 % 1021,1 hPa 0,0 l/m 7,5 km/h (2 Bft) O-NO 69 0 min 0,000 mm 0,0 UV-I 0 W/m 10,1 C 12,6 C 12,9 km/h (3 Bft) 97,37 %
19.10.2018 18:49 13,3 C 12,2 C 10,6 C 81 % 1021,1 hPa 0,0 l/m 6,7 km/h (2 Bft) O-NO 64 0 min 0,000 mm 0,0 UV-I 0 W/m 10,1 C 13,1 C 14,5 km/h (3 Bft) 98,78 %
19.10.2018 18:50 13,3 C 12,2 C 10,6 C 81 % 1021,1 hPa 0,0 l/m 7,9 km/h (2 Bft) O 80 0 min 0,000 mm 0,0 UV-I 0 W/m 10,1 C 12,4 C 12,9 km/h (3 Bft) 100,00 %
19.10.2018 18:52 13,3 C 12,2 C 11,1 C 81 % 1021,1 hPa 0,0 l/m 10,0 km/h (2 Bft) O-NO 78 0 min 0,000 mm 0,0 UV-I 0 W/m 10,1 C 11,2 C 14,5 km/h (3 Bft) 96,23 %
19.10.2018 18:54 13,2 C 12,2 C 11,1 C 81 % 1021,2 hPa 0,0 l/m 6,8 km/h (2 Bft) O 88 0 min 0,000 mm 0,0 UV-I 0 W/m 10,0 C 13,0 C 12,9 km/h (3 Bft) 98,00 %
19.10.2018 18:56 13,2 C 12,2 C 11,1 C 81 % 1021,2 hPa 0,0 l/m 7,0 km/h (2 Bft) O 90 0 min 0,000 mm 0,0 UV-I 0 W/m 10,0 C 12,8 C 12,9 km/h (3 Bft) 97,87 %
19.10.2018 18:59 13,2 C 12,2 C 11,1 C 80 % 1021,2 hPa 0,0 l/m 9,1 km/h (2 Bft) O-NO 70 0 min 0,000 mm 0,0 UV-I 0 W/m 9,8 C 11,6 C 12,9 km/h (3 Bft) 97,18 %
19.10.2018 19:00 13,2 C 12,2 C 11,1 C 80 % 1021,2 hPa 0,0 l/m 7,5 km/h (2 Bft) O 84 0 min 0,000 mm 0,0 UV-I 0 W/m 9,8 C 12,5 C 12,9 km/h (3 Bft) 95,65 %
19.10.2018 19:02 13,2 C 12,2 C 11,1 C 81 % 1021,3 hPa 0,0 l/m 9,0 km/h (2 Bft) O-NO 74 0 min 0,026 mm 0,0 UV-I 0 W/m 10,0 C 11,6 C 14,5 km/h (3 Bft) 100,00 %
19.10.2018 19:04 13,2 C 12,2 C 11,1 C 80 % 1021,3 hPa 0,0 l/m 7,5 km/h (2 Bft) O-NO 66 0 min 0,000 mm 0,0 UV-I 0 W/m 9,8 C 12,5 C 12,9 km/h (3 Bft) 96,00 %
19.10.2018 19:06 13,1 C 12,2 C 11,1 C 80 % 1021,4 hPa 0,0 l/m 5,4 km/h (1 Bft) O-NO 77 0 min 0,000 mm 0,0 UV-I 0 W/m 9,7 C 13,1 C 11,3 km/h (2 Bft) 97,87 %
19.10.2018 19:09 12,9 C 12,2 C 10,6 C 81 % 1021,3 hPa 0,0 l/m 4,8 km/h (1 Bft) O-NO 66 0 min 0,000 mm 0,0 UV-I 0 W/m 9,7 C 12,9 C 8,0 km/h (2 Bft) 97,18 %
19.10.2018 19:10 12,8 C 12,2 C 10,6 C 81 % 1021,3 hPa 0,0 l/m 5,2 km/h (1 Bft) O-NO 60 0 min 0,000 mm 0,0 UV-I 0 W/m 9,6 C 12,8 C 6,4 km/h (2 Bft) 95,65 %
19.10.2018 19:12 12,6 C 12,2 C 10,0 C 81 % 1021,3 hPa 0,0 l/m 4,9 km/h (1 Bft) NO 38 0 min 0,000 mm 0,0 UV-I 0 W/m 9,4 C 12,6 C 6,4 km/h (2 Bft) 97,92 %
19.10.2018 19:14 12,4 C 12,2 C 10,0 C 82 % 1021,4 hPa 0,0 l/m 5,5 km/h (1 Bft) NO 39 0 min 0,000 mm 0,0 UV-I 0 W/m 9,4 C 12,4 C 8,0 km/h (2 Bft) 93,62 %
19.10.2018 19:16 12,3 C 12,2 C 10,0 C 83 % 1021,3 hPa 0,0 l/m 5,0 km/h (1 Bft) O-NO 61 0 min 0,000 mm 0,0 UV-I 0 W/m 9,5 C 12,3 C 8,0 km/h (2 Bft) 95,74 %
19.10.2018 19:19 12,1 C 12,2 C 9,4 C 83 % 1021,4 hPa 0,0 l/m 6,3 km/h (2 Bft) NO 35 0 min 0,000 mm 0,0 UV-I 0 W/m 9,3 C 12,1 C 8,0 km/h (2 Bft) 95,71 %
19.10.2018 19:20 12,0 C 12,2 C 9,4 C 84 % 1021,4 hPa 0,0 l/m 5,9 km/h (2 Bft) O-NO 59 0 min 0,000 mm 0,0 UV-I 0 W/m 9,4 C 12,0 C 8,0 km/h (2 Bft) 95,83 %
19.10.2018 19:22 11,9 C 12,2 C 9,4 C 84 % 1021,4 hPa 0,0 l/m 3,6 km/h (1 Bft) NO 43 0 min 0,000 mm 0,0 UV-I 0 W/m 9,3 C 11,9 C 4,8 km/h (1 Bft) 93,62 %
19.10.2018 19:24 11,8 C 12,2 C 8,9 C 84 % 1021,4 hPa 0,0 l/m 4,6 km/h (1 Bft) NO 45 0 min 0,000 mm 0,0 UV-I 0 W/m 9,2 C 11,8 C 6,4 km/h (2 Bft) 96,00 %
19.10.2018 19:26 11,7 C 12,2 C 8,9 C 84 % 1021,5 hPa 0,0 l/m 4,5 km/h (1 Bft) O-NO 64 0 min 0,000 mm 0,0 UV-I 0 W/m 9,1 C 11,7 C 6,4 km/h (2 Bft) 95,74 %
19.10.2018 19:28 11,7 C 12,2 C 8,9 C 84 % 1021,5 hPa 0,0 l/m 4,4 km/h (1 Bft) O-NO 67 0 min 0,000 mm 0,0 UV-I 0 W/m 9,1 C 11,7 C 4,8 km/h (1 Bft) 96,00 %
19.10.2018 19:30 11,6 C 12,2 C 8,9 C 85 % 1021,5 hPa 0,0 l/m 5,1 km/h (1 Bft) O 82 0 min 0,000 mm 0,0 UV-I 0 W/m 9,2 C 11,6 C 6,4 km/h (2 Bft) 95,12 %
19.10.2018 19:32 11,7 C 12,2 C 8,9 C 86 % 1021,5 hPa 0,0 l/m 5,4 km/h (1 Bft) O-NO 64 0 min 0,000 mm 0,0 UV-I 0 W/m 9,4 C 11,7 C 9,7 km/h (2 Bft) 96,00 %
19.10.2018 19:34 11,9 C 12,2 C 8,9 C 85 % 1021,5 hPa 0,0 l/m 7,5 km/h (2 Bft) O 94 0 min 0,000 mm 0,0 UV-I 0 W/m 9,5 C 11,2 C 12,9 km/h (3 Bft) 95,74 %
19.10.2018 19:36 12,1 C 12,2 C 9,4 C 85 % 1021,5 hPa 0,0 l/m 7,0 km/h (2 Bft) O 86 0 min 0,000 mm 0,0 UV-I 0 W/m 9,7 C 11,7 C 11,3 km/h (2 Bft) 94,00 %
19.10.2018 19:38 12,2 C 12,2 C 9,4 C 84 % 1021,5 hPa 0,0 l/m 8,3 km/h (2 Bft) O-NO 78 0 min 0,000 mm 0,0 UV-I 0 W/m 9,6 C 11,0 C 11,3 km/h (2 Bft) 97,14 %
19.10.2018 19:40 12,2 C 12,2 C 9,4 C 84 % 1021,6 hPa 0,0 l/m 8,0 km/h (2 Bft) O-NO 68 0 min 0,000 mm 0,0 UV-I 0 W/m 9,6 C 11,2 C 12,9 km/h (3 Bft) 96,15 %
19.10.2018 19:42 12,3 C 12,2 C 10,0 C 84 % 1021,6 hPa 0,0 l/m 7,4 km/h (2 Bft) O-NO 73 0 min 0,000 mm 0,0 UV-I 0 W/m 9,7 C 11,6 C 11,3 km/h (2 Bft) 95,74 %
19.10.2018 19:44 12,3 C 12,2 C 10,0 C 83 % 1021,6 hPa 0,0 l/m 6,7 km/h (2 Bft) O-NO 67 0 min 0,000 mm 0,0 UV-I 0 W/m 9,5 C 12,1 C 11,3 km/h (2 Bft) 95,74 %
19.10.2018 19:46 12,2 C 12,2 C 10,0 C 83 % 1021,6 hPa 0,0 l/m 5,1 km/h (1 Bft) O 80 0 min 0,000 mm 0,0 UV-I 0 W/m 9,4 C 12,2 C 8,0 km/h (2 Bft) 95,74 %
19.10.2018 19:48 12,1 C 12,2 C 9,4 C 83 % 1021,6 hPa 0,0 l/m 5,0 km/h (1 Bft) O 92 0 min 0,000 mm 0,0 UV-I 0 W/m 9,3 C 12,1 C 8,0 km/h (2 Bft) 95,74 %
19.10.2018 19:50 12,1 C 12,2 C 9,4 C 83 % 1021,6 hPa 0,0 l/m 4,8 km/h (1 Bft) NO 55 0 min 0,000 mm 0,0 UV-I 0 W/m 9,3 C 12,1 C 6,4 km/h (2 Bft) 95,74 %
19.10.2018 19:52 12,0 C 12,2 C 9,4 C 84 % 1021,6 hPa 0,0 l/m 5,0 km/h (1 Bft) O-NO 76 0 min 0,000 mm 0,0 UV-I 0 W/m 9,4 C 12,0 C 11,3 km/h (2 Bft) 97,92 %
19.10.2018 19:54 11,9 C 12,2 C 9,4 C 83 % 1021,6 hPa 0,0 l/m 5,4 km/h (1 Bft) O-NO 64 0 min 0,000 mm 0,0 UV-I 0 W/m 9,1 C 11,9 C 8,0 km/h (2 Bft) 97,87 %
19.10.2018 19:56 11,9 C 12,2 C 9,4 C 84 % 1021,6 hPa 0,0 l/m 4,8 km/h (1 Bft) O-NO 64 0 min 0,000 mm 0,0 UV-I 0 W/m 9,3 C 11,9 C 8,0 km/h (2 Bft) 97,87 %
19.10.2018 19:59 11,8 C 12,2 C 9,4 C 84 % 1021,6 hPa 0,0 l/m 4,3 km/h (1 Bft) O-NO 59 0 min 0,000 mm 0,0 UV-I 0 W/m 9,2 C 11,8 C 6,4 km/h (2 Bft) 97,14 %
19.10.2018 20:00 11,8 C 12,2 C 8,9 C 84 % 1021,6 hPa 0,0 l/m 4,4 km/h (1 Bft) O 82 0 min 0,000 mm 0,0 UV-I 0 W/m 9,2 C 11,8 C 4,8 km/h (1 Bft) 95,83 %
19.10.2018 20:02 11,8 C 12,2 C 9,4 C 85 % 1021,5 hPa 0,0 l/m 5,4 km/h (1 Bft) O 86 0 min 0,025 mm 0,0 UV-I 0 W/m 9,4 C 11,8 C 8,0 km/h (2 Bft) 94,00 %
19.10.2018 20:04 11,8 C 12,2 C 9,4 C 85 % 1021,5 hPa 0,0 l/m 6,1 km/h (2 Bft) O 84 0 min 0,000 mm 0,0 UV-I 0 W/m 9,4 C 11,8 C 8,0 km/h (2 Bft) 97,37 %
19.10.2018 20:06 11,8 C 12,2 C 9,4 C 85 % 1021,5 hPa 0,0 l/m 6,2 km/h (2 Bft) O 99 0 min 0,000 mm 0,0 UV-I 0 W/m 9,4 C 11,8 C 11,3 km/h (2 Bft) 97,87 %
19.10.2018 20:08 11,8 C 12,2 C 9,4 C 85 % 1021,5 hPa 0,0 l/m 5,1 km/h (1 Bft) O 84 0 min 0,000 mm 0,0 UV-I 0 W/m 9,4 C 11,8 C 8,0 km/h (2 Bft) 95,74 %
19.10.2018 20:10 11,7 C 12,2 C 9,4 C 85 % 1021,5 hPa 0,0 l/m 5,8 km/h (2 Bft) O 96 0 min 0,000 mm 0,0 UV-I 0 W/m 9,3 C 11,7 C 9,7 km/h (2 Bft) 97,87 %
19.10.2018 20:12 11,6 C 12,2 C 8,9 C 85 % 1021,5 hPa 0,0 l/m 6,3 km/h (2 Bft) O-SO 102 0 min 0,000 mm 0,0 UV-I 0 W/m 9,2 C 11,6 C 11,3 km/h (2 Bft) 98,11 %
19.10.2018 20:14 11,5 C 12,2 C 8,9 C 85 % 1021,5 hPa 0,0 l/m 5,7 km/h (1 Bft) O-SO 105 0 min 0,000 mm 0,0 UV-I 0 W/m 9,1 C 11,5 C 9,7 km/h (2 Bft) 93,62 %
19.10.2018 20:16 11,4 C 12,2 C 8,9 C 86 % 1021,4 hPa 0,0 l/m 3,9 km/h (1 Bft) O 84 0 min 0,000 mm 0,0 UV-I 0 W/m 9,1 C 11,4 C 6,4 km/h (2 Bft) 97,37 %
19.10.2018 20:18 11,3 C 12,2 C 8,3 C 86 % 1021,5 hPa 0,0 l/m 4,4 km/h (1 Bft) O 98 0 min 0,000 mm 0,0 UV-I 0 W/m 9,0 C 11,3 C 6,4 km/h (2 Bft) 97,87 %
19.10.2018 20:20 11,3 C 12,2 C 8,3 C 86 % 1021,5 hPa 0,0 l/m 4,3 km/h (1 Bft) O 88 0 min 0,000 mm 0,0 UV-I 0 W/m 9,0 C 11,3 C 6,4 km/h (2 Bft) 97,87 %
19.10.2018 20:22 11,3 C 12,2 C 8,3 C 86 % 1021,6 hPa 0,0 l/m 4,6 km/h (1 Bft) O 99 0 min 0,000 mm 0,0 UV-I 0 W/m 9,0 C 11,3 C 6,4 km/h (2 Bft) 100,00 %
19.10.2018 20:24 11,3 C 12,2 C 8,3 C 86 % 1021,6 hPa 0,0 l/m 4,3 km/h (1 Bft) O 96 0 min 0,000 mm 0,0 UV-I 0 W/m 9,0 C 11,3 C 6,4 km/h (2 Bft) 95,74 %
19.10.2018 20:26 11,2 C 12,2 C 7,8 C 86 % 1021,6 hPa 0,0 l/m 4,5 km/h (1 Bft) O 97 0 min 0,000 mm 0,0 UV-I 0 W/m 8,9 C 11,2 C 4,8 km/h (1 Bft) 100,00 %
19.10.2018 20:28 11,1 C 12,2 C 7,8 C 87 % 1021,6 hPa 0,0 l/m 4,5 km/h (1 Bft) O-NO 76 0 min 0,000 mm 0,0 UV-I 0 W/m 9,0 C 11,1 C 6,4 km/h (2 Bft) 97,87 %
19.10.2018 20:30 11,1 C 12,2 C 7,8 C 87 % 1021,6 hPa 0,0 l/m 4,9 km/h (1 Bft) O-SO 103 0 min 0,000 mm 0,0 UV-I 0 W/m 9,0 C 11,1 C 6,4 km/h (2 Bft) 100,00 %
19.10.2018 20:32 11,0 C 12,2 C 7,8 C 87 % 1021,6 hPa 0,0 l/m 5,1 km/h (1 Bft) O-SO 102 0 min 0,000 mm 0,0 UV-I 0 W/m 8,9 C 11,0 C 6,4 km/h (2 Bft) 100,00 %
19.10.2018 20:34 10,9 C 12,2 C 7,2 C 87 % 1021,6 hPa 0,0 l/m 5,5 km/h (1 Bft) O 91 0 min 0,000 mm 0,0 UV-I 0 W/m 8,8 C 10,9 C 9,7 km/h (2 Bft) 100,00 %
19.10.2018 20:36 10,9 C 12,2 C 7,2 C 87 % 1021,6 hPa 0,0 l/m 5,4 km/h (1 Bft) O-SO 107 0 min 0,000 mm 0,0 UV-I 0 W/m 8,8 C 10,9 C 6,4 km/h (2 Bft) 97,87 %
19.10.2018 20:38 10,8 C 12,2 C 7,2 C 87 % 1021,7 hPa 0,0 l/m 5,8 km/h (2 Bft) O 96 0 min 0,000 mm 0,0 UV-I 0 W/m 8,7 C 10,8 C 6,4 km/h (2 Bft) 96,00 %
19.10.2018 20:40 10,7 C 12,2 C 7,2 C 88 % 1021,7 hPa 0,0 l/m 6,1 km/h (2 Bft) O 101 0 min 0,000 mm 0,0 UV-I 0 W/m 8,8 C 10,7 C 9,7 km/h (2 Bft) 95,74 %
19.10.2018 20:42 10,7 C 12,2 C 7,2 C 88 % 1021,7 hPa 0,0 l/m 5,1 km/h (1 Bft) O-NO 72 0 min 0,000 mm 0,0 UV-I 0 W/m 8,8 C 10,7 C 6,4 km/h (2 Bft) 97,87 %
19.10.2018 20:44 10,7 C 12,2 C 7,2 C 88 % 1021,6 hPa 0,0 l/m 4,7 km/h (1 Bft) O 80 0 min 0,000 mm 0,0 UV-I 0 W/m 8,8 C 10,7 C 6,4 km/h (2 Bft) 97,87 %
19.10.2018 20:46 10,8 C 12,2 C 7,8 C 88 % 1021,7 hPa 0,0 l/m 4,7 km/h (1 Bft) O-NO 77 0 min 0,000 mm 0,0 UV-I 0 W/m 8,9 C 10,8 C 8,0 km/h (2 Bft) 98,00 %
19.10.2018 20:48 10,9 C 12,2 C 7,8 C 88 % 1021,7 hPa 0,0 l/m 5,1 km/h (1 Bft) O 80 0 min 0,000 mm 0,0 UV-I 0 W/m 9,0 C 10,9 C 6,4 km/h (2 Bft) 97,37 %
19.10.2018 20:50 11,0 C 12,2 C 7,8 C 88 % 1021,7 hPa 0,0 l/m 5,3 km/h (1 Bft) O 83 0 min 0,000 mm 0,0 UV-I 0 W/m 9,1 C 11,0 C 8,0 km/h (2 Bft) 95,74 %
19.10.2018 20:52 11,0 C 12,2 C 7,8 C 87 % 1021,7 hPa 0,0 l/m 4,2 km/h (1 Bft) O 80 0 min 0,000 mm 0,0 UV-I 0 W/m 8,9 C 11,0 C 6,4 km/h (2 Bft) 95,74 %
19.10.2018 20:54 11,1 C 12,2 C 7,8 C 87 % 1021,7 hPa 0,0 l/m 3,9 km/h (1 Bft) O-NO 76 0 min 0,000 mm 0,0 UV-I 0 W/m 9,0 C 11,1 C 6,4 km/h (2 Bft) 95,74 %
19.10.2018 20:56 10,9 C 12,2 C 7,8 C 87 % 1021,7 hPa 0,0 l/m 4,2 km/h (1 Bft) O-NO 75 0 min 0,000 mm 0,0 UV-I 0 W/m 8,8 C 10,9 C 6,4 km/h (2 Bft) 93,62 %
19.10.2018 20:58 10,8 C 12,2 C 8,3 C 87 % 1021,7 hPa 0,0 l/m 4,1 km/h (1 Bft) O-NO 71 0 min 0,000 mm 0,0 UV-I 0 W/m 8,7 C 10,8 C 6,4 km/h (2 Bft) 98,00 %
19.10.2018 21:00 10,9 C 12,2 C 7,8 C 87 % 1021,8 hPa 0,0 l/m 4,8 km/h (1 Bft) O-NO 77 0 min 0,000 mm 0,0 UV-I 0 W/m 8,8 C 10,9 C 6,4 km/h (2 Bft) 97,87 %
19.10.2018 21:02 10,8 C 12,2 C 7,8 C 87 % 1021,8 hPa 0,0 l/m 4,1 km/h (1 Bft) O-NO 74 0 min 0,000 mm 0,0 UV-I 0 W/m 8,7 C 10,8 C 6,4 km/h (2 Bft) 100,00 %
19.10.2018 21:04 10,8 C 12,2 C 7,2 C 87 % 1021,9 hPa 0,0 l/m 4,0 km/h (1 Bft) O-NO 78 0 min 0,000 mm 0,0 UV-I 0 W/m 8,7 C 10,8 C 6,4 km/h (2 Bft) 100,00 %
19.10.2018 21:06 10,8 C 12,2 C 7,2 C 87 % 1021,9 hPa 0,0 l/m 3,2 km/h (1 Bft) O-NO 78 0 min 0,000 mm 0,0 UV-I 0 W/m 8,7 C 10,8 C 6,4 km/h (2 Bft) 97,87 %
19.10.2018 21:08 10,7 C 12,2 C 7,2 C 87 % 1021,9 hPa 0,0 l/m 2,8 km/h (1 Bft) O-NO 67 0 min 0,000 mm 0,0 UV-I 0 W/m 8,6 C 10,7 C 4,8 km/h (1 Bft) 100,00 %
19.10.2018 21:10 10,6 C 12,2 C 7,2 C 87 % 1021,9 hPa 0,0 l/m 3,1 km/h (1 Bft) NO 56 0 min 0,000 mm 0,0 UV-I 0 W/m 8,5 C 10,6 C 4,8 km/h (1 Bft) 100,00 %
19.10.2018 21:12 10,6 C 12,2 C 6,7 C 88 % 1021,9 hPa 0,0 l/m 2,0 km/h (1 Bft) NO 56 0 min 0,000 mm 0,0 UV-I 0 W/m 8,7 C 10,6 C 3,2 km/h (1 Bft) 100,00 %
19.10.2018 21:14 10,6 C 12,2 C 6,1 C 88 % 1021,9 hPa 0,0 l/m 2,4 km/h (1 Bft) O-NO 64 0 min 0,000 mm 0,0 UV-I 0 W/m 8,7 C 10,6 C 4,8 km/h (1 Bft) 100,00 %
19.10.2018 21:16 10,5 C 12,2 C 6,1 C 88 % 1021,9 hPa 0,0 l/m 3,1 km/h (1 Bft) O-NO 64 0 min 0,000 mm 0,0 UV-I 0 W/m 8,6 C 10,5 C 4,8 km/h (1 Bft) 100,00 %
19.10.2018 21:18 10,4 C 12,2 C 6,1 C 88 % 1022,0 hPa 0,0 l/m 3,3 km/h (1 Bft) O-NO 64 0 min 0,000 mm 0,0 UV-I 0 W/m 8,5 C 10,4 C 4,8 km/h (1 Bft) 100,00 %
19.10.2018 21:20 10,3 C 12,2 C 6,1 C 88 % 1022,1 hPa 0,0 l/m 2,3 km/h (1 Bft) O-NO 64 0 min 0,000 mm 0,0 UV-I 0 W/m 8,4 C 10,3 C 3,2 km/h (1 Bft) 100,00 %
19.10.2018 21:22 10,3 C 12,2 C 6,1 C 88 % 1022,0 hPa 0,0 l/m 3,5 km/h (1 Bft) O-NO 63 0 min 0,000 mm 0,0 UV-I 0 W/m 8,4 C 10,3 C 4,8 km/h (1 Bft) 100,00 %
19.10.2018 21:24 10,2 C 12,2 C 5,6 C 88 % 1022,1 hPa 0,0 l/m 3,3 km/h (1 Bft) O-NO 63 0 min 0,000 mm 0,0 UV-I 0 W/m 8,3 C 10,2 C 4,8 km/h (1 Bft) 97,87 %
19.10.2018 21:26 10,1 C 12,2 C 5,6 C 88 % 1022,1 hPa 0,0 l/m 2,7 km/h (1 Bft) O-NO 63 0 min 0,000 mm 0,0 UV-I 0 W/m 8,2 C 10,1 C 4,8 km/h (1 Bft) 100,00 %
19.10.2018 21:28 10,1 C 12,2 C 5,6 C 88 % 1022,1 hPa 0,0 l/m 2,9 km/h (1 Bft) O-NO 63 0 min 0,000 mm 0,0 UV-I 0 W/m 8,2 C 10,1 C 4,8 km/h (1 Bft) 100,00 %
19.10.2018 21:30 10,0 C 12,2 C 5,6 C 89 % 1022,1 hPa 0,0 l/m 2,6 km/h (1 Bft) O-NO 63 0 min 0,000 mm 0,0 UV-I 0 W/m 8,3 C 10,0 C 4,8 km/h (1 Bft) 97,87 %
19.10.2018 21:32 9,9 C 12,2 C 5,6 C 89 % 1022,2 hPa 0,0 l/m 2,6 km/h (1 Bft) O-NO 63 0 min 0,000 mm 0,0 UV-I 0 W/m 8,2 C 9,9 C 4,8 km/h (1 Bft) 98,04 %
19.10.2018 21:34 9,9 C 12,2 C 5,0 C 89 % 1022,2 hPa 0,0 l/m 2,1 km/h (1 Bft) O-NO 63 0 min 0,000 mm 0,0 UV-I 0 W/m 8,2 C 9,9 C 3,2 km/h (1 Bft) 97,56 %
19.10.2018 21:36 9,8 C 12,2 C 5,0 C 89 % 1022,2 hPa 0,0 l/m 2,4 km/h (1 Bft) O-NO 63 0 min 0,000 mm 0,0 UV-I 0 W/m 8,1 C 9,8 C 3,2 km/h (1 Bft) 97,87 %
19.10.2018 21:38 9,8 C 12,2 C 5,0 C 89 % 1022,2 hPa 0,0 l/m 2,7 km/h (1 Bft) O-NO 63 0 min 0,000 mm 0,0 UV-I 0 W/m 8,1 C 9,8 C 3,2 km/h (1 Bft) 100,00 %
19.10.2018 21:40 9,8 C 12,2 C 4,4 C 90 % 1022,2 hPa 0,0 l/m 2,9 km/h (1 Bft) O-NO 63 0 min 0,000 mm 0,0 UV-I 0 W/m 8,2 C 9,8 C 4,8 km/h (1 Bft) 100,00 %
19.10.2018 21:42 9,8 C 12,2 C 4,4 C 90 % 1022,3 hPa 0,0 l/m 2,6 km/h (1 Bft) O-NO 63 0 min 0,000 mm 0,0 UV-I 0 W/m 8,2 C 9,8 C 3,2 km/h (1 Bft) 97,87 %
19.10.2018 21:44 9,8 C 12,2 C 4,4 C 90 % 1022,3 hPa 0,0 l/m 2,4 km/h (1 Bft) O-NO 63 0 min 0,000 mm 0,0 UV-I 0 W/m 8,2 C 9,8 C 3,2 km/h (1 Bft) 100,00 %
19.10.2018 21:46 9,7 C 12,2 C 5,0 C 89 % 1022,3 hPa 0,0 l/m 1,6 km/h (1 Bft) O-NO 63 0 min 0,000 mm 0,0 UV-I 0 W/m 8,0 C 9,7 C 3,2 km/h (1 Bft) 100,00 %
19.10.2018 21:48 9,6 C 12,2 C 5,0 C 89 % 1022,4 hPa 0,0 l/m 0,4 km/h (0 Bft) O-NO 63 0 min 0,000 mm 0,0 UV-I 0 W/m 7,9 C 9,6 C 1,6 km/h (1 Bft) 100,00 %
19.10.2018 21:50 9,4 C 12,2 C 5,0 C 89 % 1022,4 hPa 0,0 l/m 0,0 km/h (0 Bft) O-NO 63 0 min 0,000 mm 0,0 UV-I 0 W/m 7,7 C 9,4 C 0,0 km/h (0 Bft) 100,00 %
19.10.2018 21:52 9,4 C 12,2 C 5,0 C 90 % 1022,4 hPa 0,0 l/m 0,0 km/h (0 Bft) O-NO 63 0 min 0,000 mm 0,0 UV-I 0 W/m 7,8 C 9,4 C 0,0 km/h (0 Bft) 98,00 %
19.10.2018 21:54 9,4 C 12,2 C 4,4 C 90 % 1022,5 hPa 0,0 l/m 0,0 km/h (0 Bft) O-NO 63 0 min 0,000 mm 0,0 UV-I 0 W/m 7,8 C 9,4 C 0,0 km/h (0 Bft) 95,74 %
19.10.2018 21:56 9,3 C 12,2 C 5,0 C 90 % 1022,5 hPa 0,0 l/m 0,0 km/h (0 Bft) O-NO 63 0 min 0,000 mm 0,0 UV-I 0 W/m 7,7 C 9,3 C 0,0 km/h (0 Bft) 97,14 %
19.10.2018 21:58 9,1 C 12,2 C 5,0 C 90 % 1022,5 hPa 0,0 l/m 0,8 km/h (0 Bft) O-NO 63 0 min 0,000 mm 0,0 UV-I 0 W/m 7,5 C 9,1 C 1,6 km/h (1 Bft) 93,22 %
19.10.2018 22:00 8,9 C 12,2 C 5,0 C 91 % 1022,5 hPa 0,0 l/m 1,4 km/h (1 Bft) O-NO 63 0 min 0,000 mm 0,0 UV-I 0 W/m 7,5 C 8,9 C 1,6 km/h (1 Bft) 94,44 %
19.10.2018 22:02 8,8 C 12,2 C 5,0 C 91 % 1022,5 hPa 0,0 l/m 1,5 km/h (1 Bft) O-NO 63 0 min 0,000 mm 0,0 UV-I 0 W/m 7,4 C 8,8 C 1,6 km/h (1 Bft) 93,62 %
19.10.2018 22:04 8,9 C 12,2 C 5,0 C 92 % 1022,5 hPa 0,0 l/m 1,5 km/h (1 Bft) O-NO 63 0 min 0,000 mm 0,0 UV-I 0 W/m 7,7 C 8,9 C 3,2 km/h (1 Bft) 93,62 %
19.10.2018 22:06 8,9 C 12,2 C 5,0 C 92 % 1022,5 hPa 0,0 l/m 1,5 km/h (1 Bft) O-NO 63 0 min 0,000 mm 0,0 UV-I 0 W/m 7,7 C 8,9 C 1,6 km/h (1 Bft) 91,49 %
19.10.2018 22:08 8,9 C 12,2 C 5,0 C 92 % 1022,6 hPa 0,0 l/m 1,6 km/h (1 Bft) O-NO 63 0 min 0,000 mm 0,0 UV-I 0 W/m 7,7 C 8,9 C 3,2 km/h (1 Bft) 96,00 %
19.10.2018 22:10 8,8 C 12,2 C 5,0 C 92 % 1022,6 hPa 0,0 l/m 2,2 km/h (1 Bft) O-NO 63 0 min 0,000 mm 0,0 UV-I 0 W/m 7,6 C 8,8 C 3,2 km/h (1 Bft) 93,62 %
19.10.2018 22:12 8,9 C 12,2 C 5,0 C 92 % 1022,6 hPa 0,0 l/m 1,3 km/h (1 Bft) O-NO 63 0 min 0,000 mm 0,0 UV-I 0 W/m 7,7 C 8,9 C 1,6 km/h (1 Bft) 93,62 %
19.10.2018 22:14 8,8 C 12,2 C 5,0 C 92 % 1022,6 hPa 0,0 l/m 0,8 km/h (0 Bft) O-NO 63 0 min 0,000 mm 0,0 UV-I 0 W/m 7,6 C 8,8 C 1,6 km/h (1 Bft) 97,87 %
19.10.2018 22:16 8,7 C 12,2 C 5,0 C 92 % 1022,6 hPa 0,0 l/m 0,4 km/h (0 Bft) O-NO 63 0 min 0,000 mm 0,0 UV-I 0 W/m 7,5 C 8,7 C 1,6 km/h (1 Bft) 95,74 %
19.10.2018 22:18 8,7 C 12,2 C 5,0 C 92 % 1022,6 hPa 0,0 l/m 1,4 km/h (1 Bft) O-NO 63 0 min 0,000 mm 0,0 UV-I 0 W/m 7,5 C 8,7 C 3,2 km/h (1 Bft) 95,74 %
19.10.2018 22:20 8,7 C 12,2 C 4,4 C 93 % 1022,6 hPa 0,0 l/m 1,2 km/h (1 Bft) O-NO 63 0 min 0,000 mm 0,0 UV-I 0 W/m 7,6 C 8,7 C 1,6 km/h (1 Bft) 94,00 %
19.10.2018 22:22 8,7 C 12,2 C 4,4 C 92 % 1022,7 hPa 0,0 l/m 1,5 km/h (1 Bft) O-NO 63 0 min 0,000 mm 0,0 UV-I 0 W/m 7,5 C 8,7 C 1,6 km/h (1 Bft) 94,87 %
19.10.2018 22:24 8,7 C 12,2 C 4,4 C 93 % 1022,7 hPa 0,0 l/m 1,8 km/h (1 Bft) O-NO 63 0 min 0,000 mm 0,0 UV-I 0 W/m 7,6 C 8,7 C 3,2 km/h (1 Bft) 91,49 %
19.10.2018 22:26 8,7 C 12,2 C 4,4 C 93 % 1022,7 hPa 0,0 l/m 2,0 km/h (1 Bft) O-NO 63 0 min 0,000 mm 0,0 UV-I 0 W/m 7,6 C 8,7 C 3,2 km/h (1 Bft) 93,62 %
19.10.2018 22:28 8,7 C 12,2 C 4,4 C 93 % 1022,7 hPa 0,0 l/m 1,5 km/h (1 Bft) O-NO 63 0 min 0,000 mm 0,0 UV-I 0 W/m 7,6 C 8,7 C 1,6 km/h (1 Bft) 93,62 %
19.10.2018 22:30 8,7 C 12,2 C 4,4 C 93 % 1022,8 hPa 0,0 l/m 1,2 km/h (1 Bft) O-NO 63 0 min 0,000 mm 0,0 UV-I 0 W/m 7,6 C 8,7 C 1,6 km/h (1 Bft) 91,49 %
19.10.2018 22:32 8,6 C 12,2 C 4,4 C 93 % 1022,8 hPa 0,0 l/m 1,4 km/h (1 Bft) O-NO 63 0 min 0,000 mm 0,0 UV-I 0 W/m 7,5 C 8,6 C 3,2 km/h (1 Bft) 95,74 %
19.10.2018 22:34 8,6 C 12,2 C 4,4 C 93 % 1022,8 hPa 0,0 l/m 1,6 km/h (1 Bft) O-NO 63 0 min 0,000 mm 0,0 UV-I 0 W/m 7,5 C 8,6 C 3,2 km/h (1 Bft) 96,00 %
19.10.2018 22:36 8,5 C 12,2 C 4,4 C 93 % 1022,8 hPa 0,0 l/m 0,7 km/h (0 Bft) O-NO 63 0 min 0,000 mm 0,0 UV-I 0 W/m 7,4 C 8,5 C 1,6 km/h (1 Bft) 95,74 %
19.10.2018 22:38 8,4 C 12,2 C 4,4 C 93 % 1022,8 hPa 0,0 l/m 0,1 km/h (0 Bft) O-NO 63 0 min 0,000 mm 0,0 UV-I 0 W/m 7,3 C 8,4 C 1,6 km/h (1 Bft) 98,00 %
19.10.2018 22:40 8,5 C 12,2 C 4,4 C 93 % 1022,8 hPa 0,0 l/m 0,0 km/h (0 Bft) O-NO 63 0 min 0,000 mm 0,0 UV-I 0 W/m 7,4 C 8,5 C 0,0 km/h (0 Bft) 96,00 %
19.10.2018 22:42 8,6 C 12,2 C 3,9 C 93 % 1022,8 hPa 0,0 l/m 0,0 km/h (0 Bft) O-NO 63 0 min 0,000 mm 0,0 UV-I 0 W/m 7,5 C 8,6 C 0,0 km/h (0 Bft) 97,37 %
19.10.2018 22:44 8,7 C 12,2 C 3,9 C 93 % 1022,8 hPa 0,0 l/m 0,4 km/h (0 Bft) O-NO 63 0 min 0,000 mm 0,0 UV-I 0 W/m 7,6 C 8,7 C 1,6 km/h (1 Bft) 95,74 %
19.10.2018 22:46 8,7 C 12,2 C 3,9 C 93 % 1022,8 hPa 0,0 l/m 1,2 km/h (1 Bft) O-NO 63 0 min 0,000 mm 0,0 UV-I 0 W/m 7,6 C 8,7 C 1,6 km/h (1 Bft) 96,23 %
19.10.2018 22:48 8,7 C 12,2 C 3,3 C 93 % 1022,8 hPa 0,0 l/m 1,7 km/h (1 Bft) O-NO 63 0 min 0,000 mm 0,0 UV-I 0 W/m 7,6 C 8,7 C 3,2 km/h (1 Bft) 95,74 %
19.10.2018 22:50 8,7 C 12,2 C 3,3 C 93 % 1022,8 hPa 0,0 l/m 2,7 km/h (1 Bft) O-NO 63 0 min 0,000 mm 0,0 UV-I 0 W/m 7,6 C 8,7 C 3,2 km/h (1 Bft) 97,87 %
19.10.2018 22:52 8,8 C 12,2 C 3,3 C 93 % 1022,9 hPa 0,0 l/m 2,8 km/h (1 Bft) O-NO 63 0 min 0,000 mm 0,0 UV-I 0 W/m 7,7 C 8,8 C 3,2 km/h (1 Bft) 97,87 %
19.10.2018 22:54 8,8 C 12,2 C 3,3 C 93 % 1022,9 hPa 0,0 l/m 3,2 km/h (1 Bft) O-NO 63 0 min 0,000 mm 0,0 UV-I 0 W/m 7,7 C 8,8 C 4,8 km/h (1 Bft) 97,44 %
19.10.2018 22:56 8,9 C 12,2 C 3,3 C 93 % 1022,9 hPa 0,0 l/m 3,7 km/h (1 Bft) O-NO 63 0 min 0,000 mm 0,0 UV-I 0 W/m 7,8 C 8,9 C 4,8 km/h (1 Bft) 97,87 %
19.10.2018 22:58 9,0 C 12,2 C 3,3 C 93 % 1022,9 hPa 0,0 l/m 3,5 km/h (1 Bft) O-NO 63 0 min 0,000 mm 0,0 UV-I 0 W/m 7,9 C 9,0 C 4,8 km/h (1 Bft) 95,74 %
19.10.2018 23:00 9,1 C 12,2 C 3,3 C 93 % 1022,9 hPa 0,0 l/m 3,5 km/h (1 Bft) O-NO 63 0 min 0,000 mm 0,0 UV-I 0 W/m 8,0 C 9,1 C 4,8 km/h (1 Bft) 97,87 %
19.10.2018 23:02 9,1 C 12,2 C 3,3 C 93 % 1022,9 hPa 0,0 l/m 3,4 km/h (1 Bft) O-NO 63 0 min 0,000 mm 0,0 UV-I 0 W/m 8,0 C 9,1 C 4,8 km/h (1 Bft) 98,00 %
19.10.2018 23:04 9,1 C 12,2 C 3,9 C 92 % 1022,8 hPa 0,0 l/m 3,5 km/h (1 Bft) O-NO 63 0 min 0,000 mm 0,0 UV-I 0 W/m 7,9 C 9,1 C 4,8 km/h (1 Bft) 98,00 %
19.10.2018 23:06 9,1 C 12,2 C 3,9 C 92 % 1022,9 hPa 0,0 l/m 3,5 km/h (1 Bft) O-NO 63 0 min 0,000 mm 0,0 UV-I 0 W/m 7,9 C 9,1 C 4,8 km/h (1 Bft) 97,37 %
19.10.2018 23:08 9,1 C 12,2 C 4,4 C 92 % 1022,9 hPa 0,0 l/m 3,5 km/h (1 Bft) O-NO 63 0 min 0,000 mm 0,0 UV-I 0 W/m 7,9 C 9,1 C 4,8 km/h (1 Bft) 98,18 %
19.10.2018 23:10 9,1 C 12,2 C 4,4 C 92 % 1022,8 hPa 0,0 l/m 3,2 km/h (1 Bft) O-NO 63 0 min 0,000 mm 0,0 UV-I 0 W/m 7,9 C 9,1 C 4,8 km/h (1 Bft) 92,00 %
19.10.2018 23:12 9,1 C 12,2 C 4,4 C 92 % 1022,8 hPa 0,0 l/m 3,1 km/h (1 Bft) O-NO 63 0 min 0,000 mm 0,0 UV-I 0 W/m 7,9 C 9,1 C 4,8 km/h (1 Bft) 95,74 %
19.10.2018 23:14 9,1 C 12,2 C 4,4 C 92 % 1022,8 hPa 0,0 l/m 3,6 km/h (1 Bft) O-NO 63 0 min 0,000 mm 0,0 UV-I 0 W/m 7,9 C 9,1 C 4,8 km/h (1 Bft) 95,74 %
19.10.2018 23:16 9,2 C 12,2 C 4,4 C 93 % 1022,8 hPa 0,0 l/m 4,3 km/h (1 Bft) O-NO 63 0 min 0,000 mm 0,0 UV-I 0 W/m 8,1 C 9,2 C 4,8 km/h (1 Bft) 92,68 %
19.10.2018 23:18 9,2 C 12,2 C 5,0 C 93 % 1022,9 hPa 0,0 l/m 4,4 km/h (1 Bft) O-NO 59 0 min 0,000 mm 0,0 UV-I 0 W/m 8,1 C 9,2 C 4,8 km/h (1 Bft) 91,49 %
19.10.2018 23:20 9,1 C 12,2 C 5,0 C 93 % 1022,9 hPa 0,0 l/m 5,0 km/h (1 Bft) NO 54 0 min 0,000 mm 0,0 UV-I 0 W/m 8,0 C 9,1 C 6,4 km/h (2 Bft) 95,74 %
19.10.2018 23:22 9,1 C 12,2 C 5,6 C 93 % 1022,9 hPa 0,0 l/m 5,2 km/h (1 Bft) NO 51 0 min 0,000 mm 0,0 UV-I 0 W/m 8,0 C 9,1 C 6,4 km/h (2 Bft) 97,92 %
19.10.2018 23:24 9,1 C 12,2 C 5,6 C 93 % 1022,9 hPa 0,0 l/m 4,7 km/h (1 Bft) NO 50 0 min 0,000 mm 0,0 UV-I 0 W/m 8,0 C 9,1 C 6,4 km/h (2 Bft) 97,87 %
19.10.2018 23:26 9,1 C 12,2 C 5,6 C 93 % 1022,9 hPa 0,0 l/m 5,2 km/h (1 Bft) NO 46 0 min 0,000 mm 0,0 UV-I 0 W/m 8,0 C 9,1 C 6,4 km/h (2 Bft) 97,87 %
19.10.2018 23:28 9,1 C 12,2 C 5,6 C 93 % 1023,0 hPa 0,0 l/m 4,4 km/h (1 Bft) NO 44 0 min 0,000 mm 0,0 UV-I 0 W/m 8,0 C 9,1 C 6,4 km/h (2 Bft) 96,00 %
19.10.2018 23:30 9,1 C 12,2 C 5,6 C 93 % 1022,9 hPa 0,0 l/m 3,0 km/h (1 Bft) NO 44 0 min 0,000 mm 0,0 UV-I 0 W/m 8,0 C 9,1 C 4,8 km/h (1 Bft) 95,74 %
19.10.2018 23:32 9,1 C 12,2 C 5,6 C 93 % 1023,0 hPa 0,0 l/m 1,8 km/h (1 Bft) NO 44 0 min 0,000 mm 0,0 UV-I 0 W/m 8,0 C 9,1 C 3,2 km/h (1 Bft) 97,87 %
19.10.2018 23:34 9,1 C 12,2 C 5,0 C 93 % 1023,0 hPa 0,0 l/m 2,1 km/h (1 Bft) NO 44 0 min 0,000 mm 0,0 UV-I 0 W/m 8,0 C 9,1 C 3,2 km/h (1 Bft) 97,87 %
19.10.2018 23:36 9,1 C 12,2 C 4,4 C 93 % 1023,0 hPa 0,0 l/m 1,7 km/h (1 Bft) NO 44 0 min 0,000 mm 0,0 UV-I 0 W/m 8,0 C 9,1 C 3,2 km/h (1 Bft) 100,00 %
19.10.2018 23:38 8,8 C 12,2 C 4,4 C 92 % 1023,0 hPa 0,0 l/m 0,1 km/h (0 Bft) NO 44 0 min 0,000 mm 0,0 UV-I 0 W/m 7,6 C 8,8 C 1,6 km/h (1 Bft) 100,00 %
19.10.2018 23:40 8,6 C 12,2 C 4,4 C 92 % 1023,0 hPa 0,0 l/m 0,0 km/h (0 Bft) NO 44 0 min 0,000 mm 0,0 UV-I 0 W/m 7,4 C 8,6 C 0,0 km/h (0 Bft) 100,00 %
19.10.2018 23:42 8,4 C 12,2 C 4,4 C 92 % 1023,1 hPa 0,0 l/m 0,0 km/h (0 Bft) NO 44 0 min 0,000 mm 0,0 UV-I 0 W/m 7,2 C 8,4 C 0,0 km/h (0 Bft) 100,00 %
19.10.2018 23:44 8,1 C 12,2 C 4,4 C 92 % 1023,1 hPa 0,0 l/m 1,4 km/h (1 Bft) NO 44 0 min 0,000 mm 0,0 UV-I 0 W/m 6,9 C 8,1 C 3,2 km/h (1 Bft) 95,74 %
19.10.2018 23:46 7,8 C 12,2 C 5,0 C 91 % 1023,1 hPa 0,0 l/m 2,6 km/h (1 Bft) NO 44 0 min 0,000 mm 0,0 UV-I 0 W/m 6,4 C 7,8 C 3,2 km/h (1 Bft) 97,87 %
19.10.2018 23:48 7,6 C 12,2 C 5,0 C 92 % 1023,1 hPa 0,0 l/m 3,4 km/h (1 Bft) NO 44 0 min 0,000 mm 0,0 UV-I 0 W/m 6,4 C 7,6 C 4,8 km/h (1 Bft) 100,00 %
19.10.2018 23:50 7,4 C 12,2 C 5,0 C 92 % 1023,1 hPa 0,0 l/m 4,0 km/h (1 Bft) NO 44 0 min 0,000 mm 0,0 UV-I 0 W/m 6,2 C 7,4 C 4,8 km/h (1 Bft) 97,87 %
19.10.2018 23:52 7,3 C 12,2 C 5,0 C 93 % 1023,2 hPa 0,0 l/m 4,7 km/h (1 Bft) W-SW 240 0 min 0,000 mm 0,0 UV-I 0 W/m 6,2 C 7,3 C 6,4 km/h (2 Bft) 100,00 %
19.10.2018 23:54 7,3 C 12,2 C 5,0 C 93 % 1023,2 hPa 0,0 l/m 4,5 km/h (1 Bft) W-SW 240 0 min 0,000 mm 0,0 UV-I 0 W/m 6,2 C 7,3 C 4,8 km/h (1 Bft) 100,00 %
19.10.2018 23:56 7,5 C 12,2 C 5,6 C 93 % 1023,2 hPa 0,0 l/m 5,2 km/h (1 Bft) S-SW 194 0 min 0,000 mm 0,0 UV-I 0 W/m 6,4 C 7,5 C 6,4 km/h (2 Bft) 100,00 %
19.10.2018 23:59 7,5 C 12,2 C 5,0 C 93 % 1023,3 hPa 0,0 l/m 4,4 km/h (1 Bft) S-SW 194 0 min 0,000 mm 0,0 UV-I 0 W/m 6,4 C 7,5 C 4,8 km/h (1 Bft) 100,00 %
_ Min-Zeit 07:44 00:00 06:46 15:42 04:02 - 04:20 - - - - - - 07:44 07:44 04:20 04:16
Minimum _ 5,8 C 12,2 C 2,2 C 62 % 1019,8 hPa - 0,0 km/h (0 Bft) - - - - - - 5,2 C 5,8 C 0,0 km/h (0 Bft) 83,33 %
_ Max-Zeit 15:50 00:00 12:00 05:06 23:59 00:00 14:46 - - 10:15 13:00 12:32 12:54 14:14 15:52 14:44 01:08
Maximum _ 17,6 C 12,2 C 23,3 C 96 % 1023,3 hPa 0,0 l/m 16,1 km/h
O (3 Bft)
- - 3 min 0,254 mm 1,4 UV-I 435 W/m 12,6 C 17,3 C 22,5 km/h
O (4 Bft)
100,00 %
Durchschnitt _ 11,0 C 12,2 C 9,7 C 87 % 1021,0 hPa #0,0 l/m 4,9 km/h (1 Bft) O-NO - #8:06 h #1,600 mm 1,0 UV-I 236 W/m 8,7 C 10,6 C 7,3 km/h (2 Bft) 97,10 %